<?xml version="1.0" encoding="UTF-8" standalone="no" ?>
<gpx xmlns="http://www.topografix.com/GPX/1/1" xmlns:xsi="http://www.w3.org/2001/XMLSchema-instance" xsi:schemaLocation="http://www.topografix.com/GPX/1/1 http://www.topografix.com/GPX/1/1/gpx.xsd" version="1.1" creator="VisuGPX - https://www.visugpx.com">
  <metadata>
    <name>V-14-09-07-sergy-collonges</name>
    <desc><![CDATA[Pays de Gex]]></desc>
  </metadata>
  <trk>
    <name><![CDATA[V-14-09-07-sergy Collonge]]></name>
    <trkseg>
      <trkpt lat="46.25905" lon="5.98972">
        <ele>532.72</ele>
        <time>2014-09-07T14:43:13Z</time>
      </trkpt>
      <trkpt lat="46.25905" lon="5.98974">
        <ele>532.72</ele>
        <time>2014-09-07T14:43:14Z</time>
      </trkpt>
      <trkpt lat="46.25906" lon="5.98986">
        <ele>532.38</ele>
        <time>2014-09-07T14:43:18Z</time>
      </trkpt>
      <trkpt lat="46.25895" lon="5.99008">
        <ele>531.14</ele>
        <time>2014-09-07T14:43:24Z</time>
      </trkpt>
      <trkpt lat="46.25883" lon="5.99024">
        <ele>530.41</ele>
        <time>2014-09-07T14:43:27Z</time>
      </trkpt>
      <trkpt lat="46.25846" lon="5.99079">
        <ele>527.1</ele>
        <time>2014-09-07T14:43:35Z</time>
      </trkpt>
      <trkpt lat="46.25823" lon="5.99116">
        <ele>525.04</ele>
        <time>2014-09-07T14:43:41Z</time>
      </trkpt>
      <trkpt lat="46.25818" lon="5.99123">
        <ele>524.56</ele>
        <time>2014-09-07T14:43:42Z</time>
      </trkpt>
      <trkpt lat="46.25813" lon="5.99129">
        <ele>524.12</ele>
        <time>2014-09-07T14:43:43Z</time>
      </trkpt>
      <trkpt lat="46.25807" lon="5.99136">
        <ele>523.61</ele>
        <time>2014-09-07T14:43:44Z</time>
      </trkpt>
      <trkpt lat="46.25774" lon="5.99168">
        <ele>520.88</ele>
        <time>2014-09-07T14:43:49Z</time>
      </trkpt>
      <trkpt lat="46.25769" lon="5.99176">
        <ele>520.39</ele>
        <time>2014-09-07T14:43:50Z</time>
      </trkpt>
      <trkpt lat="46.25765" lon="5.99185">
        <ele>519.99</ele>
        <time>2014-09-07T14:43:51Z</time>
      </trkpt>
      <trkpt lat="46.2576" lon="5.99196">
        <ele>519.6</ele>
        <time>2014-09-07T14:43:52Z</time>
      </trkpt>
      <trkpt lat="46.25756" lon="5.99207">
        <ele>519.1</ele>
        <time>2014-09-07T14:43:53Z</time>
      </trkpt>
      <trkpt lat="46.25749" lon="5.99231">
        <ele>517.73</ele>
        <time>2014-09-07T14:43:55Z</time>
      </trkpt>
      <trkpt lat="46.25731" lon="5.99275">
        <ele>515.21</ele>
        <time>2014-09-07T14:43:59Z</time>
      </trkpt>
      <trkpt lat="46.25725" lon="5.99285">
        <ele>514.8</ele>
        <time>2014-09-07T14:44:00Z</time>
      </trkpt>
      <trkpt lat="46.2571" lon="5.99304">
        <ele>513.79</ele>
        <time>2014-09-07T14:44:02Z</time>
      </trkpt>
      <trkpt lat="46.2567" lon="5.9935">
        <ele>510.52</ele>
        <time>2014-09-07T14:44:07Z</time>
      </trkpt>
      <trkpt lat="46.25634" lon="5.99381">
        <ele>506.84</ele>
        <time>2014-09-07T14:44:12Z</time>
      </trkpt>
      <trkpt lat="46.25621" lon="5.99395">
        <ele>505.26</ele>
        <time>2014-09-07T14:44:15Z</time>
      </trkpt>
      <trkpt lat="46.25617" lon="5.99398">
        <ele>504.75</ele>
        <time>2014-09-07T14:44:16Z</time>
      </trkpt>
      <trkpt lat="46.25612" lon="5.994">
        <ele>504.39</ele>
        <time>2014-09-07T14:44:17Z</time>
      </trkpt>
      <trkpt lat="46.25608" lon="5.99399">
        <ele>504.13</ele>
        <time>2014-09-07T14:44:18Z</time>
      </trkpt>
      <trkpt lat="46.25598" lon="5.99392">
        <ele>503.89</ele>
        <time>2014-09-07T14:44:20Z</time>
      </trkpt>
      <trkpt lat="46.25525" lon="5.99357">
        <ele>501.2</ele>
        <time>2014-09-07T14:44:32Z</time>
      </trkpt>
      <trkpt lat="46.25518" lon="5.99353">
        <ele>500.99</ele>
        <time>2014-09-07T14:44:33Z</time>
      </trkpt>
      <trkpt lat="46.25469" lon="5.99324">
        <ele>498.9</ele>
        <time>2014-09-07T14:44:40Z</time>
      </trkpt>
      <trkpt lat="46.25398" lon="5.99242">
        <ele>497.7</ele>
        <time>2014-09-07T14:44:53Z</time>
      </trkpt>
      <trkpt lat="46.2531" lon="5.99198">
        <ele>496.21</ele>
        <time>2014-09-07T14:45:06Z</time>
      </trkpt>
      <trkpt lat="46.25193" lon="5.99137">
        <ele>495.6</ele>
        <time>2014-09-07T14:45:24Z</time>
      </trkpt>
      <trkpt lat="46.25181" lon="5.99129">
        <ele>495.61</ele>
        <time>2014-09-07T14:45:26Z</time>
      </trkpt>
      <trkpt lat="46.25081" lon="5.99049">
        <ele>493.79</ele>
        <time>2014-09-07T14:45:42Z</time>
      </trkpt>
      <trkpt lat="46.24958" lon="5.99009">
        <ele>491.34</ele>
        <time>2014-09-07T14:45:58Z</time>
      </trkpt>
      <trkpt lat="46.24869" lon="5.98985">
        <ele>490.59</ele>
        <time>2014-09-07T14:46:11Z</time>
      </trkpt>
      <trkpt lat="46.24809" lon="5.98957">
        <ele>492.24</ele>
        <time>2014-09-07T14:46:22Z</time>
      </trkpt>
      <trkpt lat="46.24784" lon="5.98953">
        <ele>492.84</ele>
        <time>2014-09-07T14:46:27Z</time>
      </trkpt>
      <trkpt lat="46.24774" lon="5.98956">
        <ele>492.78</ele>
        <time>2014-09-07T14:46:29Z</time>
      </trkpt>
      <trkpt lat="46.2477" lon="5.98959">
        <ele>492.63</ele>
        <time>2014-09-07T14:46:30Z</time>
      </trkpt>
      <trkpt lat="46.24759" lon="5.98966">
        <ele>491.9</ele>
        <time>2014-09-07T14:46:33Z</time>
      </trkpt>
      <trkpt lat="46.24752" lon="5.98961">
        <ele>491.12</ele>
        <time>2014-09-07T14:46:35Z</time>
      </trkpt>
      <trkpt lat="46.24728" lon="5.9893">
        <ele>490.04</ele>
        <time>2014-09-07T14:46:41Z</time>
      </trkpt>
      <trkpt lat="46.24652" lon="5.98844">
        <ele>487.78</ele>
        <time>2014-09-07T14:46:56Z</time>
      </trkpt>
      <trkpt lat="46.24573" lon="5.98746">
        <ele>487.34</ele>
        <time>2014-09-07T14:47:12Z</time>
      </trkpt>
      <trkpt lat="46.24568" lon="5.98741">
        <ele>487.43</ele>
        <time>2014-09-07T14:47:13Z</time>
      </trkpt>
      <trkpt lat="46.24531" lon="5.98695">
        <ele>489.51</ele>
        <time>2014-09-07T14:47:22Z</time>
      </trkpt>
      <trkpt lat="46.2452" lon="5.98676">
        <ele>490.64</ele>
        <time>2014-09-07T14:47:26Z</time>
      </trkpt>
      <trkpt lat="46.24518" lon="5.98672">
        <ele>490.88</ele>
        <time>2014-09-07T14:47:27Z</time>
      </trkpt>
      <trkpt lat="46.24506" lon="5.98642">
        <ele>492.48</ele>
        <time>2014-09-07T14:47:33Z</time>
      </trkpt>
      <trkpt lat="46.24498" lon="5.9858">
        <ele>495.34</ele>
        <time>2014-09-07T14:47:46Z</time>
      </trkpt>
      <trkpt lat="46.24492" lon="5.98512">
        <ele>498.39</ele>
        <time>2014-09-07T14:48:00Z</time>
      </trkpt>
      <trkpt lat="46.24468" lon="5.98451">
        <ele>501.11</ele>
        <time>2014-09-07T14:48:15Z</time>
      </trkpt>
      <trkpt lat="46.24461" lon="5.98433">
        <ele>500.94</ele>
        <time>2014-09-07T14:48:18Z</time>
      </trkpt>
      <trkpt lat="46.24459" lon="5.98425">
        <ele>500.73</ele>
        <time>2014-09-07T14:48:19Z</time>
      </trkpt>
      <trkpt lat="46.24458" lon="5.98416">
        <ele>500.54</ele>
        <time>2014-09-07T14:48:20Z</time>
      </trkpt>
      <trkpt lat="46.24452" lon="5.98389">
        <ele>499.86</ele>
        <time>2014-09-07T14:48:23Z</time>
      </trkpt>
      <trkpt lat="46.24447" lon="5.98373">
        <ele>499.7</ele>
        <time>2014-09-07T14:48:25Z</time>
      </trkpt>
      <trkpt lat="46.24444" lon="5.98365">
        <ele>499.66</ele>
        <time>2014-09-07T14:48:26Z</time>
      </trkpt>
      <trkpt lat="46.2444" lon="5.98358">
        <ele>499.55</ele>
        <time>2014-09-07T14:48:27Z</time>
      </trkpt>
      <trkpt lat="46.24435" lon="5.98352">
        <ele>499.48</ele>
        <time>2014-09-07T14:48:28Z</time>
      </trkpt>
      <trkpt lat="46.24431" lon="5.98346">
        <ele>499.36</ele>
        <time>2014-09-07T14:48:29Z</time>
      </trkpt>
      <trkpt lat="46.24426" lon="5.98341">
        <ele>499.32</ele>
        <time>2014-09-07T14:48:30Z</time>
      </trkpt>
      <trkpt lat="46.24416" lon="5.98333">
        <ele>499.33</ele>
        <time>2014-09-07T14:48:32Z</time>
      </trkpt>
      <trkpt lat="46.24411" lon="5.98329">
        <ele>499.34</ele>
        <time>2014-09-07T14:48:33Z</time>
      </trkpt>
      <trkpt lat="46.24405" lon="5.98327">
        <ele>499.34</ele>
        <time>2014-09-07T14:48:34Z</time>
      </trkpt>
      <trkpt lat="46.244" lon="5.98324">
        <ele>499.44</ele>
        <time>2014-09-07T14:48:35Z</time>
      </trkpt>
      <trkpt lat="46.24396" lon="5.98322">
        <ele>499.62</ele>
        <time>2014-09-07T14:48:36Z</time>
      </trkpt>
      <trkpt lat="46.24386" lon="5.98319">
        <ele>499.9</ele>
        <time>2014-09-07T14:48:38Z</time>
      </trkpt>
      <trkpt lat="46.24336" lon="5.98308">
        <ele>498.68</ele>
        <time>2014-09-07T14:48:47Z</time>
      </trkpt>
      <trkpt lat="46.24213" lon="5.98255">
        <ele>498.21</ele>
        <time>2014-09-07T14:49:09Z</time>
      </trkpt>
      <trkpt lat="46.24118" lon="5.98208">
        <ele>499.14</ele>
        <time>2014-09-07T14:49:26Z</time>
      </trkpt>
      <trkpt lat="46.24069" lon="5.9818">
        <ele>499.66</ele>
        <time>2014-09-07T14:49:35Z</time>
      </trkpt>
      <trkpt lat="46.24041" lon="5.98155">
        <ele>499.79</ele>
        <time>2014-09-07T14:49:41Z</time>
      </trkpt>
      <trkpt lat="46.24036" lon="5.98149">
        <ele>499.73</ele>
        <time>2014-09-07T14:49:42Z</time>
      </trkpt>
      <trkpt lat="46.2397" lon="5.9805">
        <ele>498.13</ele>
        <time>2014-09-07T14:49:55Z</time>
      </trkpt>
      <trkpt lat="46.23951" lon="5.98026">
        <ele>496.77</ele>
        <time>2014-09-07T14:49:58Z</time>
      </trkpt>
      <trkpt lat="46.23944" lon="5.98021">
        <ele>496.33</ele>
        <time>2014-09-07T14:49:59Z</time>
      </trkpt>
      <trkpt lat="46.23936" lon="5.98018">
        <ele>495.97</ele>
        <time>2014-09-07T14:50:00Z</time>
      </trkpt>
      <trkpt lat="46.23921" lon="5.98016">
        <ele>495.62</ele>
        <time>2014-09-07T14:50:02Z</time>
      </trkpt>
      <trkpt lat="46.23905" lon="5.9802">
        <ele>495.39</ele>
        <time>2014-09-07T14:50:04Z</time>
      </trkpt>
      <trkpt lat="46.23898" lon="5.98024">
        <ele>495.22</ele>
        <time>2014-09-07T14:50:05Z</time>
      </trkpt>
      <trkpt lat="46.23891" lon="5.98031">
        <ele>495.01</ele>
        <time>2014-09-07T14:50:06Z</time>
      </trkpt>
      <trkpt lat="46.23823" lon="5.98103">
        <ele>491.9</ele>
        <time>2014-09-07T14:50:16Z</time>
      </trkpt>
      <trkpt lat="46.23812" lon="5.98115">
        <ele>491.72</ele>
        <time>2014-09-07T14:50:18Z</time>
      </trkpt>
      <trkpt lat="46.238" lon="5.98123">
        <ele>491.9</ele>
        <time>2014-09-07T14:50:20Z</time>
      </trkpt>
      <trkpt lat="46.23794" lon="5.98123">
        <ele>492.03</ele>
        <time>2014-09-07T14:50:21Z</time>
      </trkpt>
      <trkpt lat="46.23782" lon="5.98122">
        <ele>492.16</ele>
        <time>2014-09-07T14:50:23Z</time>
      </trkpt>
      <trkpt lat="46.23748" lon="5.98112">
        <ele>492.93</ele>
        <time>2014-09-07T14:50:29Z</time>
      </trkpt>
      <trkpt lat="46.23736" lon="5.98106">
        <ele>492.81</ele>
        <time>2014-09-07T14:50:31Z</time>
      </trkpt>
      <trkpt lat="46.23716" lon="5.98092">
        <ele>492.33</ele>
        <time>2014-09-07T14:50:34Z</time>
      </trkpt>
      <trkpt lat="46.23689" lon="5.98071">
        <ele>491.46</ele>
        <time>2014-09-07T14:50:38Z</time>
      </trkpt>
      <trkpt lat="46.23619" lon="5.98025">
        <ele>488.26</ele>
        <time>2014-09-07T14:50:47Z</time>
      </trkpt>
      <trkpt lat="46.23497" lon="5.9795">
        <ele>486.18</ele>
        <time>2014-09-07T14:51:04Z</time>
      </trkpt>
      <trkpt lat="46.23436" lon="5.97931">
        <ele>487.44</ele>
        <time>2014-09-07T14:51:15Z</time>
      </trkpt>
      <trkpt lat="46.23355" lon="5.97878">
        <ele>484.67</ele>
        <time>2014-09-07T14:51:27Z</time>
      </trkpt>
      <trkpt lat="46.23302" lon="5.97835">
        <ele>484.74</ele>
        <time>2014-09-07T14:51:36Z</time>
      </trkpt>
      <trkpt lat="46.23298" lon="5.97828">
        <ele>484.72</ele>
        <time>2014-09-07T14:51:37Z</time>
      </trkpt>
      <trkpt lat="46.23295" lon="5.97821">
        <ele>484.72</ele>
        <time>2014-09-07T14:51:38Z</time>
      </trkpt>
      <trkpt lat="46.23291" lon="5.97804">
        <ele>484.68</ele>
        <time>2014-09-07T14:51:40Z</time>
      </trkpt>
      <trkpt lat="46.2329" lon="5.97795">
        <ele>484.76</ele>
        <time>2014-09-07T14:51:41Z</time>
      </trkpt>
      <trkpt lat="46.23289" lon="5.97719">
        <ele>486.1</ele>
        <time>2014-09-07T14:51:51Z</time>
      </trkpt>
      <trkpt lat="46.23288" lon="5.97712">
        <ele>486.39</ele>
        <time>2014-09-07T14:51:52Z</time>
      </trkpt>
      <trkpt lat="46.23285" lon="5.977">
        <ele>486.98</ele>
        <time>2014-09-07T14:51:54Z</time>
      </trkpt>
      <trkpt lat="46.23278" lon="5.97682">
        <ele>487.46</ele>
        <time>2014-09-07T14:51:57Z</time>
      </trkpt>
      <trkpt lat="46.23275" lon="5.97677">
        <ele>487.59</ele>
        <time>2014-09-07T14:51:58Z</time>
      </trkpt>
      <trkpt lat="46.23231" lon="5.97623">
        <ele>489.74</ele>
        <time>2014-09-07T14:52:11Z</time>
      </trkpt>
      <trkpt lat="46.23134" lon="5.97519">
        <ele>490.57</ele>
        <time>2014-09-07T14:52:35Z</time>
      </trkpt>
      <trkpt lat="46.23059" lon="5.97436">
        <ele>491.12</ele>
        <time>2014-09-07T14:52:53Z</time>
      </trkpt>
      <trkpt lat="46.22979" lon="5.97323">
        <ele>491.59</ele>
        <time>2014-09-07T14:53:13Z</time>
      </trkpt>
      <trkpt lat="46.22966" lon="5.97309">
        <ele>491.71</ele>
        <time>2014-09-07T14:53:16Z</time>
      </trkpt>
      <trkpt lat="46.22883" lon="5.97256">
        <ele>492.2</ele>
        <time>2014-09-07T14:53:32Z</time>
      </trkpt>
      <trkpt lat="46.22813" lon="5.97185">
        <ele>493.85</ele>
        <time>2014-09-07T14:53:49Z</time>
      </trkpt>
      <trkpt lat="46.22787" lon="5.97154">
        <ele>494.51</ele>
        <time>2014-09-07T14:53:56Z</time>
      </trkpt>
      <trkpt lat="46.2273" lon="5.97093">
        <ele>497.72</ele>
        <time>2014-09-07T14:54:13Z</time>
      </trkpt>
      <trkpt lat="46.22717" lon="5.9708">
        <ele>498.27</ele>
        <time>2014-09-07T14:54:17Z</time>
      </trkpt>
      <trkpt lat="46.22671" lon="5.97036">
        <ele>498.4</ele>
        <time>2014-09-07T14:54:32Z</time>
      </trkpt>
      <trkpt lat="46.22668" lon="5.97032">
        <ele>498.36</ele>
        <time>2014-09-07T14:54:33Z</time>
      </trkpt>
      <trkpt lat="46.22614" lon="5.9697">
        <ele>498.58</ele>
        <time>2014-09-07T14:54:48Z</time>
      </trkpt>
      <trkpt lat="46.22609" lon="5.96967">
        <ele>498.62</ele>
        <time>2014-09-07T14:54:49Z</time>
      </trkpt>
      <trkpt lat="46.22605" lon="5.96964">
        <ele>498.79</ele>
        <time>2014-09-07T14:54:50Z</time>
      </trkpt>
      <trkpt lat="46.22558" lon="5.96921">
        <ele>499.94</ele>
        <time>2014-09-07T14:55:02Z</time>
      </trkpt>
      <trkpt lat="46.22554" lon="5.96916">
        <ele>499.99</ele>
        <time>2014-09-07T14:55:03Z</time>
      </trkpt>
      <trkpt lat="46.22502" lon="5.96876">
        <ele>501.17</ele>
        <time>2014-09-07T14:55:16Z</time>
      </trkpt>
      <trkpt lat="46.22432" lon="5.9682">
        <ele>502.95</ele>
        <time>2014-09-07T14:55:33Z</time>
      </trkpt>
      <trkpt lat="46.22429" lon="5.96816">
        <ele>503.12</ele>
        <time>2014-09-07T14:55:34Z</time>
      </trkpt>
      <trkpt lat="46.22416" lon="5.96799">
        <ele>503.57</ele>
        <time>2014-09-07T14:55:38Z</time>
      </trkpt>
      <trkpt lat="46.22401" lon="5.96777">
        <ele>504.36</ele>
        <time>2014-09-07T14:55:43Z</time>
      </trkpt>
      <trkpt lat="46.22397" lon="5.96773">
        <ele>504.49</ele>
        <time>2014-09-07T14:55:44Z</time>
      </trkpt>
      <trkpt lat="46.22366" lon="5.96743">
        <ele>506.39</ele>
        <time>2014-09-07T14:55:53Z</time>
      </trkpt>
      <trkpt lat="46.22334" lon="5.96707">
        <ele>507.5</ele>
        <time>2014-09-07T14:56:04Z</time>
      </trkpt>
      <trkpt lat="46.22323" lon="5.96688">
        <ele>507.42</ele>
        <time>2014-09-07T14:56:08Z</time>
      </trkpt>
      <trkpt lat="46.22294" lon="5.96648">
        <ele>506.8</ele>
        <time>2014-09-07T14:56:16Z</time>
      </trkpt>
      <trkpt lat="46.22282" lon="5.96636">
        <ele>506.79</ele>
        <time>2014-09-07T14:56:19Z</time>
      </trkpt>
      <trkpt lat="46.22218" lon="5.96582">
        <ele>509.33</ele>
        <time>2014-09-07T14:56:36Z</time>
      </trkpt>
      <trkpt lat="46.22133" lon="5.96521">
        <ele>507.29</ele>
        <time>2014-09-07T14:56:54Z</time>
      </trkpt>
      <trkpt lat="46.22067" lon="5.96452">
        <ele>506.94</ele>
        <time>2014-09-07T14:57:10Z</time>
      </trkpt>
      <trkpt lat="46.22" lon="5.96369">
        <ele>506.05</ele>
        <time>2014-09-07T14:57:25Z</time>
      </trkpt>
      <trkpt lat="46.21992" lon="5.96355">
        <ele>506.11</ele>
        <time>2014-09-07T14:57:27Z</time>
      </trkpt>
      <trkpt lat="46.21989" lon="5.96348">
        <ele>506.04</ele>
        <time>2014-09-07T14:57:28Z</time>
      </trkpt>
      <trkpt lat="46.21971" lon="5.96281">
        <ele>507.26</ele>
        <time>2014-09-07T14:57:38Z</time>
      </trkpt>
      <trkpt lat="46.21971" lon="5.96275">
        <ele>507.41</ele>
        <time>2014-09-07T14:57:39Z</time>
      </trkpt>
      <trkpt lat="46.2197" lon="5.9627">
        <ele>507.61</ele>
        <time>2014-09-07T14:57:40Z</time>
      </trkpt>
      <trkpt lat="46.21963" lon="5.96215">
        <ele>510.14</ele>
        <time>2014-09-07T14:57:50Z</time>
      </trkpt>
      <trkpt lat="46.2194" lon="5.96136">
        <ele>512.74</ele>
        <time>2014-09-07T14:58:06Z</time>
      </trkpt>
      <trkpt lat="46.21909" lon="5.96069">
        <ele>515.37</ele>
        <time>2014-09-07T14:58:22Z</time>
      </trkpt>
      <trkpt lat="46.21876" lon="5.95994">
        <ele>516.6</ele>
        <time>2014-09-07T14:58:38Z</time>
      </trkpt>
      <trkpt lat="46.21868" lon="5.9598">
        <ele>516.72</ele>
        <time>2014-09-07T14:58:41Z</time>
      </trkpt>
      <trkpt lat="46.21804" lon="5.95897">
        <ele>515.83</ele>
        <time>2014-09-07T14:58:57Z</time>
      </trkpt>
      <trkpt lat="46.21724" lon="5.95764">
        <ele>515.53</ele>
        <time>2014-09-07T14:59:18Z</time>
      </trkpt>
      <trkpt lat="46.21711" lon="5.95736">
        <ele>515.49</ele>
        <time>2014-09-07T14:59:22Z</time>
      </trkpt>
      <trkpt lat="46.21702" lon="5.95707">
        <ele>515.13</ele>
        <time>2014-09-07T14:59:26Z</time>
      </trkpt>
      <trkpt lat="46.217" lon="5.957">
        <ele>515.01</ele>
        <time>2014-09-07T14:59:27Z</time>
      </trkpt>
      <trkpt lat="46.21651" lon="5.9556">
        <ele>517.26</ele>
        <time>2014-09-07T14:59:49Z</time>
      </trkpt>
      <trkpt lat="46.21619" lon="5.95467">
        <ele>520.35</ele>
        <time>2014-09-07T15:00:07Z</time>
      </trkpt>
      <trkpt lat="46.21617" lon="5.9546">
        <ele>520.84</ele>
        <time>2014-09-07T15:00:09Z</time>
      </trkpt>
      <trkpt lat="46.21594" lon="5.9542">
        <ele>521.01</ele>
        <time>2014-09-07T15:00:18Z</time>
      </trkpt>
      <trkpt lat="46.2159" lon="5.95414">
        <ele>521.01</ele>
        <time>2014-09-07T15:00:19Z</time>
      </trkpt>
      <trkpt lat="46.21571" lon="5.95388">
        <ele>519.98</ele>
        <time>2014-09-07T15:00:23Z</time>
      </trkpt>
      <trkpt lat="46.21565" lon="5.95382">
        <ele>519.64</ele>
        <time>2014-09-07T15:00:24Z</time>
      </trkpt>
      <trkpt lat="46.21501" lon="5.95333">
        <ele>516.49</ele>
        <time>2014-09-07T15:00:33Z</time>
      </trkpt>
      <trkpt lat="46.2145" lon="5.95297">
        <ele>515.3</ele>
        <time>2014-09-07T15:00:41Z</time>
      </trkpt>
      <trkpt lat="46.21373" lon="5.95257">
        <ele>516.83</ele>
        <time>2014-09-07T15:00:56Z</time>
      </trkpt>
      <trkpt lat="46.21305" lon="5.95186">
        <ele>518.84</ele>
        <time>2014-09-07T15:01:13Z</time>
      </trkpt>
      <trkpt lat="46.21273" lon="5.95172">
        <ele>518.54</ele>
        <time>2014-09-07T15:01:23Z</time>
      </trkpt>
      <trkpt lat="46.21249" lon="5.95169">
        <ele>518.13</ele>
        <time>2014-09-07T15:01:29Z</time>
      </trkpt>
      <trkpt lat="46.21214" lon="5.9516">
        <ele>516.89</ele>
        <time>2014-09-07T15:01:37Z</time>
      </trkpt>
      <trkpt lat="46.21205" lon="5.95153">
        <ele>516.46</ele>
        <time>2014-09-07T15:01:39Z</time>
      </trkpt>
      <trkpt lat="46.21201" lon="5.95148">
        <ele>516.3</ele>
        <time>2014-09-07T15:01:40Z</time>
      </trkpt>
      <trkpt lat="46.21198" lon="5.95143">
        <ele>516.08</ele>
        <time>2014-09-07T15:01:41Z</time>
      </trkpt>
      <trkpt lat="46.21195" lon="5.95137">
        <ele>515.94</ele>
        <time>2014-09-07T15:01:42Z</time>
      </trkpt>
      <trkpt lat="46.2119" lon="5.95124">
        <ele>515.71</ele>
        <time>2014-09-07T15:01:44Z</time>
      </trkpt>
      <trkpt lat="46.21188" lon="5.95117">
        <ele>515.69</ele>
        <time>2014-09-07T15:01:45Z</time>
      </trkpt>
      <trkpt lat="46.21188" lon="5.9511">
        <ele>515.76</ele>
        <time>2014-09-07T15:01:46Z</time>
      </trkpt>
      <trkpt lat="46.21187" lon="5.95104">
        <ele>515.79</ele>
        <time>2014-09-07T15:01:47Z</time>
      </trkpt>
      <trkpt lat="46.21188" lon="5.95098">
        <ele>515.81</ele>
        <time>2014-09-07T15:01:48Z</time>
      </trkpt>
      <trkpt lat="46.21189" lon="5.95092">
        <ele>515.81</ele>
        <time>2014-09-07T15:01:49Z</time>
      </trkpt>
      <trkpt lat="46.2119" lon="5.95087">
        <ele>515.88</ele>
        <time>2014-09-07T15:01:50Z</time>
      </trkpt>
      <trkpt lat="46.21192" lon="5.95082">
        <ele>515.92</ele>
        <time>2014-09-07T15:01:51Z</time>
      </trkpt>
      <trkpt lat="46.21198" lon="5.95065">
        <ele>516.41</ele>
        <time>2014-09-07T15:01:55Z</time>
      </trkpt>
      <trkpt lat="46.2122" lon="5.95002">
        <ele>519.22</ele>
        <time>2014-09-07T15:02:11Z</time>
      </trkpt>
      <trkpt lat="46.21226" lon="5.94956">
        <ele>521.43</ele>
        <time>2014-09-07T15:02:22Z</time>
      </trkpt>
      <trkpt lat="46.21222" lon="5.94886">
        <ele>522.41</ele>
        <time>2014-09-07T15:02:36Z</time>
      </trkpt>
      <trkpt lat="46.21214" lon="5.94861">
        <ele>522.48</ele>
        <time>2014-09-07T15:02:40Z</time>
      </trkpt>
      <trkpt lat="46.21212" lon="5.94856">
        <ele>522.4</ele>
        <time>2014-09-07T15:02:41Z</time>
      </trkpt>
      <trkpt lat="46.21209" lon="5.94851">
        <ele>522.32</ele>
        <time>2014-09-07T15:02:42Z</time>
      </trkpt>
      <trkpt lat="46.21205" lon="5.94846">
        <ele>522.24</ele>
        <time>2014-09-07T15:02:43Z</time>
      </trkpt>
      <trkpt lat="46.21202" lon="5.94841">
        <ele>522.21</ele>
        <time>2014-09-07T15:02:44Z</time>
      </trkpt>
      <trkpt lat="46.21192" lon="5.94829">
        <ele>522.15</ele>
        <time>2014-09-07T15:02:47Z</time>
      </trkpt>
      <trkpt lat="46.21189" lon="5.94824">
        <ele>522.13</ele>
        <time>2014-09-07T15:02:48Z</time>
      </trkpt>
      <trkpt lat="46.21162" lon="5.94773">
        <ele>524.14</ele>
        <time>2014-09-07T15:02:59Z</time>
      </trkpt>
      <trkpt lat="46.21149" lon="5.94726">
        <ele>525.93</ele>
        <time>2014-09-07T15:03:10Z</time>
      </trkpt>
      <trkpt lat="46.21126" lon="5.94673">
        <ele>528</ele>
        <time>2014-09-07T15:03:24Z</time>
      </trkpt>
      <trkpt lat="46.21083" lon="5.94617">
        <ele>530.43</ele>
        <time>2014-09-07T15:03:42Z</time>
      </trkpt>
      <trkpt lat="46.21052" lon="5.9458">
        <ele>533.04</ele>
        <time>2014-09-07T15:03:56Z</time>
      </trkpt>
      <trkpt lat="46.21022" lon="5.94545">
        <ele>534.87</ele>
        <time>2014-09-07T15:04:09Z</time>
      </trkpt>
      <trkpt lat="46.20987" lon="5.94513">
        <ele>536.75</ele>
        <time>2014-09-07T15:04:24Z</time>
      </trkpt>
      <trkpt lat="46.20939" lon="5.94468">
        <ele>538.8</ele>
        <time>2014-09-07T15:04:42Z</time>
      </trkpt>
      <trkpt lat="46.20897" lon="5.94423">
        <ele>540.03</ele>
        <time>2014-09-07T15:04:58Z</time>
      </trkpt>
      <trkpt lat="46.20858" lon="5.94375">
        <ele>541.57</ele>
        <time>2014-09-07T15:05:13Z</time>
      </trkpt>
      <trkpt lat="46.20813" lon="5.94337">
        <ele>543.14</ele>
        <time>2014-09-07T15:05:28Z</time>
      </trkpt>
      <trkpt lat="46.20746" lon="5.9432">
        <ele>545.04</ele>
        <time>2014-09-07T15:05:46Z</time>
      </trkpt>
      <trkpt lat="46.2069" lon="5.94277">
        <ele>547.02</ele>
        <time>2014-09-07T15:06:03Z</time>
      </trkpt>
      <trkpt lat="46.20676" lon="5.94264">
        <ele>546.76</ele>
        <time>2014-09-07T15:06:07Z</time>
      </trkpt>
      <trkpt lat="46.20674" lon="5.94261">
        <ele>546.83</ele>
        <time>2014-09-07T15:06:08Z</time>
      </trkpt>
      <trkpt lat="46.20664" lon="5.94252">
        <ele>547.04</ele>
        <time>2014-09-07T15:06:11Z</time>
      </trkpt>
      <trkpt lat="46.20629" lon="5.94213">
        <ele>549.57</ele>
        <time>2014-09-07T15:06:25Z</time>
      </trkpt>
      <trkpt lat="46.20582" lon="5.94169">
        <ele>552.46</ele>
        <time>2014-09-07T15:06:44Z</time>
      </trkpt>
      <trkpt lat="46.20534" lon="5.94136">
        <ele>554.48</ele>
        <time>2014-09-07T15:07:00Z</time>
      </trkpt>
      <trkpt lat="46.20488" lon="5.94097">
        <ele>555.95</ele>
        <time>2014-09-07T15:07:17Z</time>
      </trkpt>
      <trkpt lat="46.20444" lon="5.94055">
        <ele>558.28</ele>
        <time>2014-09-07T15:07:34Z</time>
      </trkpt>
      <trkpt lat="46.20399" lon="5.94011">
        <ele>560.97</ele>
        <time>2014-09-07T15:07:52Z</time>
      </trkpt>
      <trkpt lat="46.20346" lon="5.93977">
        <ele>561.39</ele>
        <time>2014-09-07T15:08:08Z</time>
      </trkpt>
      <trkpt lat="46.20285" lon="5.93942">
        <ele>564.35</ele>
        <time>2014-09-07T15:08:26Z</time>
      </trkpt>
      <trkpt lat="46.2022" lon="5.93902">
        <ele>566.27</ele>
        <time>2014-09-07T15:08:44Z</time>
      </trkpt>
      <trkpt lat="46.20211" lon="5.93896">
        <ele>566.34</ele>
        <time>2014-09-07T15:08:46Z</time>
      </trkpt>
      <trkpt lat="46.20119" lon="5.93856">
        <ele>563.09</ele>
        <time>2014-09-07T15:09:01Z</time>
      </trkpt>
      <trkpt lat="46.20011" lon="5.93808">
        <ele>560.19</ele>
        <time>2014-09-07T15:09:16Z</time>
      </trkpt>
      <trkpt lat="46.20005" lon="5.93803">
        <ele>560.16</ele>
        <time>2014-09-07T15:09:17Z</time>
      </trkpt>
      <trkpt lat="46.2" lon="5.93797">
        <ele>560.08</ele>
        <time>2014-09-07T15:09:18Z</time>
      </trkpt>
      <trkpt lat="46.1999" lon="5.93781">
        <ele>560.13</ele>
        <time>2014-09-07T15:09:20Z</time>
      </trkpt>
      <trkpt lat="46.19986" lon="5.93772">
        <ele>560.09</ele>
        <time>2014-09-07T15:09:21Z</time>
      </trkpt>
      <trkpt lat="46.19982" lon="5.93763">
        <ele>559.99</ele>
        <time>2014-09-07T15:09:22Z</time>
      </trkpt>
      <trkpt lat="46.19979" lon="5.93753">
        <ele>559.93</ele>
        <time>2014-09-07T15:09:23Z</time>
      </trkpt>
      <trkpt lat="46.19976" lon="5.93743">
        <ele>559.9</ele>
        <time>2014-09-07T15:09:24Z</time>
      </trkpt>
      <trkpt lat="46.19974" lon="5.93732">
        <ele>559.81</ele>
        <time>2014-09-07T15:09:25Z</time>
      </trkpt>
      <trkpt lat="46.19965" lon="5.9367">
        <ele>558.41</ele>
        <time>2014-09-07T15:09:31Z</time>
      </trkpt>
      <trkpt lat="46.19965" lon="5.93661">
        <ele>558.37</ele>
        <time>2014-09-07T15:09:32Z</time>
      </trkpt>
      <trkpt lat="46.19966" lon="5.93652">
        <ele>558.42</ele>
        <time>2014-09-07T15:09:33Z</time>
      </trkpt>
      <trkpt lat="46.19967" lon="5.93643">
        <ele>558.47</ele>
        <time>2014-09-07T15:09:34Z</time>
      </trkpt>
      <trkpt lat="46.19969" lon="5.93634">
        <ele>558.63</ele>
        <time>2014-09-07T15:09:35Z</time>
      </trkpt>
      <trkpt lat="46.19971" lon="5.93626">
        <ele>558.63</ele>
        <time>2014-09-07T15:09:36Z</time>
      </trkpt>
      <trkpt lat="46.19974" lon="5.93617">
        <ele>558.77</ele>
        <time>2014-09-07T15:09:37Z</time>
      </trkpt>
      <trkpt lat="46.19988" lon="5.93581">
        <ele>559.33</ele>
        <time>2014-09-07T15:09:42Z</time>
      </trkpt>
      <trkpt lat="46.19989" lon="5.93573">
        <ele>559.39</ele>
        <time>2014-09-07T15:09:43Z</time>
      </trkpt>
      <trkpt lat="46.19987" lon="5.93556">
        <ele>559.43</ele>
        <time>2014-09-07T15:09:45Z</time>
      </trkpt>
      <trkpt lat="46.19984" lon="5.93549">
        <ele>559.44</ele>
        <time>2014-09-07T15:09:46Z</time>
      </trkpt>
      <trkpt lat="46.19975" lon="5.93538">
        <ele>559.58</ele>
        <time>2014-09-07T15:09:48Z</time>
      </trkpt>
      <trkpt lat="46.19971" lon="5.93534">
        <ele>559.71</ele>
        <time>2014-09-07T15:09:49Z</time>
      </trkpt>
      <trkpt lat="46.19966" lon="5.93531">
        <ele>559.93</ele>
        <time>2014-09-07T15:09:50Z</time>
      </trkpt>
      <trkpt lat="46.19961" lon="5.93529">
        <ele>560.21</ele>
        <time>2014-09-07T15:09:51Z</time>
      </trkpt>
      <trkpt lat="46.19956" lon="5.93527">
        <ele>560.58</ele>
        <time>2014-09-07T15:09:52Z</time>
      </trkpt>
      <trkpt lat="46.19952" lon="5.93526">
        <ele>561</ele>
        <time>2014-09-07T15:09:53Z</time>
      </trkpt>
      <trkpt lat="46.1993" lon="5.93524">
        <ele>562.18</ele>
        <time>2014-09-07T15:09:58Z</time>
      </trkpt>
      <trkpt lat="46.199" lon="5.93524">
        <ele>563.93</ele>
        <time>2014-09-07T15:10:05Z</time>
      </trkpt>
      <trkpt lat="46.1988" lon="5.93519">
        <ele>565.35</ele>
        <time>2014-09-07T15:10:10Z</time>
      </trkpt>
      <trkpt lat="46.19876" lon="5.93517">
        <ele>565.58</ele>
        <time>2014-09-07T15:10:11Z</time>
      </trkpt>
      <trkpt lat="46.19779" lon="5.93464">
        <ele>567.32</ele>
        <time>2014-09-07T15:10:34Z</time>
      </trkpt>
      <trkpt lat="46.19709" lon="5.93421">
        <ele>568.44</ele>
        <time>2014-09-07T15:10:51Z</time>
      </trkpt>
      <trkpt lat="46.19628" lon="5.93336">
        <ele>568.45</ele>
        <time>2014-09-07T15:11:09Z</time>
      </trkpt>
      <trkpt lat="46.19545" lon="5.93227">
        <ele>565.33</ele>
        <time>2014-09-07T15:11:26Z</time>
      </trkpt>
      <trkpt lat="46.19479" lon="5.93125">
        <ele>562.33</ele>
        <time>2014-09-07T15:11:38Z</time>
      </trkpt>
      <trkpt lat="46.19427" lon="5.93036">
        <ele>558.99</ele>
        <time>2014-09-07T15:11:47Z</time>
      </trkpt>
      <trkpt lat="46.19422" lon="5.93026">
        <ele>558.78</ele>
        <time>2014-09-07T15:11:48Z</time>
      </trkpt>
      <trkpt lat="46.19363" lon="5.92925">
        <ele>555.78</ele>
        <time>2014-09-07T15:11:58Z</time>
      </trkpt>
      <trkpt lat="46.19294" lon="5.92809">
        <ele>552.52</ele>
        <time>2014-09-07T15:12:10Z</time>
      </trkpt>
      <trkpt lat="46.19273" lon="5.92787">
        <ele>550.99</ele>
        <time>2014-09-07T15:12:13Z</time>
      </trkpt>
      <trkpt lat="46.19265" lon="5.92785">
        <ele>550.57</ele>
        <time>2014-09-07T15:12:14Z</time>
      </trkpt>
      <trkpt lat="46.19248" lon="5.92789">
        <ele>549.76</ele>
        <time>2014-09-07T15:12:16Z</time>
      </trkpt>
      <trkpt lat="46.1924" lon="5.92795">
        <ele>549.4</ele>
        <time>2014-09-07T15:12:17Z</time>
      </trkpt>
      <trkpt lat="46.19216" lon="5.92815">
        <ele>548.64</ele>
        <time>2014-09-07T15:12:20Z</time>
      </trkpt>
      <trkpt lat="46.19208" lon="5.92819">
        <ele>548.21</ele>
        <time>2014-09-07T15:12:21Z</time>
      </trkpt>
      <trkpt lat="46.19199" lon="5.92821">
        <ele>547.7</ele>
        <time>2014-09-07T15:12:22Z</time>
      </trkpt>
      <trkpt lat="46.19189" lon="5.9282">
        <ele>547.7</ele>
        <time>2014-09-07T15:12:23Z</time>
      </trkpt>
      <trkpt lat="46.19179" lon="5.92816">
        <ele>547.04</ele>
        <time>2014-09-07T15:12:24Z</time>
      </trkpt>
      <trkpt lat="46.19169" lon="5.92812">
        <ele>546.46</ele>
        <time>2014-09-07T15:12:25Z</time>
      </trkpt>
      <trkpt lat="46.19148" lon="5.92804">
        <ele>545.14</ele>
        <time>2014-09-07T15:12:27Z</time>
      </trkpt>
      <trkpt lat="46.19108" lon="5.92795">
        <ele>541.81</ele>
        <time>2014-09-07T15:12:31Z</time>
      </trkpt>
      <trkpt lat="46.19083" lon="5.92789">
        <ele>538.77</ele>
        <time>2014-09-07T15:12:34Z</time>
      </trkpt>
      <trkpt lat="46.19031" lon="5.92775">
        <ele>535.7</ele>
        <time>2014-09-07T15:12:41Z</time>
      </trkpt>
      <trkpt lat="46.1902" lon="5.9277">
        <ele>534.92</ele>
        <time>2014-09-07T15:12:43Z</time>
      </trkpt>
      <trkpt lat="46.19014" lon="5.92767">
        <ele>534.67</ele>
        <time>2014-09-07T15:12:44Z</time>
      </trkpt>
      <trkpt lat="46.19008" lon="5.92763">
        <ele>534.31</ele>
        <time>2014-09-07T15:12:45Z</time>
      </trkpt>
      <trkpt lat="46.19003" lon="5.92757">
        <ele>533.87</ele>
        <time>2014-09-07T15:12:46Z</time>
      </trkpt>
      <trkpt lat="46.18997" lon="5.92751">
        <ele>533.41</ele>
        <time>2014-09-07T15:12:47Z</time>
      </trkpt>
      <trkpt lat="46.18942" lon="5.92688">
        <ele>531.5</ele>
        <time>2014-09-07T15:13:00Z</time>
      </trkpt>
      <trkpt lat="46.18929" lon="5.92665">
        <ele>531.21</ele>
        <time>2014-09-07T15:13:06Z</time>
      </trkpt>
      <trkpt lat="46.18915" lon="5.92648">
        <ele>531.02</ele>
        <time>2014-09-07T15:13:10Z</time>
      </trkpt>
      <trkpt lat="46.18904" lon="5.92624">
        <ele>530.29</ele>
        <time>2014-09-07T15:13:14Z</time>
      </trkpt>
      <trkpt lat="46.18874" lon="5.92537">
        <ele>529.47</ele>
        <time>2014-09-07T15:13:27Z</time>
      </trkpt>
      <trkpt lat="46.18871" lon="5.9253">
        <ele>529.47</ele>
        <time>2014-09-07T15:13:28Z</time>
      </trkpt>
      <trkpt lat="46.18823" lon="5.92421">
        <ele>526.89</ele>
        <time>2014-09-07T15:13:42Z</time>
      </trkpt>
      <trkpt lat="46.18813" lon="5.92404">
        <ele>526.26</ele>
        <time>2014-09-07T15:13:44Z</time>
      </trkpt>
      <trkpt lat="46.18807" lon="5.92396">
        <ele>526.11</ele>
        <time>2014-09-07T15:13:45Z</time>
      </trkpt>
      <trkpt lat="46.18796" lon="5.9238">
        <ele>525.86</ele>
        <time>2014-09-07T15:13:47Z</time>
      </trkpt>
      <trkpt lat="46.18791" lon="5.92371">
        <ele>525.58</ele>
        <time>2014-09-07T15:13:48Z</time>
      </trkpt>
      <trkpt lat="46.18787" lon="5.92361">
        <ele>525.13</ele>
        <time>2014-09-07T15:13:49Z</time>
      </trkpt>
      <trkpt lat="46.18784" lon="5.92351">
        <ele>524.72</ele>
        <time>2014-09-07T15:13:50Z</time>
      </trkpt>
      <trkpt lat="46.18781" lon="5.92341">
        <ele>524.4</ele>
        <time>2014-09-07T15:13:51Z</time>
      </trkpt>
      <trkpt lat="46.18775" lon="5.92322">
        <ele>524.16</ele>
        <time>2014-09-07T15:13:53Z</time>
      </trkpt>
      <trkpt lat="46.18772" lon="5.92315">
        <ele>524.22</ele>
        <time>2014-09-07T15:13:54Z</time>
      </trkpt>
      <trkpt lat="46.18754" lon="5.92282">
        <ele>525.82</ele>
        <time>2014-09-07T15:13:59Z</time>
      </trkpt>
      <trkpt lat="46.18746" lon="5.92229">
        <ele>526.91</ele>
        <time>2014-09-07T15:14:09Z</time>
      </trkpt>
      <trkpt lat="46.18748" lon="5.92225">
        <ele>527.04</ele>
        <time>2014-09-07T15:14:10Z</time>
      </trkpt>
      <trkpt lat="46.18757" lon="5.92178">
        <ele>529.42</ele>
        <time>2014-09-07T15:14:21Z</time>
      </trkpt>
      <trkpt lat="46.18732" lon="5.92123">
        <ele>531.54</ele>
        <time>2014-09-07T15:14:32Z</time>
      </trkpt>
      <trkpt lat="46.18724" lon="5.92108">
        <ele>531.56</ele>
        <time>2014-09-07T15:14:35Z</time>
      </trkpt>
      <trkpt lat="46.18718" lon="5.92092">
        <ele>531.24</ele>
        <time>2014-09-07T15:14:38Z</time>
      </trkpt>
      <trkpt lat="46.18688" lon="5.91992">
        <ele>533.47</ele>
        <time>2014-09-07T15:14:55Z</time>
      </trkpt>
      <trkpt lat="46.18672" lon="5.91952">
        <ele>534.41</ele>
        <time>2014-09-07T15:15:03Z</time>
      </trkpt>
      <trkpt lat="46.18649" lon="5.91889">
        <ele>537.41</ele>
        <time>2014-09-07T15:15:18Z</time>
      </trkpt>
      <trkpt lat="46.18617" lon="5.91816">
        <ele>539.84</ele>
        <time>2014-09-07T15:15:35Z</time>
      </trkpt>
      <trkpt lat="46.18587" lon="5.91749">
        <ele>541.84</ele>
        <time>2014-09-07T15:15:51Z</time>
      </trkpt>
      <trkpt lat="46.18557" lon="5.91683">
        <ele>542.8</ele>
        <time>2014-09-07T15:16:07Z</time>
      </trkpt>
      <trkpt lat="46.18532" lon="5.91644">
        <ele>545.49</ele>
        <time>2014-09-07T15:16:20Z</time>
      </trkpt>
      <trkpt lat="46.18504" lon="5.91632">
        <ele>545.02</ele>
        <time>2014-09-07T15:16:32Z</time>
      </trkpt>
      <trkpt lat="46.18488" lon="5.91628">
        <ele>544.83</ele>
        <time>2014-09-07T15:16:36Z</time>
      </trkpt>
      <trkpt lat="46.18471" lon="5.91621">
        <ele>544.45</ele>
        <time>2014-09-07T15:16:40Z</time>
      </trkpt>
      <trkpt lat="46.18398" lon="5.91575">
        <ele>542.85</ele>
        <time>2014-09-07T15:16:55Z</time>
      </trkpt>
      <trkpt lat="46.18306" lon="5.91512">
        <ele>539.85</ele>
        <time>2014-09-07T15:17:10Z</time>
      </trkpt>
      <trkpt lat="46.18219" lon="5.91442">
        <ele>536.66</ele>
        <time>2014-09-07T15:17:22Z</time>
      </trkpt>
      <trkpt lat="46.18155" lon="5.91398">
        <ele>534.75</ele>
        <time>2014-09-07T15:17:31Z</time>
      </trkpt>
      <trkpt lat="46.1805" lon="5.91354">
        <ele>534.35</ele>
        <time>2014-09-07T15:17:50Z</time>
      </trkpt>
      <trkpt lat="46.18023" lon="5.91348">
        <ele>533.76</ele>
        <time>2014-09-07T15:17:55Z</time>
      </trkpt>
      <trkpt lat="46.17987" lon="5.91353">
        <ele>533.38</ele>
        <time>2014-09-07T15:18:04Z</time>
      </trkpt>
      <trkpt lat="46.17977" lon="5.91353">
        <ele>533.18</ele>
        <time>2014-09-07T15:18:06Z</time>
      </trkpt>
      <trkpt lat="46.17952" lon="5.91356">
        <ele>532.15</ele>
        <time>2014-09-07T15:18:11Z</time>
      </trkpt>
      <trkpt lat="46.17947" lon="5.91356">
        <ele>531.88</ele>
        <time>2014-09-07T15:18:12Z</time>
      </trkpt>
      <trkpt lat="46.17866" lon="5.91364">
        <ele>529.66</ele>
        <time>2014-09-07T15:18:26Z</time>
      </trkpt>
      <trkpt lat="46.17781" lon="5.91328">
        <ele>526.68</ele>
        <time>2014-09-07T15:18:40Z</time>
      </trkpt>
      <trkpt lat="46.17724" lon="5.91288">
        <ele>523.58</ele>
        <time>2014-09-07T15:18:51Z</time>
      </trkpt>
      <trkpt lat="46.17706" lon="5.91277">
        <ele>522.2</ele>
        <time>2014-09-07T15:18:56Z</time>
      </trkpt>
      <trkpt lat="46.17702" lon="5.91274">
        <ele>522</ele>
        <time>2014-09-07T15:18:57Z</time>
      </trkpt>
      <trkpt lat="46.17693" lon="5.91271">
        <ele>521.87</ele>
        <time>2014-09-07T15:18:59Z</time>
      </trkpt>
      <trkpt lat="46.17678" lon="5.91265">
        <ele>521.18</ele>
        <time>2014-09-07T15:19:02Z</time>
      </trkpt>
      <trkpt lat="46.17674" lon="5.9126">
        <ele>520.68</ele>
        <time>2014-09-07T15:19:03Z</time>
      </trkpt>
      <trkpt lat="46.17656" lon="5.91238">
        <ele>519.93</ele>
        <time>2014-09-07T15:19:08Z</time>
      </trkpt>
      <trkpt lat="46.1765" lon="5.9123">
        <ele>520.27</ele>
        <time>2014-09-07T15:19:10Z</time>
      </trkpt>
      <trkpt lat="46.17627" lon="5.912">
        <ele>522.14</ele>
        <time>2014-09-07T15:19:18Z</time>
      </trkpt>
      <trkpt lat="46.17575" lon="5.91141">
        <ele>524.62</ele>
        <time>2014-09-07T15:19:35Z</time>
      </trkpt>
      <trkpt lat="46.17572" lon="5.91137">
        <ele>524.73</ele>
        <time>2014-09-07T15:19:36Z</time>
      </trkpt>
      <trkpt lat="46.17554" lon="5.91117">
        <ele>524.76</ele>
        <time>2014-09-07T15:19:41Z</time>
      </trkpt>
      <trkpt lat="46.17474" lon="5.91035">
        <ele>526.5</ele>
        <time>2014-09-07T15:20:02Z</time>
      </trkpt>
      <trkpt lat="46.17454" lon="5.91014">
        <ele>526.5</ele>
        <time>2014-09-07T15:20:07Z</time>
      </trkpt>
      <trkpt lat="46.1736" lon="5.90925">
        <ele>526.23</ele>
        <time>2014-09-07T15:20:27Z</time>
      </trkpt>
      <trkpt lat="46.17259" lon="5.90842">
        <ele>523.12</ele>
        <time>2014-09-07T15:20:44Z</time>
      </trkpt>
      <trkpt lat="46.17175" lon="5.90787">
        <ele>523.3</ele>
        <time>2014-09-07T15:20:59Z</time>
      </trkpt>
      <trkpt lat="46.17121" lon="5.90754">
        <ele>524.46</ele>
        <time>2014-09-07T15:21:09Z</time>
      </trkpt>
      <trkpt lat="46.17103" lon="5.90748">
        <ele>524.27</ele>
        <time>2014-09-07T15:21:12Z</time>
      </trkpt>
      <trkpt lat="46.17089" lon="5.90746">
        <ele>523.86</ele>
        <time>2014-09-07T15:21:14Z</time>
      </trkpt>
      <trkpt lat="46.17082" lon="5.90745">
        <ele>523.63</ele>
        <time>2014-09-07T15:21:15Z</time>
      </trkpt>
      <trkpt lat="46.17076" lon="5.90744">
        <ele>523.48</ele>
        <time>2014-09-07T15:21:16Z</time>
      </trkpt>
      <trkpt lat="46.17069" lon="5.9074">
        <ele>523.3</ele>
        <time>2014-09-07T15:21:17Z</time>
      </trkpt>
      <trkpt lat="46.17063" lon="5.90736">
        <ele>523.05</ele>
        <time>2014-09-07T15:21:18Z</time>
      </trkpt>
      <trkpt lat="46.17057" lon="5.90731">
        <ele>522.81</ele>
        <time>2014-09-07T15:21:19Z</time>
      </trkpt>
      <trkpt lat="46.16984" lon="5.90684">
        <ele>521.41</ele>
        <time>2014-09-07T15:21:30Z</time>
      </trkpt>
      <trkpt lat="46.16881" lon="5.90624">
        <ele>519.67</ele>
        <time>2014-09-07T15:21:45Z</time>
      </trkpt>
      <trkpt lat="46.16837" lon="5.90601">
        <ele>518.19</ele>
        <time>2014-09-07T15:21:52Z</time>
      </trkpt>
      <trkpt lat="46.16793" lon="5.90586">
        <ele>516.52</ele>
        <time>2014-09-07T15:21:58Z</time>
      </trkpt>
      <trkpt lat="46.16778" lon="5.90579">
        <ele>516.03</ele>
        <time>2014-09-07T15:22:00Z</time>
      </trkpt>
      <trkpt lat="46.16771" lon="5.90576">
        <ele>515.61</ele>
        <time>2014-09-07T15:22:01Z</time>
      </trkpt>
      <trkpt lat="46.16764" lon="5.90572">
        <ele>515.26</ele>
        <time>2014-09-07T15:22:02Z</time>
      </trkpt>
      <trkpt lat="46.16747" lon="5.9056">
        <ele>514.84</ele>
        <time>2014-09-07T15:22:05Z</time>
      </trkpt>
      <trkpt lat="46.16669" lon="5.90491">
        <ele>514.52</ele>
        <time>2014-09-07T15:22:20Z</time>
      </trkpt>
      <trkpt lat="46.16659" lon="5.9048">
        <ele>514.64</ele>
        <time>2014-09-07T15:22:22Z</time>
      </trkpt>
      <trkpt lat="46.16654" lon="5.90473">
        <ele>514.62</ele>
        <time>2014-09-07T15:22:23Z</time>
      </trkpt>
      <trkpt lat="46.1665" lon="5.90466">
        <ele>514.48</ele>
        <time>2014-09-07T15:22:24Z</time>
      </trkpt>
      <trkpt lat="46.16593" lon="5.90372">
        <ele>516.69</ele>
        <time>2014-09-07T15:22:40Z</time>
      </trkpt>
      <trkpt lat="46.16563" lon="5.90321">
        <ele>518.79</ele>
        <time>2014-09-07T15:22:51Z</time>
      </trkpt>
      <trkpt lat="46.16525" lon="5.90263">
        <ele>521.92</ele>
        <time>2014-09-07T15:23:07Z</time>
      </trkpt>
      <trkpt lat="46.16497" lon="5.90215">
        <ele>524.71</ele>
        <time>2014-09-07T15:23:22Z</time>
      </trkpt>
      <trkpt lat="46.1646" lon="5.90164">
        <ele>526.82</ele>
        <time>2014-09-07T15:23:38Z</time>
      </trkpt>
      <trkpt lat="46.16427" lon="5.90131">
        <ele>529.61</ele>
        <time>2014-09-07T15:23:52Z</time>
      </trkpt>
      <trkpt lat="46.16401" lon="5.90111">
        <ele>532.03</ele>
        <time>2014-09-07T15:24:04Z</time>
      </trkpt>
      <trkpt lat="46.1635" lon="5.90095">
        <ele>533.58</ele>
        <time>2014-09-07T15:24:21Z</time>
      </trkpt>
      <trkpt lat="46.16333" lon="5.90092">
        <ele>533.57</ele>
        <time>2014-09-07T15:24:25Z</time>
      </trkpt>
      <trkpt lat="46.16324" lon="5.9009">
        <ele>533.39</ele>
        <time>2014-09-07T15:24:27Z</time>
      </trkpt>
      <trkpt lat="46.16319" lon="5.90089">
        <ele>533.17</ele>
        <time>2014-09-07T15:24:28Z</time>
      </trkpt>
      <trkpt lat="46.1623" lon="5.90082">
        <ele>530.82</ele>
        <time>2014-09-07T15:24:44Z</time>
      </trkpt>
      <trkpt lat="46.1615" lon="5.90078">
        <ele>528.51</ele>
        <time>2014-09-07T15:24:57Z</time>
      </trkpt>
      <trkpt lat="46.16108" lon="5.90085">
        <ele>526.71</ele>
        <time>2014-09-07T15:25:02Z</time>
      </trkpt>
      <trkpt lat="46.16066" lon="5.90102">
        <ele>525.02</ele>
        <time>2014-09-07T15:25:07Z</time>
      </trkpt>
      <trkpt lat="46.16043" lon="5.90118">
        <ele>523.78</ele>
        <time>2014-09-07T15:25:10Z</time>
      </trkpt>
      <trkpt lat="46.15966" lon="5.90179">
        <ele>522.47</ele>
        <time>2014-09-07T15:25:21Z</time>
      </trkpt>
      <trkpt lat="46.15935" lon="5.90212">
        <ele>521.26</ele>
        <time>2014-09-07T15:25:26Z</time>
      </trkpt>
      <trkpt lat="46.15928" lon="5.90216">
        <ele>520.93</ele>
        <time>2014-09-07T15:25:27Z</time>
      </trkpt>
      <trkpt lat="46.1592" lon="5.90218">
        <ele>520.67</ele>
        <time>2014-09-07T15:25:28Z</time>
      </trkpt>
      <trkpt lat="46.15913" lon="5.9022">
        <ele>520.43</ele>
        <time>2014-09-07T15:25:29Z</time>
      </trkpt>
      <trkpt lat="46.15905" lon="5.90221">
        <ele>520.32</ele>
        <time>2014-09-07T15:25:30Z</time>
      </trkpt>
      <trkpt lat="46.15827" lon="5.9024">
        <ele>520.3</ele>
        <time>2014-09-07T15:25:43Z</time>
      </trkpt>
      <trkpt lat="46.15746" lon="5.90245">
        <ele>522.68</ele>
        <time>2014-09-07T15:25:59Z</time>
      </trkpt>
      <trkpt lat="46.15707" lon="5.90251">
        <ele>522.97</ele>
        <time>2014-09-07T15:26:07Z</time>
      </trkpt>
      <trkpt lat="46.15653" lon="5.90263">
        <ele>523.68</ele>
        <time>2014-09-07T15:26:18Z</time>
      </trkpt>
      <trkpt lat="46.1561" lon="5.90272">
        <ele>523.92</ele>
        <time>2014-09-07T15:26:27Z</time>
      </trkpt>
      <trkpt lat="46.15606" lon="5.90271">
        <ele>524.06</ele>
        <time>2014-09-07T15:26:28Z</time>
      </trkpt>
      <trkpt lat="46.15602" lon="5.90269">
        <ele>524.13</ele>
        <time>2014-09-07T15:26:29Z</time>
      </trkpt>
      <trkpt lat="46.15598" lon="5.90266">
        <ele>524.26</ele>
        <time>2014-09-07T15:26:30Z</time>
      </trkpt>
      <trkpt lat="46.15584" lon="5.90254">
        <ele>525.23</ele>
        <time>2014-09-07T15:26:35Z</time>
      </trkpt>
      <trkpt lat="46.1555" lon="5.90242">
        <ele>528.28</ele>
        <time>2014-09-07T15:26:47Z</time>
      </trkpt>
      <trkpt lat="46.15497" lon="5.90225">
        <ele>530.1</ele>
        <time>2014-09-07T15:27:03Z</time>
      </trkpt>
      <trkpt lat="46.15466" lon="5.90209">
        <ele>532.8</ele>
        <time>2014-09-07T15:27:15Z</time>
      </trkpt>
      <trkpt lat="46.15431" lon="5.90223">
        <ele>535.3</ele>
        <time>2014-09-07T15:27:29Z</time>
      </trkpt>
      <trkpt lat="46.15418" lon="5.90226">
        <ele>535.49</ele>
        <time>2014-09-07T15:27:40Z</time>
      </trkpt>
      <trkpt lat="46.15381" lon="5.90228">
        <ele>535.74</ele>
        <time>2014-09-07T15:27:50Z</time>
      </trkpt>
      <trkpt lat="46.15323" lon="5.90244">
        <ele>536.76</ele>
        <time>2014-09-07T15:28:05Z</time>
      </trkpt>
      <trkpt lat="46.15314" lon="5.90248">
        <ele>536.62</ele>
        <time>2014-09-07T15:28:07Z</time>
      </trkpt>
      <trkpt lat="46.15309" lon="5.9025">
        <ele>536.54</ele>
        <time>2014-09-07T15:28:08Z</time>
      </trkpt>
      <trkpt lat="46.15232" lon="5.90267">
        <ele>533.86</ele>
        <time>2014-09-07T15:28:20Z</time>
      </trkpt>
      <trkpt lat="46.15156" lon="5.90279">
        <ele>532.33</ele>
        <time>2014-09-07T15:28:31Z</time>
      </trkpt>
      <trkpt lat="46.15069" lon="5.90324">
        <ele>530.32</ele>
        <time>2014-09-07T15:28:45Z</time>
      </trkpt>
      <trkpt lat="46.15022" lon="5.90341">
        <ele>530.72</ele>
        <time>2014-09-07T15:28:53Z</time>
      </trkpt>
      <trkpt lat="46.15017" lon="5.90344">
        <ele>530.77</ele>
        <time>2014-09-07T15:28:54Z</time>
      </trkpt>
      <trkpt lat="46.14985" lon="5.90354">
        <ele>531.18</ele>
        <time>2014-09-07T15:29:00Z</time>
      </trkpt>
      <trkpt lat="46.14932" lon="5.90367">
        <ele>531.14</ele>
        <time>2014-09-07T15:29:10Z</time>
      </trkpt>
      <trkpt lat="46.14927" lon="5.90369">
        <ele>531.07</ele>
        <time>2014-09-07T15:29:11Z</time>
      </trkpt>
      <trkpt lat="46.14907" lon="5.90376">
        <ele>531.28</ele>
        <time>2014-09-07T15:29:15Z</time>
      </trkpt>
      <trkpt lat="46.14902" lon="5.90379">
        <ele>531.43</ele>
        <time>2014-09-07T15:29:16Z</time>
      </trkpt>
      <trkpt lat="46.14897" lon="5.90382">
        <ele>531.52</ele>
        <time>2014-09-07T15:29:17Z</time>
      </trkpt>
      <trkpt lat="46.14893" lon="5.90386">
        <ele>531.56</ele>
        <time>2014-09-07T15:29:18Z</time>
      </trkpt>
      <trkpt lat="46.14889" lon="5.90392">
        <ele>531.44</ele>
        <time>2014-09-07T15:29:19Z</time>
      </trkpt>
      <trkpt lat="46.14885" lon="5.90397">
        <ele>531.32</ele>
        <time>2014-09-07T15:29:20Z</time>
      </trkpt>
      <trkpt lat="46.14882" lon="5.90403">
        <ele>531.16</ele>
        <time>2014-09-07T15:29:21Z</time>
      </trkpt>
      <trkpt lat="46.14879" lon="5.90407">
        <ele>530.86</ele>
        <time>2014-09-07T15:29:22Z</time>
      </trkpt>
      <trkpt lat="46.14852" lon="5.90431">
        <ele>528.82</ele>
        <time>2014-09-07T15:29:30Z</time>
      </trkpt>
      <trkpt lat="46.14766" lon="5.90424">
        <ele>528.16</ele>
        <time>2014-09-07T15:29:45Z</time>
      </trkpt>
      <trkpt lat="46.14645" lon="5.90417">
        <ele>525.3</ele>
        <time>2014-09-07T15:30:02Z</time>
      </trkpt>
      <trkpt lat="46.14509" lon="5.90409">
        <ele>522.3</ele>
        <time>2014-09-07T15:30:19Z</time>
      </trkpt>
      <trkpt lat="46.14417" lon="5.90402">
        <ele>519.09</ele>
        <time>2014-09-07T15:30:30Z</time>
      </trkpt>
      <trkpt lat="46.14341" lon="5.90397">
        <ele>515.65</ele>
        <time>2014-09-07T15:30:38Z</time>
      </trkpt>
      <trkpt lat="46.14254" lon="5.90392">
        <ele>512.45</ele>
        <time>2014-09-07T15:30:47Z</time>
      </trkpt>
      <trkpt lat="46.14185" lon="5.90387">
        <ele>509.44</ele>
        <time>2014-09-07T15:30:54Z</time>
      </trkpt>
      <trkpt lat="46.14139" lon="5.90384">
        <ele>508.24</ele>
        <time>2014-09-07T15:30:59Z</time>
      </trkpt>
      <trkpt lat="46.14119" lon="5.90382">
        <ele>507.73</ele>
        <time>2014-09-07T15:31:01Z</time>
      </trkpt>
      <trkpt lat="46.14109" lon="5.90381">
        <ele>507.22</ele>
        <time>2014-09-07T15:31:02Z</time>
      </trkpt>
      <trkpt lat="46.14058" lon="5.90378">
        <ele>504.2</ele>
        <time>2014-09-07T15:31:07Z</time>
      </trkpt>
      <trkpt lat="46.14" lon="5.90382">
        <ele>502.28</ele>
        <time>2014-09-07T15:31:13Z</time>
      </trkpt>
      <trkpt lat="46.13974" lon="5.90383">
        <ele>501.58</ele>
        <time>2014-09-07T15:31:16Z</time>
      </trkpt>
      <trkpt lat="46.13865" lon="5.90379">
        <ele>499.9</ele>
        <time>2014-09-07T15:31:31Z</time>
      </trkpt>
      <trkpt lat="46.13776" lon="5.90349">
        <ele>500.25</ele>
        <time>2014-09-07T15:31:46Z</time>
      </trkpt>
      <trkpt lat="46.13694" lon="5.90312">
        <ele>499.8</ele>
        <time>2014-09-07T15:32:01Z</time>
      </trkpt>
      <trkpt lat="46.13641" lon="5.903">
        <ele>498.3</ele>
        <time>2014-09-07T15:32:09Z</time>
      </trkpt>
      <trkpt lat="46.13635" lon="5.90298">
        <ele>498.16</ele>
        <time>2014-09-07T15:32:10Z</time>
      </trkpt>
      <trkpt lat="46.13558" lon="5.90279">
        <ele>495</ele>
        <time>2014-09-07T15:32:21Z</time>
      </trkpt>
      <trkpt lat="46.13441" lon="5.90248">
        <ele>492.14</ele>
        <time>2014-09-07T15:32:37Z</time>
      </trkpt>
      <trkpt lat="46.13344" lon="5.90221">
        <ele>491.29</ele>
        <time>2014-09-07T15:32:53Z</time>
      </trkpt>
      <trkpt lat="46.13252" lon="5.90199">
        <ele>488.62</ele>
        <time>2014-09-07T15:33:07Z</time>
      </trkpt>
      <trkpt lat="46.13134" lon="5.90171">
        <ele>485.66</ele>
        <time>2014-09-07T15:33:23Z</time>
      </trkpt>
      <trkpt lat="46.13062" lon="5.90155">
        <ele>484.83</ele>
        <time>2014-09-07T15:33:35Z</time>
      </trkpt>
      <trkpt lat="46.13051" lon="5.90156">
        <ele>484.72</ele>
        <time>2014-09-07T15:33:37Z</time>
      </trkpt>
      <trkpt lat="46.13048" lon="5.90158">
        <ele>484.75</ele>
        <time>2014-09-07T15:33:38Z</time>
      </trkpt>
      <trkpt lat="46.13045" lon="5.9016">
        <ele>484.7</ele>
        <time>2014-09-07T15:33:39Z</time>
      </trkpt>
      <trkpt lat="46.13044" lon="5.90162">
        <ele>484.51</ele>
        <time>2014-09-07T15:33:40Z</time>
      </trkpt>
      <trkpt lat="46.13044" lon="5.90165">
        <ele>484.31</ele>
        <time>2014-09-07T15:33:41Z</time>
      </trkpt>
      <trkpt lat="46.13044" lon="5.90168">
        <ele>484.02</ele>
        <time>2014-09-07T15:33:42Z</time>
      </trkpt>
      <trkpt lat="46.13065" lon="5.90168">
        <ele>483.48</ele>
        <time>2014-09-07T15:33:49Z</time>
      </trkpt>
      <trkpt lat="46.13105" lon="5.90171">
        <ele>484.75</ele>
        <time>2014-09-07T15:34:00Z</time>
      </trkpt>
      <trkpt lat="46.13114" lon="5.90174">
        <ele>484.75</ele>
        <time>2014-09-07T15:34:02Z</time>
      </trkpt>
      <trkpt lat="46.13187" lon="5.90194">
        <ele>485.73</ele>
        <time>2014-09-07T15:34:17Z</time>
      </trkpt>
      <trkpt lat="46.13216" lon="5.902">
        <ele>485.88</ele>
        <time>2014-09-07T15:34:23Z</time>
      </trkpt>
      <trkpt lat="46.13225" lon="5.90202">
        <ele>486.04</ele>
        <time>2014-09-07T15:34:25Z</time>
      </trkpt>
      <trkpt lat="46.13304" lon="5.90219">
        <ele>489.15</ele>
        <time>2014-09-07T15:34:43Z</time>
      </trkpt>
      <trkpt lat="46.13308" lon="5.9022">
        <ele>489.31</ele>
        <time>2014-09-07T15:34:44Z</time>
      </trkpt>
      <trkpt lat="46.13355" lon="5.90229">
        <ele>491.25</ele>
        <time>2014-09-07T15:34:57Z</time>
      </trkpt>
      <trkpt lat="46.13408" lon="5.90243">
        <ele>491.86</ele>
        <time>2014-09-07T15:35:12Z</time>
      </trkpt>
      <trkpt lat="46.13429" lon="5.90248">
        <ele>491.45</ele>
        <time>2014-09-07T15:35:17Z</time>
      </trkpt>
      <trkpt lat="46.1346" lon="5.90256">
        <ele>491.35</ele>
        <time>2014-09-07T15:35:24Z</time>
      </trkpt>
      <trkpt lat="46.13529" lon="5.90275">
        <ele>492.68</ele>
        <time>2014-09-07T15:35:39Z</time>
      </trkpt>
      <trkpt lat="46.13568" lon="5.90283">
        <ele>493.69</ele>
        <time>2014-09-07T15:35:48Z</time>
      </trkpt>
      <trkpt lat="46.13595" lon="5.90292">
        <ele>494.89</ele>
        <time>2014-09-07T15:35:55Z</time>
      </trkpt>
      <trkpt lat="46.13611" lon="5.90294">
        <ele>495.16</ele>
        <time>2014-09-07T15:35:59Z</time>
      </trkpt>
      <trkpt lat="46.13657" lon="5.90305">
        <ele>497.12</ele>
        <time>2014-09-07T15:36:12Z</time>
      </trkpt>
      <trkpt lat="46.13709" lon="5.90318">
        <ele>499.72</ele>
        <time>2014-09-07T15:36:29Z</time>
      </trkpt>
      <trkpt lat="46.13767" lon="5.9034">
        <ele>500.84</ele>
        <time>2014-09-07T15:36:46Z</time>
      </trkpt>
      <trkpt lat="46.13787" lon="5.90349">
        <ele>500.62</ele>
        <time>2014-09-07T15:36:51Z</time>
      </trkpt>
      <trkpt lat="46.13858" lon="5.90379">
        <ele>500.4</ele>
        <time>2014-09-07T15:37:06Z</time>
      </trkpt>
      <trkpt lat="46.13909" lon="5.90387">
        <ele>500.35</ele>
        <time>2014-09-07T15:37:16Z</time>
      </trkpt>
      <trkpt lat="46.13929" lon="5.90389">
        <ele>500.3</ele>
        <time>2014-09-07T15:37:20Z</time>
      </trkpt>
      <trkpt lat="46.13938" lon="5.9039">
        <ele>500.11</ele>
        <time>2014-09-07T15:37:22Z</time>
      </trkpt>
      <trkpt lat="46.13943" lon="5.90391">
        <ele>500.08</ele>
        <time>2014-09-07T15:37:23Z</time>
      </trkpt>
      <trkpt lat="46.13947" lon="5.90391">
        <ele>500.2</ele>
        <time>2014-09-07T15:37:24Z</time>
      </trkpt>
      <trkpt lat="46.1398" lon="5.9039">
        <ele>501.01</ele>
        <time>2014-09-07T15:37:32Z</time>
      </trkpt>
      <trkpt lat="46.13983" lon="5.90393">
        <ele>501.07</ele>
        <time>2014-09-07T15:37:33Z</time>
      </trkpt>
      <trkpt lat="46.13987" lon="5.90403">
        <ele>501.04</ele>
        <time>2014-09-07T15:37:35Z</time>
      </trkpt>
      <trkpt lat="46.1399" lon="5.9041">
        <ele>500.99</ele>
        <time>2014-09-07T15:37:36Z</time>
      </trkpt>
      <trkpt lat="46.14007" lon="5.90462">
        <ele>499.77</ele>
        <time>2014-09-07T15:37:43Z</time>
      </trkpt>
      <trkpt lat="46.14011" lon="5.9047">
        <ele>499.57</ele>
        <time>2014-09-07T15:37:44Z</time>
      </trkpt>
      <trkpt lat="46.14016" lon="5.90476">
        <ele>499.31</ele>
        <time>2014-09-07T15:37:45Z</time>
      </trkpt>
      <trkpt lat="46.14028" lon="5.90484">
        <ele>498.61</ele>
        <time>2014-09-07T15:37:47Z</time>
      </trkpt>
      <trkpt lat="46.14107" lon="5.90524">
        <ele>497.95</ele>
        <time>2014-09-07T15:38:03Z</time>
      </trkpt>
      <trkpt lat="46.14122" lon="5.90537">
        <ele>498</ele>
        <time>2014-09-07T15:38:07Z</time>
      </trkpt>
      <trkpt lat="46.14126" lon="5.90541">
        <ele>498</ele>
        <time>2014-09-07T15:38:08Z</time>
      </trkpt>
      <trkpt lat="46.1413" lon="5.90547">
        <ele>497.97</ele>
        <time>2014-09-07T15:38:09Z</time>
      </trkpt>
      <trkpt lat="46.14137" lon="5.90559">
        <ele>497.96</ele>
        <time>2014-09-07T15:38:11Z</time>
      </trkpt>
      <trkpt lat="46.14141" lon="5.90566">
        <ele>497.93</ele>
        <time>2014-09-07T15:38:12Z</time>
      </trkpt>
      <trkpt lat="46.14144" lon="5.90574">
        <ele>497.78</ele>
        <time>2014-09-07T15:38:13Z</time>
      </trkpt>
      <trkpt lat="46.14149" lon="5.9059">
        <ele>497.21</ele>
        <time>2014-09-07T15:38:15Z</time>
      </trkpt>
      <trkpt lat="46.14153" lon="5.90608">
        <ele>496.54</ele>
        <time>2014-09-07T15:38:17Z</time>
      </trkpt>
      <trkpt lat="46.14154" lon="5.90618">
        <ele>496.23</ele>
        <time>2014-09-07T15:38:18Z</time>
      </trkpt>
      <trkpt lat="46.14158" lon="5.90656">
        <ele>494.56</ele>
        <time>2014-09-07T15:38:22Z</time>
      </trkpt>
      <trkpt lat="46.1416" lon="5.90665">
        <ele>494.29</ele>
        <time>2014-09-07T15:38:23Z</time>
      </trkpt>
      <trkpt lat="46.14167" lon="5.90682">
        <ele>493.45</ele>
        <time>2014-09-07T15:38:25Z</time>
      </trkpt>
      <trkpt lat="46.14172" lon="5.9069">
        <ele>493.05</ele>
        <time>2014-09-07T15:38:26Z</time>
      </trkpt>
      <trkpt lat="46.14177" lon="5.90697">
        <ele>492.79</ele>
        <time>2014-09-07T15:38:27Z</time>
      </trkpt>
      <trkpt lat="46.14183" lon="5.90704">
        <ele>492.56</ele>
        <time>2014-09-07T15:38:28Z</time>
      </trkpt>
      <trkpt lat="46.1419" lon="5.9071">
        <ele>492.3</ele>
        <time>2014-09-07T15:38:29Z</time>
      </trkpt>
      <trkpt lat="46.14196" lon="5.90715">
        <ele>492.03</ele>
        <time>2014-09-07T15:38:30Z</time>
      </trkpt>
      <trkpt lat="46.14221" lon="5.90749">
        <ele>491.04</ele>
        <time>2014-09-07T15:38:38Z</time>
      </trkpt>
      <trkpt lat="46.14224" lon="5.90755">
        <ele>490.73</ele>
        <time>2014-09-07T15:38:39Z</time>
      </trkpt>
      <trkpt lat="46.14226" lon="5.90762">
        <ele>490.43</ele>
        <time>2014-09-07T15:38:40Z</time>
      </trkpt>
      <trkpt lat="46.14229" lon="5.90769">
        <ele>490.24</ele>
        <time>2014-09-07T15:38:41Z</time>
      </trkpt>
      <trkpt lat="46.14231" lon="5.90776">
        <ele>490.24</ele>
        <time>2014-09-07T15:38:42Z</time>
      </trkpt>
      <trkpt lat="46.14234" lon="5.90784">
        <ele>490.07</ele>
        <time>2014-09-07T15:38:43Z</time>
      </trkpt>
      <trkpt lat="46.14278" lon="5.90911">
        <ele>487.13</ele>
        <time>2014-09-07T15:38:57Z</time>
      </trkpt>
      <trkpt lat="46.14286" lon="5.90929">
        <ele>486.92</ele>
        <time>2014-09-07T15:38:59Z</time>
      </trkpt>
      <trkpt lat="46.14313" lon="5.9103">
        <ele>483.51</ele>
        <time>2014-09-07T15:39:09Z</time>
      </trkpt>
      <trkpt lat="46.14317" lon="5.91047">
        <ele>482.17</ele>
        <time>2014-09-07T15:39:11Z</time>
      </trkpt>
      <trkpt lat="46.14318" lon="5.91055">
        <ele>481.69</ele>
        <time>2014-09-07T15:39:12Z</time>
      </trkpt>
      <trkpt lat="46.14318" lon="5.9106">
        <ele>481.37</ele>
        <time>2014-09-07T15:39:13Z</time>
      </trkpt>
      <trkpt lat="46.14318" lon="5.91065">
        <ele>481.02</ele>
        <time>2014-09-07T15:39:14Z</time>
      </trkpt>
      <trkpt lat="46.14317" lon="5.9107">
        <ele>480.57</ele>
        <time>2014-09-07T15:39:15Z</time>
      </trkpt>
      <trkpt lat="46.14315" lon="5.91075">
        <ele>480.57</ele>
        <time>2014-09-07T15:39:16Z</time>
      </trkpt>
      <trkpt lat="46.14309" lon="5.91086">
        <ele>479.83</ele>
        <time>2014-09-07T15:39:18Z</time>
      </trkpt>
      <trkpt lat="46.143" lon="5.911">
        <ele>479.42</ele>
        <time>2014-09-07T15:39:20Z</time>
      </trkpt>
      <trkpt lat="46.14297" lon="5.9111">
        <ele>479.13</ele>
        <time>2014-09-07T15:39:21Z</time>
      </trkpt>
      <trkpt lat="46.14296" lon="5.9112">
        <ele>478.72</ele>
        <time>2014-09-07T15:39:22Z</time>
      </trkpt>
      <trkpt lat="46.14296" lon="5.91131">
        <ele>478.25</ele>
        <time>2014-09-07T15:39:23Z</time>
      </trkpt>
      <trkpt lat="46.14299" lon="5.91142">
        <ele>477.82</ele>
        <time>2014-09-07T15:39:24Z</time>
      </trkpt>
      <trkpt lat="46.14303" lon="5.91152">
        <ele>477.51</ele>
        <time>2014-09-07T15:39:25Z</time>
      </trkpt>
      <trkpt lat="46.14307" lon="5.91162">
        <ele>477.14</ele>
        <time>2014-09-07T15:39:26Z</time>
      </trkpt>
      <trkpt lat="46.14311" lon="5.91172">
        <ele>476.64</ele>
        <time>2014-09-07T15:39:27Z</time>
      </trkpt>
      <trkpt lat="46.14316" lon="5.91191">
        <ele>475.95</ele>
        <time>2014-09-07T15:39:29Z</time>
      </trkpt>
      <trkpt lat="46.14337" lon="5.91259">
        <ele>474.92</ele>
        <time>2014-09-07T15:39:36Z</time>
      </trkpt>
      <trkpt lat="46.14342" lon="5.91268">
        <ele>474.83</ele>
        <time>2014-09-07T15:39:37Z</time>
      </trkpt>
      <trkpt lat="46.14391" lon="5.91366">
        <ele>472.32</ele>
        <time>2014-09-07T15:39:48Z</time>
      </trkpt>
      <trkpt lat="46.14422" lon="5.91475">
        <ele>471.83</ele>
        <time>2014-09-07T15:40:00Z</time>
      </trkpt>
      <trkpt lat="46.14425" lon="5.91481">
        <ele>472.03</ele>
        <time>2014-09-07T15:40:01Z</time>
      </trkpt>
      <trkpt lat="46.14432" lon="5.91489">
        <ele>472.29</ele>
        <time>2014-09-07T15:40:03Z</time>
      </trkpt>
      <trkpt lat="46.14437" lon="5.91491">
        <ele>472.39</ele>
        <time>2014-09-07T15:40:04Z</time>
      </trkpt>
      <trkpt lat="46.14441" lon="5.9149">
        <ele>472.44</ele>
        <time>2014-09-07T15:40:05Z</time>
      </trkpt>
      <trkpt lat="46.14445" lon="5.91488">
        <ele>472.49</ele>
        <time>2014-09-07T15:40:06Z</time>
      </trkpt>
      <trkpt lat="46.14449" lon="5.91486">
        <ele>472.45</ele>
        <time>2014-09-07T15:40:07Z</time>
      </trkpt>
      <trkpt lat="46.14453" lon="5.91484">
        <ele>472.47</ele>
        <time>2014-09-07T15:40:08Z</time>
      </trkpt>
      <trkpt lat="46.14456" lon="5.91482">
        <ele>472.51</ele>
        <time>2014-09-07T15:40:09Z</time>
      </trkpt>
      <trkpt lat="46.1446" lon="5.91481">
        <ele>472.63</ele>
        <time>2014-09-07T15:40:10Z</time>
      </trkpt>
      <trkpt lat="46.14477" lon="5.91473">
        <ele>473.64</ele>
        <time>2014-09-07T15:40:15Z</time>
      </trkpt>
      <trkpt lat="46.145" lon="5.91495">
        <ele>475.6</ele>
        <time>2014-09-07T15:40:25Z</time>
      </trkpt>
      <trkpt lat="46.14506" lon="5.91523">
        <ele>475.68</ele>
        <time>2014-09-07T15:40:30Z</time>
      </trkpt>
      <trkpt lat="46.14508" lon="5.91529">
        <ele>475.65</ele>
        <time>2014-09-07T15:40:31Z</time>
      </trkpt>
      <trkpt lat="46.1451" lon="5.91535">
        <ele>475.6</ele>
        <time>2014-09-07T15:40:32Z</time>
      </trkpt>
      <trkpt lat="46.14513" lon="5.91539">
        <ele>475.57</ele>
        <time>2014-09-07T15:40:33Z</time>
      </trkpt>
      <trkpt lat="46.14517" lon="5.91542">
        <ele>475.56</ele>
        <time>2014-09-07T15:40:34Z</time>
      </trkpt>
      <trkpt lat="46.14521" lon="5.91543">
        <ele>475.56</ele>
        <time>2014-09-07T15:40:35Z</time>
      </trkpt>
      <trkpt lat="46.14525" lon="5.91544">
        <ele>475.56</ele>
        <time>2014-09-07T15:40:36Z</time>
      </trkpt>
      <trkpt lat="46.14529" lon="5.91544">
        <ele>475.63</ele>
        <time>2014-09-07T15:40:37Z</time>
      </trkpt>
      <trkpt lat="46.14533" lon="5.91543">
        <ele>475.66</ele>
        <time>2014-09-07T15:40:38Z</time>
      </trkpt>
      <trkpt lat="46.14537" lon="5.91542">
        <ele>475.78</ele>
        <time>2014-09-07T15:40:39Z</time>
      </trkpt>
      <trkpt lat="46.14541" lon="5.91541">
        <ele>475.83</ele>
        <time>2014-09-07T15:40:40Z</time>
      </trkpt>
      <trkpt lat="46.14559" lon="5.91536">
        <ele>477.41</ele>
        <time>2014-09-07T15:40:46Z</time>
      </trkpt>
      <trkpt lat="46.14599" lon="5.91519">
        <ele>480.54</ele>
        <time>2014-09-07T15:41:01Z</time>
      </trkpt>
      <trkpt lat="46.14632" lon="5.91492">
        <ele>482.88</ele>
        <time>2014-09-07T15:41:15Z</time>
      </trkpt>
      <trkpt lat="46.14659" lon="5.91459">
        <ele>484.7</ele>
        <time>2014-09-07T15:41:29Z</time>
      </trkpt>
      <trkpt lat="46.14683" lon="5.91465">
        <ele>486.09</ele>
        <time>2014-09-07T15:41:40Z</time>
      </trkpt>
      <trkpt lat="46.14726" lon="5.91502">
        <ele>486.84</ele>
        <time>2014-09-07T15:41:58Z</time>
      </trkpt>
      <trkpt lat="46.14736" lon="5.91513">
        <ele>487.07</ele>
        <time>2014-09-07T15:42:02Z</time>
      </trkpt>
      <trkpt lat="46.14786" lon="5.91569">
        <ele>487.77</ele>
        <time>2014-09-07T15:42:19Z</time>
      </trkpt>
      <trkpt lat="46.14792" lon="5.91576">
        <ele>487.64</ele>
        <time>2014-09-07T15:42:21Z</time>
      </trkpt>
      <trkpt lat="46.14796" lon="5.91579">
        <ele>487.59</ele>
        <time>2014-09-07T15:42:22Z</time>
      </trkpt>
      <trkpt lat="46.148" lon="5.91582">
        <ele>487.53</ele>
        <time>2014-09-07T15:42:23Z</time>
      </trkpt>
      <trkpt lat="46.14804" lon="5.91585">
        <ele>487.5</ele>
        <time>2014-09-07T15:42:24Z</time>
      </trkpt>
      <trkpt lat="46.14809" lon="5.91587">
        <ele>487.49</ele>
        <time>2014-09-07T15:42:25Z</time>
      </trkpt>
      <trkpt lat="46.14813" lon="5.91589">
        <ele>487.49</ele>
        <time>2014-09-07T15:42:26Z</time>
      </trkpt>
      <trkpt lat="46.14836" lon="5.91597">
        <ele>487.33</ele>
        <time>2014-09-07T15:42:31Z</time>
      </trkpt>
      <trkpt lat="46.14865" lon="5.91586">
        <ele>487.15</ele>
        <time>2014-09-07T15:42:40Z</time>
      </trkpt>
      <trkpt lat="46.14872" lon="5.91569">
        <ele>487.5</ele>
        <time>2014-09-07T15:42:44Z</time>
      </trkpt>
      <trkpt lat="46.14901" lon="5.91522">
        <ele>489.46</ele>
        <time>2014-09-07T15:42:56Z</time>
      </trkpt>
      <trkpt lat="46.14936" lon="5.91495">
        <ele>491.26</ele>
        <time>2014-09-07T15:43:09Z</time>
      </trkpt>
      <trkpt lat="46.14984" lon="5.91458">
        <ele>493.41</ele>
        <time>2014-09-07T15:43:25Z</time>
      </trkpt>
      <trkpt lat="46.15031" lon="5.91435">
        <ele>495.73</ele>
        <time>2014-09-07T15:43:40Z</time>
      </trkpt>
      <trkpt lat="46.15086" lon="5.91416">
        <ele>496.87</ele>
        <time>2014-09-07T15:43:57Z</time>
      </trkpt>
      <trkpt lat="46.15134" lon="5.91416">
        <ele>496.27</ele>
        <time>2014-09-07T15:44:09Z</time>
      </trkpt>
      <trkpt lat="46.15182" lon="5.91409">
        <ele>496.01</ele>
        <time>2014-09-07T15:44:21Z</time>
      </trkpt>
      <trkpt lat="46.15186" lon="5.91408">
        <ele>496.01</ele>
        <time>2014-09-07T15:44:22Z</time>
      </trkpt>
      <trkpt lat="46.15213" lon="5.91399">
        <ele>495.54</ele>
        <time>2014-09-07T15:44:28Z</time>
      </trkpt>
      <trkpt lat="46.15217" lon="5.91396">
        <ele>495.49</ele>
        <time>2014-09-07T15:44:29Z</time>
      </trkpt>
      <trkpt lat="46.15221" lon="5.91392">
        <ele>495.5</ele>
        <time>2014-09-07T15:44:30Z</time>
      </trkpt>
      <trkpt lat="46.15224" lon="5.91388">
        <ele>495.58</ele>
        <time>2014-09-07T15:44:31Z</time>
      </trkpt>
      <trkpt lat="46.15227" lon="5.91384">
        <ele>495.7</ele>
        <time>2014-09-07T15:44:32Z</time>
      </trkpt>
      <trkpt lat="46.15231" lon="5.91381">
        <ele>495.8</ele>
        <time>2014-09-07T15:44:33Z</time>
      </trkpt>
      <trkpt lat="46.15235" lon="5.91377">
        <ele>495.9</ele>
        <time>2014-09-07T15:44:34Z</time>
      </trkpt>
      <trkpt lat="46.15246" lon="5.9137">
        <ele>496.16</ele>
        <time>2014-09-07T15:44:37Z</time>
      </trkpt>
      <trkpt lat="46.15289" lon="5.91348">
        <ele>496.8</ele>
        <time>2014-09-07T15:44:48Z</time>
      </trkpt>
      <trkpt lat="46.15361" lon="5.91294">
        <ele>495.65</ele>
        <time>2014-09-07T15:45:05Z</time>
      </trkpt>
      <trkpt lat="46.15441" lon="5.91191">
        <ele>492.8</ele>
        <time>2014-09-07T15:45:21Z</time>
      </trkpt>
      <trkpt lat="46.15498" lon="5.91103">
        <ele>490.74</ele>
        <time>2014-09-07T15:45:33Z</time>
      </trkpt>
      <trkpt lat="46.15502" lon="5.91095">
        <ele>490.76</ele>
        <time>2014-09-07T15:45:34Z</time>
      </trkpt>
      <trkpt lat="46.15505" lon="5.91087">
        <ele>490.84</ele>
        <time>2014-09-07T15:45:35Z</time>
      </trkpt>
      <trkpt lat="46.15507" lon="5.91079">
        <ele>490.91</ele>
        <time>2014-09-07T15:45:36Z</time>
      </trkpt>
      <trkpt lat="46.1551" lon="5.91071">
        <ele>490.91</ele>
        <time>2014-09-07T15:45:37Z</time>
      </trkpt>
      <trkpt lat="46.15544" lon="5.90932">
        <ele>488.48</ele>
        <time>2014-09-07T15:45:54Z</time>
      </trkpt>
      <trkpt lat="46.15561" lon="5.90859">
        <ele>489.41</ele>
        <time>2014-09-07T15:46:05Z</time>
      </trkpt>
      <trkpt lat="46.15562" lon="5.90853">
        <ele>489.59</ele>
        <time>2014-09-07T15:46:06Z</time>
      </trkpt>
      <trkpt lat="46.15563" lon="5.90848">
        <ele>489.87</ele>
        <time>2014-09-07T15:46:07Z</time>
      </trkpt>
      <trkpt lat="46.15572" lon="5.90803">
        <ele>492.38</ele>
        <time>2014-09-07T15:46:17Z</time>
      </trkpt>
      <trkpt lat="46.15578" lon="5.90755">
        <ele>495.61</ele>
        <time>2014-09-07T15:46:29Z</time>
      </trkpt>
      <trkpt lat="46.15587" lon="5.90713">
        <ele>498.68</ele>
        <time>2014-09-07T15:46:40Z</time>
      </trkpt>
      <trkpt lat="46.15599" lon="5.90658">
        <ele>501.71</ele>
        <time>2014-09-07T15:46:55Z</time>
      </trkpt>
      <trkpt lat="46.15612" lon="5.906">
        <ele>504.83</ele>
        <time>2014-09-07T15:47:11Z</time>
      </trkpt>
      <trkpt lat="46.15613" lon="5.90542">
        <ele>507.36</ele>
        <time>2014-09-07T15:47:26Z</time>
      </trkpt>
      <trkpt lat="46.15608" lon="5.905">
        <ele>510.6</ele>
        <time>2014-09-07T15:47:38Z</time>
      </trkpt>
      <trkpt lat="46.15611" lon="5.90491">
        <ele>512.06</ele>
        <time>2014-09-07T15:47:47Z</time>
      </trkpt>
      <trkpt lat="46.15612" lon="5.90489">
        <ele>511.9</ele>
        <time>2014-09-07T15:48:07Z</time>
      </trkpt>
      <trkpt lat="46.15615" lon="5.90489">
        <ele>511.89</ele>
        <time>2014-09-07T15:48:09Z</time>
      </trkpt>
      <trkpt lat="46.15617" lon="5.90489">
        <ele>511.97</ele>
        <time>2014-09-07T15:48:10Z</time>
      </trkpt>
      <trkpt lat="46.1562" lon="5.90489">
        <ele>511.98</ele>
        <time>2014-09-07T15:48:11Z</time>
      </trkpt>
      <trkpt lat="46.15623" lon="5.90489">
        <ele>511.99</ele>
        <time>2014-09-07T15:48:12Z</time>
      </trkpt>
      <trkpt lat="46.15626" lon="5.90489">
        <ele>512.03</ele>
        <time>2014-09-07T15:48:13Z</time>
      </trkpt>
      <trkpt lat="46.15655" lon="5.90491">
        <ele>511.65</ele>
        <time>2014-09-07T15:48:21Z</time>
      </trkpt>
      <trkpt lat="46.15664" lon="5.90491">
        <ele>511.19</ele>
        <time>2014-09-07T15:48:23Z</time>
      </trkpt>
      <trkpt lat="46.15749" lon="5.90497">
        <ele>509.75</ele>
        <time>2014-09-07T15:48:38Z</time>
      </trkpt>
      <trkpt lat="46.15827" lon="5.90501">
        <ele>506.26</ele>
        <time>2014-09-07T15:48:48Z</time>
      </trkpt>
      <trkpt lat="46.15936" lon="5.90508">
        <ele>503.02</ele>
        <time>2014-09-07T15:49:01Z</time>
      </trkpt>
      <trkpt lat="46.16033" lon="5.90515">
        <ele>499.42</ele>
        <time>2014-09-07T15:49:12Z</time>
      </trkpt>
      <trkpt lat="46.16188" lon="5.90524">
        <ele>496.78</ele>
        <time>2014-09-07T15:49:30Z</time>
      </trkpt>
      <trkpt lat="46.16307" lon="5.9053">
        <ele>497.84</ele>
        <time>2014-09-07T15:49:48Z</time>
      </trkpt>
      <trkpt lat="46.16367" lon="5.90537">
        <ele>497.58</ele>
        <time>2014-09-07T15:50:00Z</time>
      </trkpt>
      <trkpt lat="46.1637" lon="5.90541">
        <ele>497.46</ele>
        <time>2014-09-07T15:50:01Z</time>
      </trkpt>
      <trkpt lat="46.16372" lon="5.90547">
        <ele>497.3</ele>
        <time>2014-09-07T15:50:02Z</time>
      </trkpt>
      <trkpt lat="46.16372" lon="5.90554">
        <ele>497.23</ele>
        <time>2014-09-07T15:50:03Z</time>
      </trkpt>
      <trkpt lat="46.16372" lon="5.90562">
        <ele>497.09</ele>
        <time>2014-09-07T15:50:04Z</time>
      </trkpt>
      <trkpt lat="46.1637" lon="5.90572">
        <ele>496.71</ele>
        <time>2014-09-07T15:50:05Z</time>
      </trkpt>
      <trkpt lat="46.16369" lon="5.90581">
        <ele>496.14</ele>
        <time>2014-09-07T15:50:06Z</time>
      </trkpt>
      <trkpt lat="46.1636" lon="5.90612">
        <ele>495.14</ele>
        <time>2014-09-07T15:50:09Z</time>
      </trkpt>
      <trkpt lat="46.16345" lon="5.90656">
        <ele>493.31</ele>
        <time>2014-09-07T15:50:13Z</time>
      </trkpt>
      <trkpt lat="46.16338" lon="5.90685">
        <ele>491.89</ele>
        <time>2014-09-07T15:50:16Z</time>
      </trkpt>
      <trkpt lat="46.16337" lon="5.90694">
        <ele>491.24</ele>
        <time>2014-09-07T15:50:17Z</time>
      </trkpt>
      <trkpt lat="46.16336" lon="5.90712">
        <ele>490.22</ele>
        <time>2014-09-07T15:50:19Z</time>
      </trkpt>
      <trkpt lat="46.16334" lon="5.90721">
        <ele>489.75</ele>
        <time>2014-09-07T15:50:20Z</time>
      </trkpt>
      <trkpt lat="46.16332" lon="5.90729">
        <ele>489.35</ele>
        <time>2014-09-07T15:50:21Z</time>
      </trkpt>
      <trkpt lat="46.16329" lon="5.90737">
        <ele>488.99</ele>
        <time>2014-09-07T15:50:22Z</time>
      </trkpt>
      <trkpt lat="46.16325" lon="5.90744">
        <ele>488.58</ele>
        <time>2014-09-07T15:50:23Z</time>
      </trkpt>
      <trkpt lat="46.16322" lon="5.90751">
        <ele>488.15</ele>
        <time>2014-09-07T15:50:24Z</time>
      </trkpt>
      <trkpt lat="46.16315" lon="5.90766">
        <ele>487.66</ele>
        <time>2014-09-07T15:50:26Z</time>
      </trkpt>
      <trkpt lat="46.16288" lon="5.90846">
        <ele>484.26</ele>
        <time>2014-09-07T15:50:34Z</time>
      </trkpt>
      <trkpt lat="46.16273" lon="5.90876">
        <ele>482.99</ele>
        <time>2014-09-07T15:50:37Z</time>
      </trkpt>
      <trkpt lat="46.16238" lon="5.90993">
        <ele>481.67</ele>
        <time>2014-09-07T15:50:49Z</time>
      </trkpt>
      <trkpt lat="46.16227" lon="5.9104">
        <ele>481.32</ele>
        <time>2014-09-07T15:50:54Z</time>
      </trkpt>
      <trkpt lat="46.16225" lon="5.9105">
        <ele>481.16</ele>
        <time>2014-09-07T15:50:55Z</time>
      </trkpt>
      <trkpt lat="46.16217" lon="5.91143">
        <ele>477.72</ele>
        <time>2014-09-07T15:51:03Z</time>
      </trkpt>
      <trkpt lat="46.16212" lon="5.91227">
        <ele>474.5</ele>
        <time>2014-09-07T15:51:09Z</time>
      </trkpt>
      <trkpt lat="46.1621" lon="5.91257">
        <ele>473.77</ele>
        <time>2014-09-07T15:51:11Z</time>
      </trkpt>
      <trkpt lat="46.16204" lon="5.91327">
        <ele>470.89</ele>
        <time>2014-09-07T15:51:16Z</time>
      </trkpt>
      <trkpt lat="46.16201" lon="5.91338">
        <ele>470.57</ele>
        <time>2014-09-07T15:51:17Z</time>
      </trkpt>
      <trkpt lat="46.16197" lon="5.91349">
        <ele>470.2</ele>
        <time>2014-09-07T15:51:18Z</time>
      </trkpt>
      <trkpt lat="46.16192" lon="5.91359">
        <ele>469.69</ele>
        <time>2014-09-07T15:51:19Z</time>
      </trkpt>
      <trkpt lat="46.16185" lon="5.91367">
        <ele>469.12</ele>
        <time>2014-09-07T15:51:20Z</time>
      </trkpt>
      <trkpt lat="46.16177" lon="5.91374">
        <ele>468.55</ele>
        <time>2014-09-07T15:51:21Z</time>
      </trkpt>
      <trkpt lat="46.16168" lon="5.9138">
        <ele>468.13</ele>
        <time>2014-09-07T15:51:22Z</time>
      </trkpt>
      <trkpt lat="46.16159" lon="5.91387">
        <ele>467.72</ele>
        <time>2014-09-07T15:51:23Z</time>
      </trkpt>
      <trkpt lat="46.16151" lon="5.91396">
        <ele>467.09</ele>
        <time>2014-09-07T15:51:24Z</time>
      </trkpt>
      <trkpt lat="46.16118" lon="5.91437">
        <ele>463.66</ele>
        <time>2014-09-07T15:51:28Z</time>
      </trkpt>
      <trkpt lat="46.16098" lon="5.91471">
        <ele>462.33</ele>
        <time>2014-09-07T15:51:31Z</time>
      </trkpt>
      <trkpt lat="46.16093" lon="5.91483">
        <ele>462.13</ele>
        <time>2014-09-07T15:51:32Z</time>
      </trkpt>
      <trkpt lat="46.16089" lon="5.91495">
        <ele>462.01</ele>
        <time>2014-09-07T15:51:33Z</time>
      </trkpt>
      <trkpt lat="46.16086" lon="5.91507">
        <ele>461.95</ele>
        <time>2014-09-07T15:51:34Z</time>
      </trkpt>
      <trkpt lat="46.16082" lon="5.91531">
        <ele>461.86</ele>
        <time>2014-09-07T15:51:36Z</time>
      </trkpt>
      <trkpt lat="46.1608" lon="5.91542">
        <ele>461.87</ele>
        <time>2014-09-07T15:51:37Z</time>
      </trkpt>
      <trkpt lat="46.1607" lon="5.91613">
        <ele>462.51</ele>
        <time>2014-09-07T15:51:44Z</time>
      </trkpt>
      <trkpt lat="46.16068" lon="5.91623">
        <ele>462.46</ele>
        <time>2014-09-07T15:51:45Z</time>
      </trkpt>
      <trkpt lat="46.16038" lon="5.9171">
        <ele>460.93</ele>
        <time>2014-09-07T15:51:56Z</time>
      </trkpt>
      <trkpt lat="46.1597" lon="5.91791">
        <ele>459.57</ele>
        <time>2014-09-07T15:52:11Z</time>
      </trkpt>
      <trkpt lat="46.15954" lon="5.91808">
        <ele>458.95</ele>
        <time>2014-09-07T15:52:15Z</time>
      </trkpt>
      <trkpt lat="46.15951" lon="5.91814">
        <ele>458.86</ele>
        <time>2014-09-07T15:52:16Z</time>
      </trkpt>
      <trkpt lat="46.15949" lon="5.9182">
        <ele>458.86</ele>
        <time>2014-09-07T15:52:17Z</time>
      </trkpt>
      <trkpt lat="46.15948" lon="5.91827">
        <ele>458.68</ele>
        <time>2014-09-07T15:52:18Z</time>
      </trkpt>
      <trkpt lat="46.15947" lon="5.91834">
        <ele>458.47</ele>
        <time>2014-09-07T15:52:19Z</time>
      </trkpt>
      <trkpt lat="46.15947" lon="5.91841">
        <ele>458.26</ele>
        <time>2014-09-07T15:52:20Z</time>
      </trkpt>
      <trkpt lat="46.15948" lon="5.91849">
        <ele>458.06</ele>
        <time>2014-09-07T15:52:21Z</time>
      </trkpt>
      <trkpt lat="46.15948" lon="5.91856">
        <ele>457.93</ele>
        <time>2014-09-07T15:52:22Z</time>
      </trkpt>
      <trkpt lat="46.15948" lon="5.91898">
        <ele>457.61</ele>
        <time>2014-09-07T15:52:28Z</time>
      </trkpt>
      <trkpt lat="46.15948" lon="5.91904">
        <ele>457.47</ele>
        <time>2014-09-07T15:52:29Z</time>
      </trkpt>
      <trkpt lat="46.15941" lon="5.91954">
        <ele>456.17</ele>
        <time>2014-09-07T15:52:36Z</time>
      </trkpt>
      <trkpt lat="46.1594" lon="5.91961">
        <ele>455.86</ele>
        <time>2014-09-07T15:52:37Z</time>
      </trkpt>
      <trkpt lat="46.15938" lon="5.91967">
        <ele>455.65</ele>
        <time>2014-09-07T15:52:38Z</time>
      </trkpt>
      <trkpt lat="46.15929" lon="5.9199">
        <ele>454.02</ele>
        <time>2014-09-07T15:52:42Z</time>
      </trkpt>
      <trkpt lat="46.15924" lon="5.92">
        <ele>453.6</ele>
        <time>2014-09-07T15:52:44Z</time>
      </trkpt>
      <trkpt lat="46.15922" lon="5.92006">
        <ele>453.29</ele>
        <time>2014-09-07T15:52:45Z</time>
      </trkpt>
      <trkpt lat="46.15921" lon="5.92012">
        <ele>453.01</ele>
        <time>2014-09-07T15:52:46Z</time>
      </trkpt>
      <trkpt lat="46.15921" lon="5.92019">
        <ele>452.74</ele>
        <time>2014-09-07T15:52:47Z</time>
      </trkpt>
      <trkpt lat="46.15921" lon="5.92026">
        <ele>452.74</ele>
        <time>2014-09-07T15:52:48Z</time>
      </trkpt>
      <trkpt lat="46.15923" lon="5.92033">
        <ele>452.6</ele>
        <time>2014-09-07T15:52:49Z</time>
      </trkpt>
      <trkpt lat="46.15924" lon="5.92039">
        <ele>452.37</ele>
        <time>2014-09-07T15:52:50Z</time>
      </trkpt>
      <trkpt lat="46.15926" lon="5.92046">
        <ele>452.07</ele>
        <time>2014-09-07T15:52:51Z</time>
      </trkpt>
      <trkpt lat="46.15929" lon="5.92059">
        <ele>451.87</ele>
        <time>2014-09-07T15:52:53Z</time>
      </trkpt>
      <trkpt lat="46.1593" lon="5.92067">
        <ele>451.78</ele>
        <time>2014-09-07T15:52:54Z</time>
      </trkpt>
      <trkpt lat="46.15931" lon="5.9209">
        <ele>451.61</ele>
        <time>2014-09-07T15:52:57Z</time>
      </trkpt>
      <trkpt lat="46.15931" lon="5.92097">
        <ele>451.45</ele>
        <time>2014-09-07T15:52:58Z</time>
      </trkpt>
      <trkpt lat="46.15931" lon="5.92112">
        <ele>451.28</ele>
        <time>2014-09-07T15:53:00Z</time>
      </trkpt>
      <trkpt lat="46.15932" lon="5.92119">
        <ele>451.32</ele>
        <time>2014-09-07T15:53:01Z</time>
      </trkpt>
      <trkpt lat="46.15934" lon="5.92125">
        <ele>451.27</ele>
        <time>2014-09-07T15:53:02Z</time>
      </trkpt>
      <trkpt lat="46.15936" lon="5.9213">
        <ele>451.32</ele>
        <time>2014-09-07T15:53:03Z</time>
      </trkpt>
      <trkpt lat="46.1594" lon="5.92133">
        <ele>451.4</ele>
        <time>2014-09-07T15:53:04Z</time>
      </trkpt>
      <trkpt lat="46.15943" lon="5.92137">
        <ele>451.45</ele>
        <time>2014-09-07T15:53:05Z</time>
      </trkpt>
      <trkpt lat="46.15986" lon="5.92162">
        <ele>450.9</ele>
        <time>2014-09-07T15:53:14Z</time>
      </trkpt>
      <trkpt lat="46.16034" lon="5.92176">
        <ele>449.52</ele>
        <time>2014-09-07T15:53:22Z</time>
      </trkpt>
      <trkpt lat="46.16074" lon="5.92168">
        <ele>447.68</ele>
        <time>2014-09-07T15:53:27Z</time>
      </trkpt>
      <trkpt lat="46.16081" lon="5.92163">
        <ele>447.17</ele>
        <time>2014-09-07T15:53:28Z</time>
      </trkpt>
      <trkpt lat="46.16087" lon="5.92158">
        <ele>446.75</ele>
        <time>2014-09-07T15:53:29Z</time>
      </trkpt>
      <trkpt lat="46.16093" lon="5.92152">
        <ele>445.65</ele>
        <time>2014-09-07T15:53:30Z</time>
      </trkpt>
      <trkpt lat="46.16101" lon="5.92138">
        <ele>445.18</ele>
        <time>2014-09-07T15:53:32Z</time>
      </trkpt>
      <trkpt lat="46.16105" lon="5.92132">
        <ele>444.68</ele>
        <time>2014-09-07T15:53:33Z</time>
      </trkpt>
      <trkpt lat="46.16111" lon="5.92119">
        <ele>443.66</ele>
        <time>2014-09-07T15:53:35Z</time>
      </trkpt>
      <trkpt lat="46.16115" lon="5.92114">
        <ele>443.24</ele>
        <time>2014-09-07T15:53:36Z</time>
      </trkpt>
      <trkpt lat="46.16131" lon="5.92105">
        <ele>441.87</ele>
        <time>2014-09-07T15:53:39Z</time>
      </trkpt>
      <trkpt lat="46.16138" lon="5.92105">
        <ele>440.79</ele>
        <time>2014-09-07T15:53:40Z</time>
      </trkpt>
      <trkpt lat="46.16144" lon="5.92106">
        <ele>440.53</ele>
        <time>2014-09-07T15:53:41Z</time>
      </trkpt>
      <trkpt lat="46.16155" lon="5.92118">
        <ele>440.41</ele>
        <time>2014-09-07T15:53:43Z</time>
      </trkpt>
      <trkpt lat="46.16158" lon="5.92126">
        <ele>440.46</ele>
        <time>2014-09-07T15:53:44Z</time>
      </trkpt>
      <trkpt lat="46.16159" lon="5.92134">
        <ele>440.71</ele>
        <time>2014-09-07T15:53:45Z</time>
      </trkpt>
      <trkpt lat="46.1616" lon="5.92143">
        <ele>441.06</ele>
        <time>2014-09-07T15:53:46Z</time>
      </trkpt>
      <trkpt lat="46.16159" lon="5.92151">
        <ele>441.4</ele>
        <time>2014-09-07T15:53:47Z</time>
      </trkpt>
      <trkpt lat="46.16158" lon="5.92158">
        <ele>441.7</ele>
        <time>2014-09-07T15:53:48Z</time>
      </trkpt>
      <trkpt lat="46.16152" lon="5.92229">
        <ele>444.34</ele>
        <time>2014-09-07T15:54:00Z</time>
      </trkpt>
      <trkpt lat="46.16176" lon="5.92254">
        <ele>446.02</ele>
        <time>2014-09-07T15:54:08Z</time>
      </trkpt>
      <trkpt lat="46.16178" lon="5.92259">
        <ele>446.45</ele>
        <time>2014-09-07T15:54:09Z</time>
      </trkpt>
      <trkpt lat="46.16179" lon="5.92264">
        <ele>446.72</ele>
        <time>2014-09-07T15:54:10Z</time>
      </trkpt>
      <trkpt lat="46.16179" lon="5.92274">
        <ele>447.14</ele>
        <time>2014-09-07T15:54:12Z</time>
      </trkpt>
      <trkpt lat="46.16177" lon="5.92278">
        <ele>447.39</ele>
        <time>2014-09-07T15:54:13Z</time>
      </trkpt>
      <trkpt lat="46.16144" lon="5.92316">
        <ele>450.35</ele>
        <time>2014-09-07T15:54:25Z</time>
      </trkpt>
      <trkpt lat="46.1614" lon="5.92326">
        <ele>450.85</ele>
        <time>2014-09-07T15:54:27Z</time>
      </trkpt>
      <trkpt lat="46.16137" lon="5.92331">
        <ele>451.16</ele>
        <time>2014-09-07T15:54:28Z</time>
      </trkpt>
      <trkpt lat="46.16132" lon="5.92347">
        <ele>451.88</ele>
        <time>2014-09-07T15:54:31Z</time>
      </trkpt>
      <trkpt lat="46.16129" lon="5.9236">
        <ele>452.4</ele>
        <time>2014-09-07T15:54:33Z</time>
      </trkpt>
      <trkpt lat="46.16128" lon="5.92366">
        <ele>452.62</ele>
        <time>2014-09-07T15:54:34Z</time>
      </trkpt>
      <trkpt lat="46.16127" lon="5.92372">
        <ele>452.79</ele>
        <time>2014-09-07T15:54:35Z</time>
      </trkpt>
      <trkpt lat="46.16124" lon="5.92396">
        <ele>453.53</ele>
        <time>2014-09-07T15:54:39Z</time>
      </trkpt>
      <trkpt lat="46.16123" lon="5.92402">
        <ele>453.94</ele>
        <time>2014-09-07T15:54:40Z</time>
      </trkpt>
      <trkpt lat="46.16113" lon="5.9247">
        <ele>456.99</ele>
        <time>2014-09-07T15:54:52Z</time>
      </trkpt>
      <trkpt lat="46.16103" lon="5.92543">
        <ele>459.84</ele>
        <time>2014-09-07T15:55:05Z</time>
      </trkpt>
      <trkpt lat="46.16102" lon="5.92549">
        <ele>460.29</ele>
        <time>2014-09-07T15:55:06Z</time>
      </trkpt>
      <trkpt lat="46.16101" lon="5.92554">
        <ele>460.51</ele>
        <time>2014-09-07T15:55:07Z</time>
      </trkpt>
      <trkpt lat="46.16099" lon="5.92559">
        <ele>460.62</ele>
        <time>2014-09-07T15:55:08Z</time>
      </trkpt>
      <trkpt lat="46.16097" lon="5.92564">
        <ele>460.68</ele>
        <time>2014-09-07T15:55:09Z</time>
      </trkpt>
      <trkpt lat="46.16096" lon="5.9257">
        <ele>460.74</ele>
        <time>2014-09-07T15:55:10Z</time>
      </trkpt>
      <trkpt lat="46.1609" lon="5.92593">
        <ele>461.35</ele>
        <time>2014-09-07T15:55:14Z</time>
      </trkpt>
      <trkpt lat="46.16089" lon="5.92599">
        <ele>461.6</ele>
        <time>2014-09-07T15:55:15Z</time>
      </trkpt>
      <trkpt lat="46.16088" lon="5.92613">
        <ele>461.79</ele>
        <time>2014-09-07T15:55:17Z</time>
      </trkpt>
      <trkpt lat="46.16087" lon="5.92619">
        <ele>461.91</ele>
        <time>2014-09-07T15:55:18Z</time>
      </trkpt>
      <trkpt lat="46.16086" lon="5.92638">
        <ele>462.09</ele>
        <time>2014-09-07T15:55:21Z</time>
      </trkpt>
      <trkpt lat="46.16086" lon="5.92644">
        <ele>462.26</ele>
        <time>2014-09-07T15:55:22Z</time>
      </trkpt>
      <trkpt lat="46.16086" lon="5.92649">
        <ele>462.44</ele>
        <time>2014-09-07T15:55:23Z</time>
      </trkpt>
      <trkpt lat="46.16086" lon="5.92695">
        <ele>464.19</ele>
        <time>2014-09-07T15:55:31Z</time>
      </trkpt>
      <trkpt lat="46.16087" lon="5.92701">
        <ele>464.38</ele>
        <time>2014-09-07T15:55:32Z</time>
      </trkpt>
      <trkpt lat="46.16088" lon="5.92706">
        <ele>464.62</ele>
        <time>2014-09-07T15:55:33Z</time>
      </trkpt>
      <trkpt lat="46.1609" lon="5.92712">
        <ele>464.93</ele>
        <time>2014-09-07T15:55:34Z</time>
      </trkpt>
      <trkpt lat="46.16092" lon="5.92716">
        <ele>465.08</ele>
        <time>2014-09-07T15:55:35Z</time>
      </trkpt>
      <trkpt lat="46.16123" lon="5.9275">
        <ele>467.1</ele>
        <time>2014-09-07T15:55:47Z</time>
      </trkpt>
      <trkpt lat="46.16123" lon="5.92749">
        <ele>467.25</ele>
        <time>2014-09-07T15:56:08Z</time>
      </trkpt>
      <trkpt lat="46.16126" lon="5.92755">
        <ele>467.5</ele>
        <time>2014-09-07T15:57:11Z</time>
      </trkpt>
      <trkpt lat="46.1615" lon="5.92777">
        <ele>468.04</ele>
        <time>2014-09-07T15:57:19Z</time>
      </trkpt>
      <trkpt lat="46.16155" lon="5.92782">
        <ele>468.16</ele>
        <time>2014-09-07T15:57:20Z</time>
      </trkpt>
      <trkpt lat="46.1616" lon="5.92786">
        <ele>468.29</ele>
        <time>2014-09-07T15:57:21Z</time>
      </trkpt>
      <trkpt lat="46.16225" lon="5.92843">
        <ele>469.79</ele>
        <time>2014-09-07T15:57:34Z</time>
      </trkpt>
      <trkpt lat="46.16347" lon="5.92896">
        <ele>469.19</ele>
        <time>2014-09-07T15:57:52Z</time>
      </trkpt>
      <trkpt lat="46.16369" lon="5.92906">
        <ele>468.67</ele>
        <time>2014-09-07T15:57:55Z</time>
      </trkpt>
      <trkpt lat="46.16375" lon="5.92912">
        <ele>468.47</ele>
        <time>2014-09-07T15:57:56Z</time>
      </trkpt>
      <trkpt lat="46.16382" lon="5.92918">
        <ele>468.38</ele>
        <time>2014-09-07T15:57:57Z</time>
      </trkpt>
      <trkpt lat="46.16387" lon="5.92926">
        <ele>468.27</ele>
        <time>2014-09-07T15:57:58Z</time>
      </trkpt>
      <trkpt lat="46.16392" lon="5.92934">
        <ele>468.21</ele>
        <time>2014-09-07T15:57:59Z</time>
      </trkpt>
      <trkpt lat="46.16397" lon="5.92944">
        <ele>468.01</ele>
        <time>2014-09-07T15:58:00Z</time>
      </trkpt>
      <trkpt lat="46.164" lon="5.92955">
        <ele>467.85</ele>
        <time>2014-09-07T15:58:01Z</time>
      </trkpt>
      <trkpt lat="46.16404" lon="5.92966">
        <ele>467.42</ele>
        <time>2014-09-07T15:58:02Z</time>
      </trkpt>
      <trkpt lat="46.16407" lon="5.92977">
        <ele>466.96</ele>
        <time>2014-09-07T15:58:03Z</time>
      </trkpt>
      <trkpt lat="46.16422" lon="5.93039">
        <ele>465.06</ele>
        <time>2014-09-07T15:58:08Z</time>
      </trkpt>
      <trkpt lat="46.16422" lon="5.93052">
        <ele>464.5</ele>
        <time>2014-09-07T15:58:09Z</time>
      </trkpt>
      <trkpt lat="46.16421" lon="5.93066">
        <ele>463.78</ele>
        <time>2014-09-07T15:58:10Z</time>
      </trkpt>
      <trkpt lat="46.16417" lon="5.93078">
        <ele>463.08</ele>
        <time>2014-09-07T15:58:11Z</time>
      </trkpt>
      <trkpt lat="46.16412" lon="5.9309">
        <ele>462.51</ele>
        <time>2014-09-07T15:58:12Z</time>
      </trkpt>
      <trkpt lat="46.16408" lon="5.931">
        <ele>461.96</ele>
        <time>2014-09-07T15:58:13Z</time>
      </trkpt>
      <trkpt lat="46.16405" lon="5.9311">
        <ele>461.49</ele>
        <time>2014-09-07T15:58:14Z</time>
      </trkpt>
      <trkpt lat="46.16404" lon="5.93119">
        <ele>461.16</ele>
        <time>2014-09-07T15:58:15Z</time>
      </trkpt>
      <trkpt lat="46.16405" lon="5.93129">
        <ele>461.16</ele>
        <time>2014-09-07T15:58:16Z</time>
      </trkpt>
      <trkpt lat="46.16408" lon="5.93138">
        <ele>461</ele>
        <time>2014-09-07T15:58:17Z</time>
      </trkpt>
      <trkpt lat="46.16413" lon="5.93145">
        <ele>460.82</ele>
        <time>2014-09-07T15:58:18Z</time>
      </trkpt>
      <trkpt lat="46.16418" lon="5.93152">
        <ele>460.6</ele>
        <time>2014-09-07T15:58:19Z</time>
      </trkpt>
      <trkpt lat="46.16425" lon="5.93158">
        <ele>460.32</ele>
        <time>2014-09-07T15:58:20Z</time>
      </trkpt>
      <trkpt lat="46.16431" lon="5.93164">
        <ele>460.16</ele>
        <time>2014-09-07T15:58:21Z</time>
      </trkpt>
      <trkpt lat="46.16436" lon="5.93171">
        <ele>459.9</ele>
        <time>2014-09-07T15:58:22Z</time>
      </trkpt>
      <trkpt lat="46.16441" lon="5.93179">
        <ele>459.65</ele>
        <time>2014-09-07T15:58:23Z</time>
      </trkpt>
      <trkpt lat="46.16498" lon="5.93297">
        <ele>458.66</ele>
        <time>2014-09-07T15:58:36Z</time>
      </trkpt>
      <trkpt lat="46.16557" lon="5.9337">
        <ele>460.54</ele>
        <time>2014-09-07T15:58:48Z</time>
      </trkpt>
      <trkpt lat="46.16612" lon="5.93403">
        <ele>461.58</ele>
        <time>2014-09-07T15:58:58Z</time>
      </trkpt>
      <trkpt lat="46.16619" lon="5.93404">
        <ele>461.43</ele>
        <time>2014-09-07T15:59:00Z</time>
      </trkpt>
      <trkpt lat="46.16622" lon="5.93403">
        <ele>461.32</ele>
        <time>2014-09-07T15:59:01Z</time>
      </trkpt>
      <trkpt lat="46.16625" lon="5.93402">
        <ele>461.24</ele>
        <time>2014-09-07T15:59:02Z</time>
      </trkpt>
      <trkpt lat="46.16629" lon="5.93399">
        <ele>461.1</ele>
        <time>2014-09-07T15:59:03Z</time>
      </trkpt>
      <trkpt lat="46.16632" lon="5.93395">
        <ele>461</ele>
        <time>2014-09-07T15:59:04Z</time>
      </trkpt>
      <trkpt lat="46.16636" lon="5.93389">
        <ele>460.95</ele>
        <time>2014-09-07T15:59:05Z</time>
      </trkpt>
      <trkpt lat="46.16639" lon="5.93382">
        <ele>460.92</ele>
        <time>2014-09-07T15:59:06Z</time>
      </trkpt>
      <trkpt lat="46.16642" lon="5.93375">
        <ele>460.88</ele>
        <time>2014-09-07T15:59:07Z</time>
      </trkpt>
      <trkpt lat="46.16645" lon="5.93368">
        <ele>460.86</ele>
        <time>2014-09-07T15:59:08Z</time>
      </trkpt>
      <trkpt lat="46.167" lon="5.93271">
        <ele>461.11</ele>
        <time>2014-09-07T15:59:20Z</time>
      </trkpt>
      <trkpt lat="46.16752" lon="5.93168">
        <ele>460</ele>
        <time>2014-09-07T15:59:32Z</time>
      </trkpt>
      <trkpt lat="46.16803" lon="5.93101">
        <ele>459.06</ele>
        <time>2014-09-07T15:59:41Z</time>
      </trkpt>
      <trkpt lat="46.16826" lon="5.93081">
        <ele>458.93</ele>
        <time>2014-09-07T15:59:46Z</time>
      </trkpt>
      <trkpt lat="46.16835" lon="5.93075">
        <ele>458.96</ele>
        <time>2014-09-07T15:59:48Z</time>
      </trkpt>
      <trkpt lat="46.1684" lon="5.93073">
        <ele>458.97</ele>
        <time>2014-09-07T15:59:49Z</time>
      </trkpt>
      <trkpt lat="46.16846" lon="5.93072">
        <ele>458.97</ele>
        <time>2014-09-07T15:59:50Z</time>
      </trkpt>
      <trkpt lat="46.16851" lon="5.93071">
        <ele>458.97</ele>
        <time>2014-09-07T15:59:51Z</time>
      </trkpt>
      <trkpt lat="46.16856" lon="5.9307">
        <ele>459.02</ele>
        <time>2014-09-07T15:59:52Z</time>
      </trkpt>
      <trkpt lat="46.16921" lon="5.93074">
        <ele>460.52</ele>
        <time>2014-09-07T16:00:05Z</time>
      </trkpt>
      <trkpt lat="46.16926" lon="5.93074">
        <ele>460.67</ele>
        <time>2014-09-07T16:00:06Z</time>
      </trkpt>
      <trkpt lat="46.16932" lon="5.93074">
        <ele>460.95</ele>
        <time>2014-09-07T16:00:07Z</time>
      </trkpt>
      <trkpt lat="46.16942" lon="5.93072">
        <ele>461.36</ele>
        <time>2014-09-07T16:00:09Z</time>
      </trkpt>
      <trkpt lat="46.16947" lon="5.9307">
        <ele>461.45</ele>
        <time>2014-09-07T16:00:10Z</time>
      </trkpt>
      <trkpt lat="46.16966" lon="5.9306">
        <ele>461.94</ele>
        <time>2014-09-07T16:00:14Z</time>
      </trkpt>
      <trkpt lat="46.17051" lon="5.92998">
        <ele>464.08</ele>
        <time>2014-09-07T16:00:35Z</time>
      </trkpt>
      <trkpt lat="46.17129" lon="5.92934">
        <ele>465.42</ele>
        <time>2014-09-07T16:00:55Z</time>
      </trkpt>
      <trkpt lat="46.17188" lon="5.92886">
        <ele>467.22</ele>
        <time>2014-09-07T16:01:11Z</time>
      </trkpt>
      <trkpt lat="46.17266" lon="5.92815">
        <ele>468.49</ele>
        <time>2014-09-07T16:01:32Z</time>
      </trkpt>
      <trkpt lat="46.17339" lon="5.92727">
        <ele>470.23</ele>
        <time>2014-09-07T16:01:53Z</time>
      </trkpt>
      <trkpt lat="46.17342" lon="5.92723">
        <ele>470.34</ele>
        <time>2014-09-07T16:01:54Z</time>
      </trkpt>
      <trkpt lat="46.17345" lon="5.92719">
        <ele>470.52</ele>
        <time>2014-09-07T16:01:55Z</time>
      </trkpt>
      <trkpt lat="46.17374" lon="5.92679">
        <ele>471.4</ele>
        <time>2014-09-07T16:02:04Z</time>
      </trkpt>
      <trkpt lat="46.17377" lon="5.92676">
        <ele>471.55</ele>
        <time>2014-09-07T16:02:05Z</time>
      </trkpt>
      <trkpt lat="46.1738" lon="5.92671">
        <ele>471.66</ele>
        <time>2014-09-07T16:02:06Z</time>
      </trkpt>
      <trkpt lat="46.17446" lon="5.92595">
        <ele>473.91</ele>
        <time>2014-09-07T16:02:26Z</time>
      </trkpt>
      <trkpt lat="46.17518" lon="5.92522">
        <ele>475.24</ele>
        <time>2014-09-07T16:02:47Z</time>
      </trkpt>
      <trkpt lat="46.17588" lon="5.92463">
        <ele>476.49</ele>
        <time>2014-09-07T16:03:05Z</time>
      </trkpt>
      <trkpt lat="46.17652" lon="5.92411">
        <ele>478.55</ele>
        <time>2014-09-07T16:03:22Z</time>
      </trkpt>
      <trkpt lat="46.17725" lon="5.92336">
        <ele>479.35</ele>
        <time>2014-09-07T16:03:42Z</time>
      </trkpt>
      <trkpt lat="46.17749" lon="5.92305">
        <ele>479.87</ele>
        <time>2014-09-07T16:03:49Z</time>
      </trkpt>
      <trkpt lat="46.17752" lon="5.923">
        <ele>479.93</ele>
        <time>2014-09-07T16:03:50Z</time>
      </trkpt>
      <trkpt lat="46.17756" lon="5.92296">
        <ele>479.96</ele>
        <time>2014-09-07T16:03:51Z</time>
      </trkpt>
      <trkpt lat="46.17758" lon="5.92292">
        <ele>480</ele>
        <time>2014-09-07T16:03:52Z</time>
      </trkpt>
      <trkpt lat="46.17796" lon="5.92234">
        <ele>482.46</ele>
        <time>2014-09-07T16:04:07Z</time>
      </trkpt>
      <trkpt lat="46.17826" lon="5.92178">
        <ele>485.59</ele>
        <time>2014-09-07T16:04:24Z</time>
      </trkpt>
      <trkpt lat="46.17848" lon="5.92128">
        <ele>488.2</ele>
        <time>2014-09-07T16:04:39Z</time>
      </trkpt>
      <trkpt lat="46.17874" lon="5.92074">
        <ele>491.02</ele>
        <time>2014-09-07T16:04:55Z</time>
      </trkpt>
      <trkpt lat="46.17893" lon="5.92036">
        <ele>492.65</ele>
        <time>2014-09-07T16:05:06Z</time>
      </trkpt>
      <trkpt lat="46.17895" lon="5.92034">
        <ele>492.79</ele>
        <time>2014-09-07T16:05:07Z</time>
      </trkpt>
      <trkpt lat="46.17899" lon="5.92032">
        <ele>492.9</ele>
        <time>2014-09-07T16:05:09Z</time>
      </trkpt>
      <trkpt lat="46.179" lon="5.92031">
        <ele>492.96</ele>
        <time>2014-09-07T16:05:10Z</time>
      </trkpt>
      <trkpt lat="46.17903" lon="5.92031">
        <ele>493.32</ele>
        <time>2014-09-07T16:05:26Z</time>
      </trkpt>
      <trkpt lat="46.17906" lon="5.92031">
        <ele>493.38</ele>
        <time>2014-09-07T16:05:28Z</time>
      </trkpt>
      <trkpt lat="46.17908" lon="5.92032">
        <ele>493.41</ele>
        <time>2014-09-07T16:05:29Z</time>
      </trkpt>
      <trkpt lat="46.17911" lon="5.92033">
        <ele>493.43</ele>
        <time>2014-09-07T16:05:30Z</time>
      </trkpt>
      <trkpt lat="46.17913" lon="5.92034">
        <ele>493.47</ele>
        <time>2014-09-07T16:05:31Z</time>
      </trkpt>
      <trkpt lat="46.17916" lon="5.92034">
        <ele>493.49</ele>
        <time>2014-09-07T16:05:32Z</time>
      </trkpt>
      <trkpt lat="46.17962" lon="5.92047">
        <ele>494.19</ele>
        <time>2014-09-07T16:05:46Z</time>
      </trkpt>
      <trkpt lat="46.17987" lon="5.92053">
        <ele>494.07</ele>
        <time>2014-09-07T16:05:52Z</time>
      </trkpt>
      <trkpt lat="46.18033" lon="5.92042">
        <ele>493.83</ele>
        <time>2014-09-07T16:06:03Z</time>
      </trkpt>
      <trkpt lat="46.18042" lon="5.92043">
        <ele>493.4</ele>
        <time>2014-09-07T16:06:05Z</time>
      </trkpt>
      <trkpt lat="46.18055" lon="5.9205">
        <ele>492.86</ele>
        <time>2014-09-07T16:06:08Z</time>
      </trkpt>
      <trkpt lat="46.1806" lon="5.92053">
        <ele>492.79</ele>
        <time>2014-09-07T16:06:09Z</time>
      </trkpt>
      <trkpt lat="46.18103" lon="5.92083">
        <ele>490.66</ele>
        <time>2014-09-07T16:06:17Z</time>
      </trkpt>
      <trkpt lat="46.18108" lon="5.92089">
        <ele>489.92</ele>
        <time>2014-09-07T16:06:18Z</time>
      </trkpt>
      <trkpt lat="46.18113" lon="5.92096">
        <ele>489.05</ele>
        <time>2014-09-07T16:06:19Z</time>
      </trkpt>
      <trkpt lat="46.18116" lon="5.92104">
        <ele>488.24</ele>
        <time>2014-09-07T16:06:20Z</time>
      </trkpt>
      <trkpt lat="46.18117" lon="5.92113">
        <ele>488.24</ele>
        <time>2014-09-07T16:06:21Z</time>
      </trkpt>
      <trkpt lat="46.18117" lon="5.92122">
        <ele>487.83</ele>
        <time>2014-09-07T16:06:22Z</time>
      </trkpt>
      <trkpt lat="46.18117" lon="5.9213">
        <ele>487.47</ele>
        <time>2014-09-07T16:06:23Z</time>
      </trkpt>
      <trkpt lat="46.1812" lon="5.92146">
        <ele>486.68</ele>
        <time>2014-09-07T16:06:26Z</time>
      </trkpt>
      <trkpt lat="46.18123" lon="5.92148">
        <ele>486.51</ele>
        <time>2014-09-07T16:06:27Z</time>
      </trkpt>
      <trkpt lat="46.18126" lon="5.92149">
        <ele>486.41</ele>
        <time>2014-09-07T16:06:28Z</time>
      </trkpt>
      <trkpt lat="46.18129" lon="5.92149">
        <ele>486.37</ele>
        <time>2014-09-07T16:06:29Z</time>
      </trkpt>
      <trkpt lat="46.18133" lon="5.92148">
        <ele>486.35</ele>
        <time>2014-09-07T16:06:30Z</time>
      </trkpt>
      <trkpt lat="46.18156" lon="5.9214">
        <ele>487.64</ele>
        <time>2014-09-07T16:06:36Z</time>
      </trkpt>
      <trkpt lat="46.1816" lon="5.9214">
        <ele>488.15</ele>
        <time>2014-09-07T16:06:37Z</time>
      </trkpt>
      <trkpt lat="46.18198" lon="5.92123">
        <ele>491.26</ele>
        <time>2014-09-07T16:06:49Z</time>
      </trkpt>
      <trkpt lat="46.18214" lon="5.92102">
        <ele>493.09</ele>
        <time>2014-09-07T16:06:56Z</time>
      </trkpt>
      <trkpt lat="46.18218" lon="5.92097">
        <ele>493.48</ele>
        <time>2014-09-07T16:06:58Z</time>
      </trkpt>
      <trkpt lat="46.18221" lon="5.92096">
        <ele>493.87</ele>
        <time>2014-09-07T16:06:59Z</time>
      </trkpt>
      <trkpt lat="46.18223" lon="5.92095">
        <ele>494.23</ele>
        <time>2014-09-07T16:07:00Z</time>
      </trkpt>
      <trkpt lat="46.18226" lon="5.92095">
        <ele>494.54</ele>
        <time>2014-09-07T16:07:01Z</time>
      </trkpt>
      <trkpt lat="46.18228" lon="5.92096">
        <ele>494.79</ele>
        <time>2014-09-07T16:07:02Z</time>
      </trkpt>
      <trkpt lat="46.1823" lon="5.92098">
        <ele>495.08</ele>
        <time>2014-09-07T16:07:03Z</time>
      </trkpt>
      <trkpt lat="46.18232" lon="5.921">
        <ele>495.35</ele>
        <time>2014-09-07T16:07:04Z</time>
      </trkpt>
      <trkpt lat="46.18235" lon="5.92105">
        <ele>495.73</ele>
        <time>2014-09-07T16:07:06Z</time>
      </trkpt>
      <trkpt lat="46.18236" lon="5.92108">
        <ele>495.87</ele>
        <time>2014-09-07T16:07:07Z</time>
      </trkpt>
      <trkpt lat="46.18242" lon="5.92114">
        <ele>496.44</ele>
        <time>2014-09-07T16:07:10Z</time>
      </trkpt>
      <trkpt lat="46.18245" lon="5.92114">
        <ele>496.69</ele>
        <time>2014-09-07T16:07:11Z</time>
      </trkpt>
      <trkpt lat="46.18247" lon="5.92112">
        <ele>496.87</ele>
        <time>2014-09-07T16:07:12Z</time>
      </trkpt>
      <trkpt lat="46.18281" lon="5.92075">
        <ele>497.9</ele>
        <time>2014-09-07T16:07:27Z</time>
      </trkpt>
      <trkpt lat="46.18314" lon="5.9204">
        <ele>500.43</ele>
        <time>2014-09-07T16:07:42Z</time>
      </trkpt>
      <trkpt lat="46.18318" lon="5.92036">
        <ele>500.71</ele>
        <time>2014-09-07T16:07:44Z</time>
      </trkpt>
      <trkpt lat="46.18322" lon="5.92031">
        <ele>500.83</ele>
        <time>2014-09-07T16:07:46Z</time>
      </trkpt>
      <trkpt lat="46.18324" lon="5.92028">
        <ele>501.03</ele>
        <time>2014-09-07T16:07:47Z</time>
      </trkpt>
      <trkpt lat="46.18346" lon="5.91994">
        <ele>503.45</ele>
        <time>2014-09-07T16:08:00Z</time>
      </trkpt>
      <trkpt lat="46.18349" lon="5.91988">
        <ele>503.81</ele>
        <time>2014-09-07T16:08:02Z</time>
      </trkpt>
      <trkpt lat="46.1835" lon="5.91985">
        <ele>503.96</ele>
        <time>2014-09-07T16:08:03Z</time>
      </trkpt>
      <trkpt lat="46.18352" lon="5.91983">
        <ele>504.09</ele>
        <time>2014-09-07T16:08:04Z</time>
      </trkpt>
      <trkpt lat="46.18354" lon="5.9198">
        <ele>504.23</ele>
        <time>2014-09-07T16:08:05Z</time>
      </trkpt>
      <trkpt lat="46.18356" lon="5.91978">
        <ele>504.36</ele>
        <time>2014-09-07T16:08:06Z</time>
      </trkpt>
      <trkpt lat="46.18358" lon="5.91976">
        <ele>504.52</ele>
        <time>2014-09-07T16:08:07Z</time>
      </trkpt>
      <trkpt lat="46.1836" lon="5.91974">
        <ele>504.7</ele>
        <time>2014-09-07T16:08:08Z</time>
      </trkpt>
      <trkpt lat="46.18362" lon="5.91973">
        <ele>504.86</ele>
        <time>2014-09-07T16:08:09Z</time>
      </trkpt>
      <trkpt lat="46.18367" lon="5.91971">
        <ele>505.17</ele>
        <time>2014-09-07T16:08:11Z</time>
      </trkpt>
      <trkpt lat="46.1837" lon="5.91972">
        <ele>505.39</ele>
        <time>2014-09-07T16:08:12Z</time>
      </trkpt>
      <trkpt lat="46.18373" lon="5.91973">
        <ele>505.57</ele>
        <time>2014-09-07T16:08:13Z</time>
      </trkpt>
      <trkpt lat="46.18375" lon="5.91974">
        <ele>505.65</ele>
        <time>2014-09-07T16:08:14Z</time>
      </trkpt>
      <trkpt lat="46.18377" lon="5.91977">
        <ele>505.77</ele>
        <time>2014-09-07T16:08:15Z</time>
      </trkpt>
      <trkpt lat="46.18379" lon="5.91979">
        <ele>505.98</ele>
        <time>2014-09-07T16:08:16Z</time>
      </trkpt>
      <trkpt lat="46.18381" lon="5.91981">
        <ele>506.33</ele>
        <time>2014-09-07T16:08:17Z</time>
      </trkpt>
      <trkpt lat="46.18382" lon="5.91983">
        <ele>506.75</ele>
        <time>2014-09-07T16:08:18Z</time>
      </trkpt>
      <trkpt lat="46.1839" lon="5.91994">
        <ele>507.71</ele>
        <time>2014-09-07T16:08:23Z</time>
      </trkpt>
      <trkpt lat="46.18392" lon="5.91996">
        <ele>507.74</ele>
        <time>2014-09-07T16:08:24Z</time>
      </trkpt>
      <trkpt lat="46.18394" lon="5.91999">
        <ele>507.76</ele>
        <time>2014-09-07T16:08:25Z</time>
      </trkpt>
      <trkpt lat="46.18395" lon="5.92002">
        <ele>507.86</ele>
        <time>2014-09-07T16:08:26Z</time>
      </trkpt>
      <trkpt lat="46.18397" lon="5.92004">
        <ele>508.05</ele>
        <time>2014-09-07T16:08:27Z</time>
      </trkpt>
      <trkpt lat="46.18425" lon="5.92061">
        <ele>509.37</ele>
        <time>2014-09-07T16:08:47Z</time>
      </trkpt>
      <trkpt lat="46.18461" lon="5.92114">
        <ele>510.81</ele>
        <time>2014-09-07T16:09:06Z</time>
      </trkpt>
      <trkpt lat="46.18496" lon="5.92159">
        <ele>511.69</ele>
        <time>2014-09-07T16:09:22Z</time>
      </trkpt>
      <trkpt lat="46.1854" lon="5.92217">
        <ele>513.37</ele>
        <time>2014-09-07T16:09:41Z</time>
      </trkpt>
      <trkpt lat="46.18583" lon="5.92262">
        <ele>515.15</ele>
        <time>2014-09-07T16:09:58Z</time>
      </trkpt>
      <trkpt lat="46.18622" lon="5.92291">
        <ele>516.92</ele>
        <time>2014-09-07T16:10:11Z</time>
      </trkpt>
      <trkpt lat="46.18673" lon="5.92328">
        <ele>519.32</ele>
        <time>2014-09-07T16:10:29Z</time>
      </trkpt>
      <trkpt lat="46.18728" lon="5.92365">
        <ele>520.88</ele>
        <time>2014-09-07T16:10:48Z</time>
      </trkpt>
      <trkpt lat="46.18777" lon="5.92377">
        <ele>522.22</ele>
        <time>2014-09-07T16:11:04Z</time>
      </trkpt>
      <trkpt lat="46.18811" lon="5.92407">
        <ele>524.57</ele>
        <time>2014-09-07T16:11:17Z</time>
      </trkpt>
      <trkpt lat="46.18838" lon="5.92462">
        <ele>526.17</ele>
        <time>2014-09-07T16:11:31Z</time>
      </trkpt>
      <trkpt lat="46.18865" lon="5.92523">
        <ele>528.05</ele>
        <time>2014-09-07T16:11:47Z</time>
      </trkpt>
      <trkpt lat="46.18884" lon="5.92569">
        <ele>529.32</ele>
        <time>2014-09-07T16:11:59Z</time>
      </trkpt>
      <trkpt lat="46.18885" lon="5.92571">
        <ele>529.34</ele>
        <time>2014-09-07T16:12:00Z</time>
      </trkpt>
      <trkpt lat="46.18887" lon="5.92573">
        <ele>529.42</ele>
        <time>2014-09-07T16:12:01Z</time>
      </trkpt>
      <trkpt lat="46.18888" lon="5.92574">
        <ele>529.46</ele>
        <time>2014-09-07T16:12:02Z</time>
      </trkpt>
      <trkpt lat="46.18891" lon="5.92578">
        <ele>529.68</ele>
        <time>2014-09-07T16:12:17Z</time>
      </trkpt>
      <trkpt lat="46.18891" lon="5.9258">
        <ele>529.71</ele>
        <time>2014-09-07T16:13:18Z</time>
      </trkpt>
      <trkpt lat="46.18891" lon="5.92582">
        <ele>529.71</ele>
        <time>2014-09-07T16:13:19Z</time>
      </trkpt>
      <trkpt lat="46.18891" lon="5.92592">
        <ele>529.76</ele>
        <time>2014-09-07T16:13:22Z</time>
      </trkpt>
      <trkpt lat="46.18892" lon="5.92596">
        <ele>529.74</ele>
        <time>2014-09-07T16:13:23Z</time>
      </trkpt>
      <trkpt lat="46.1892" lon="5.92664">
        <ele>529.96</ele>
        <time>2014-09-07T16:13:39Z</time>
      </trkpt>
      <trkpt lat="46.18933" lon="5.92679">
        <ele>531.05</ele>
        <time>2014-09-07T16:13:46Z</time>
      </trkpt>
      <trkpt lat="46.18934" lon="5.92682">
        <ele>531.17</ele>
        <time>2014-09-07T16:13:47Z</time>
      </trkpt>
      <trkpt lat="46.18935" lon="5.92686">
        <ele>531.2</ele>
        <time>2014-09-07T16:13:48Z</time>
      </trkpt>
      <trkpt lat="46.18936" lon="5.92691">
        <ele>531.14</ele>
        <time>2014-09-07T16:13:49Z</time>
      </trkpt>
      <trkpt lat="46.18937" lon="5.92695">
        <ele>531.05</ele>
        <time>2014-09-07T16:13:50Z</time>
      </trkpt>
      <trkpt lat="46.1894" lon="5.92699">
        <ele>531</ele>
        <time>2014-09-07T16:13:51Z</time>
      </trkpt>
      <trkpt lat="46.18943" lon="5.92702">
        <ele>531.05</ele>
        <time>2014-09-07T16:13:52Z</time>
      </trkpt>
      <trkpt lat="46.18947" lon="5.92704">
        <ele>531.14</ele>
        <time>2014-09-07T16:13:53Z</time>
      </trkpt>
      <trkpt lat="46.18989" lon="5.9275">
        <ele>531.75</ele>
        <time>2014-09-07T16:14:07Z</time>
      </trkpt>
      <trkpt lat="46.18996" lon="5.92757">
        <ele>531.85</ele>
        <time>2014-09-07T16:14:09Z</time>
      </trkpt>
      <trkpt lat="46.18999" lon="5.9276">
        <ele>531.94</ele>
        <time>2014-09-07T16:14:10Z</time>
      </trkpt>
      <trkpt lat="46.19005" lon="5.92767">
        <ele>532.08</ele>
        <time>2014-09-07T16:14:12Z</time>
      </trkpt>
      <trkpt lat="46.19008" lon="5.92769">
        <ele>532.18</ele>
        <time>2014-09-07T16:14:13Z</time>
      </trkpt>
      <trkpt lat="46.19011" lon="5.92771">
        <ele>532.29</ele>
        <time>2014-09-07T16:14:14Z</time>
      </trkpt>
      <trkpt lat="46.19014" lon="5.92773">
        <ele>532.41</ele>
        <time>2014-09-07T16:14:15Z</time>
      </trkpt>
      <trkpt lat="46.19057" lon="5.92787">
        <ele>534.83</ele>
        <time>2014-09-07T16:14:30Z</time>
      </trkpt>
      <trkpt lat="46.19099" lon="5.92799">
        <ele>537.28</ele>
        <time>2014-09-07T16:14:46Z</time>
      </trkpt>
      <trkpt lat="46.19137" lon="5.92808">
        <ele>540.07</ele>
        <time>2014-09-07T16:15:01Z</time>
      </trkpt>
      <trkpt lat="46.19172" lon="5.92819">
        <ele>542.15</ele>
        <time>2014-09-07T16:15:16Z</time>
      </trkpt>
      <trkpt lat="46.19174" lon="5.9282">
        <ele>542.26</ele>
        <time>2014-09-07T16:15:17Z</time>
      </trkpt>
      <trkpt lat="46.19176" lon="5.92822">
        <ele>542.4</ele>
        <time>2014-09-07T16:15:18Z</time>
      </trkpt>
      <trkpt lat="46.1918" lon="5.92823">
        <ele>543.08</ele>
        <time>2014-09-07T16:15:20Z</time>
      </trkpt>
      <trkpt lat="46.19182" lon="5.92824">
        <ele>543.45</ele>
        <time>2014-09-07T16:15:21Z</time>
      </trkpt>
      <trkpt lat="46.19184" lon="5.92825">
        <ele>543.69</ele>
        <time>2014-09-07T16:15:22Z</time>
      </trkpt>
      <trkpt lat="46.19187" lon="5.92825">
        <ele>543.85</ele>
        <time>2014-09-07T16:15:23Z</time>
      </trkpt>
      <trkpt lat="46.19189" lon="5.92827">
        <ele>543.94</ele>
        <time>2014-09-07T16:15:24Z</time>
      </trkpt>
      <trkpt lat="46.19191" lon="5.92828">
        <ele>544.04</ele>
        <time>2014-09-07T16:15:25Z</time>
      </trkpt>
      <trkpt lat="46.19194" lon="5.92828">
        <ele>544.22</ele>
        <time>2014-09-07T16:15:26Z</time>
      </trkpt>
      <trkpt lat="46.19196" lon="5.92829">
        <ele>544.46</ele>
        <time>2014-09-07T16:15:27Z</time>
      </trkpt>
      <trkpt lat="46.19198" lon="5.92829">
        <ele>544.66</ele>
        <time>2014-09-07T16:15:28Z</time>
      </trkpt>
      <trkpt lat="46.192" lon="5.92829">
        <ele>544.78</ele>
        <time>2014-09-07T16:15:29Z</time>
      </trkpt>
      <trkpt lat="46.19203" lon="5.92828">
        <ele>544.86</ele>
        <time>2014-09-07T16:15:30Z</time>
      </trkpt>
      <trkpt lat="46.19205" lon="5.92828">
        <ele>545.03</ele>
        <time>2014-09-07T16:15:31Z</time>
      </trkpt>
      <trkpt lat="46.19215" lon="5.92824">
        <ele>545.93</ele>
        <time>2014-09-07T16:15:35Z</time>
      </trkpt>
      <trkpt lat="46.19248" lon="5.92803">
        <ele>548.08</ele>
        <time>2014-09-07T16:15:47Z</time>
      </trkpt>
      <trkpt lat="46.19282" lon="5.92806">
        <ele>549.77</ele>
        <time>2014-09-07T16:15:59Z</time>
      </trkpt>
      <trkpt lat="46.19306" lon="5.92843">
        <ele>551.76</ele>
        <time>2014-09-07T16:16:11Z</time>
      </trkpt>
      <trkpt lat="46.19352" lon="5.92914">
        <ele>554.39</ele>
        <time>2014-09-07T16:16:31Z</time>
      </trkpt>
      <trkpt lat="46.19403" lon="5.93">
        <ele>556.42</ele>
        <time>2014-09-07T16:16:53Z</time>
      </trkpt>
      <trkpt lat="46.19437" lon="5.93064">
        <ele>558.63</ele>
        <time>2014-09-07T16:17:09Z</time>
      </trkpt>
      <trkpt lat="46.19476" lon="5.93129">
        <ele>560.24</ele>
        <time>2014-09-07T16:17:26Z</time>
      </trkpt>
      <trkpt lat="46.19516" lon="5.93197">
        <ele>563.28</ele>
        <time>2014-09-07T16:17:44Z</time>
      </trkpt>
      <trkpt lat="46.1956" lon="5.93256">
        <ele>565.25</ele>
        <time>2014-09-07T16:18:02Z</time>
      </trkpt>
      <trkpt lat="46.19598" lon="5.93304">
        <ele>567.08</ele>
        <time>2014-09-07T16:18:19Z</time>
      </trkpt>
      <trkpt lat="46.19632" lon="5.9335">
        <ele>567.94</ele>
        <time>2014-09-07T16:18:35Z</time>
      </trkpt>
      <trkpt lat="46.19635" lon="5.93353">
        <ele>568.23</ele>
        <time>2014-09-07T16:18:37Z</time>
      </trkpt>
      <trkpt lat="46.19636" lon="5.93355">
        <ele>568.37</ele>
        <time>2014-09-07T16:18:38Z</time>
      </trkpt>
      <trkpt lat="46.19638" lon="5.93356">
        <ele>568.44</ele>
        <time>2014-09-07T16:18:39Z</time>
      </trkpt>
      <trkpt lat="46.19642" lon="5.9336">
        <ele>568.53</ele>
        <time>2014-09-07T16:18:42Z</time>
      </trkpt>
      <trkpt lat="46.19643" lon="5.93362">
        <ele>568.54</ele>
        <time>2014-09-07T16:18:43Z</time>
      </trkpt>
      <trkpt lat="46.19645" lon="5.93363">
        <ele>568.6</ele>
        <time>2014-09-07T16:18:44Z</time>
      </trkpt>
      <trkpt lat="46.19646" lon="5.93365">
        <ele>568.57</ele>
        <time>2014-09-07T16:18:45Z</time>
      </trkpt>
      <trkpt lat="46.19648" lon="5.93367">
        <ele>568.56</ele>
        <time>2014-09-07T16:18:46Z</time>
      </trkpt>
      <trkpt lat="46.19649" lon="5.93369">
        <ele>568.56</ele>
        <time>2014-09-07T16:18:47Z</time>
      </trkpt>
      <trkpt lat="46.1965" lon="5.9337">
        <ele>568.56</ele>
        <time>2014-09-07T16:18:48Z</time>
      </trkpt>
      <trkpt lat="46.19652" lon="5.93372">
        <ele>568.61</ele>
        <time>2014-09-07T16:18:49Z</time>
      </trkpt>
      <trkpt lat="46.19653" lon="5.93373">
        <ele>568.58</ele>
        <time>2014-09-07T16:18:50Z</time>
      </trkpt>
      <trkpt lat="46.19654" lon="5.93375">
        <ele>568.56</ele>
        <time>2014-09-07T16:18:51Z</time>
      </trkpt>
      <trkpt lat="46.19656" lon="5.93377">
        <ele>568.64</ele>
        <time>2014-09-07T16:18:52Z</time>
      </trkpt>
      <trkpt lat="46.19672" lon="5.93396">
        <ele>568.29</ele>
        <time>2014-09-07T16:19:03Z</time>
      </trkpt>
      <trkpt lat="46.19705" lon="5.93426">
        <ele>568.14</ele>
        <time>2014-09-07T16:19:18Z</time>
      </trkpt>
      <trkpt lat="46.19784" lon="5.93475">
        <ele>568.48</ele>
        <time>2014-09-07T16:19:36Z</time>
      </trkpt>
      <trkpt lat="46.19899" lon="5.9353">
        <ele>566.78</ele>
        <time>2014-09-07T16:19:54Z</time>
      </trkpt>
      <trkpt lat="46.19914" lon="5.93532">
        <ele>566.3</ele>
        <time>2014-09-07T16:19:56Z</time>
      </trkpt>
      <trkpt lat="46.19956" lon="5.93534">
        <ele>564.18</ele>
        <time>2014-09-07T16:20:01Z</time>
      </trkpt>
      <trkpt lat="46.19965" lon="5.93537">
        <ele>564.18</ele>
        <time>2014-09-07T16:20:02Z</time>
      </trkpt>
      <trkpt lat="46.19973" lon="5.93543">
        <ele>563.77</ele>
        <time>2014-09-07T16:20:03Z</time>
      </trkpt>
      <trkpt lat="46.1998" lon="5.9355">
        <ele>563.44</ele>
        <time>2014-09-07T16:20:04Z</time>
      </trkpt>
      <trkpt lat="46.19987" lon="5.93571">
        <ele>562.55</ele>
        <time>2014-09-07T16:20:06Z</time>
      </trkpt>
      <trkpt lat="46.19988" lon="5.93583">
        <ele>561.7</ele>
        <time>2014-09-07T16:20:07Z</time>
      </trkpt>
      <trkpt lat="46.19985" lon="5.93594">
        <ele>560.95</ele>
        <time>2014-09-07T16:20:08Z</time>
      </trkpt>
      <trkpt lat="46.19981" lon="5.93605">
        <ele>560.48</ele>
        <time>2014-09-07T16:20:09Z</time>
      </trkpt>
      <trkpt lat="46.19977" lon="5.93616">
        <ele>560.18</ele>
        <time>2014-09-07T16:20:10Z</time>
      </trkpt>
      <trkpt lat="46.19968" lon="5.93637">
        <ele>559.86</ele>
        <time>2014-09-07T16:20:12Z</time>
      </trkpt>
      <trkpt lat="46.19966" lon="5.93649">
        <ele>559.85</ele>
        <time>2014-09-07T16:20:13Z</time>
      </trkpt>
      <trkpt lat="46.19963" lon="5.93672">
        <ele>559.63</ele>
        <time>2014-09-07T16:20:15Z</time>
      </trkpt>
      <trkpt lat="46.19964" lon="5.93684">
        <ele>559.4</ele>
        <time>2014-09-07T16:20:16Z</time>
      </trkpt>
      <trkpt lat="46.19979" lon="5.93766">
        <ele>559.03</ele>
        <time>2014-09-07T16:20:23Z</time>
      </trkpt>
      <trkpt lat="46.19983" lon="5.93776">
        <ele>559.09</ele>
        <time>2014-09-07T16:20:24Z</time>
      </trkpt>
      <trkpt lat="46.19987" lon="5.93784">
        <ele>559.41</ele>
        <time>2014-09-07T16:20:25Z</time>
      </trkpt>
      <trkpt lat="46.19996" lon="5.938">
        <ele>559.72</ele>
        <time>2014-09-07T16:20:27Z</time>
      </trkpt>
      <trkpt lat="46.20001" lon="5.93807">
        <ele>560</ele>
        <time>2014-09-07T16:20:28Z</time>
      </trkpt>
      <trkpt lat="46.20007" lon="5.93812">
        <ele>560.2</ele>
        <time>2014-09-07T16:20:29Z</time>
      </trkpt>
      <trkpt lat="46.20013" lon="5.93817">
        <ele>560.4</ele>
        <time>2014-09-07T16:20:30Z</time>
      </trkpt>
      <trkpt lat="46.20019" lon="5.93822">
        <ele>560.6</ele>
        <time>2014-09-07T16:20:31Z</time>
      </trkpt>
      <trkpt lat="46.20025" lon="5.93825">
        <ele>560.73</ele>
        <time>2014-09-07T16:20:32Z</time>
      </trkpt>
      <trkpt lat="46.20091" lon="5.93851">
        <ele>560.97</ele>
        <time>2014-09-07T16:20:42Z</time>
      </trkpt>
      <trkpt lat="46.20171" lon="5.93885">
        <ele>564.11</ele>
        <time>2014-09-07T16:20:56Z</time>
      </trkpt>
      <trkpt lat="46.20246" lon="5.93921">
        <ele>567.17</ele>
        <time>2014-09-07T16:21:12Z</time>
      </trkpt>
      <trkpt lat="46.20265" lon="5.93932">
        <ele>567.37</ele>
        <time>2014-09-07T16:21:16Z</time>
      </trkpt>
      <trkpt lat="46.20337" lon="5.93977">
        <ele>564.64</ele>
        <time>2014-09-07T16:21:28Z</time>
      </trkpt>
      <trkpt lat="46.20368" lon="5.93988">
        <ele>563.58</ele>
        <time>2014-09-07T16:21:32Z</time>
      </trkpt>
      <trkpt lat="46.20375" lon="5.93993">
        <ele>563.29</ele>
        <time>2014-09-07T16:21:33Z</time>
      </trkpt>
      <trkpt lat="46.20381" lon="5.93998">
        <ele>563.15</ele>
        <time>2014-09-07T16:21:34Z</time>
      </trkpt>
      <trkpt lat="46.20449" lon="5.94065">
        <ele>561.86</ele>
        <time>2014-09-07T16:21:45Z</time>
      </trkpt>
      <trkpt lat="46.2051" lon="5.9412">
        <ele>558.74</ele>
        <time>2014-09-07T16:21:53Z</time>
      </trkpt>
      <trkpt lat="46.2059" lon="5.9418">
        <ele>555.45</ele>
        <time>2014-09-07T16:22:03Z</time>
      </trkpt>
      <trkpt lat="46.20652" lon="5.94246">
        <ele>552.05</ele>
        <time>2014-09-07T16:22:11Z</time>
      </trkpt>
      <trkpt lat="46.20679" lon="5.9427">
        <ele>550.54</ele>
        <time>2014-09-07T16:22:14Z</time>
      </trkpt>
      <trkpt lat="46.20703" lon="5.94297">
        <ele>549.23</ele>
        <time>2014-09-07T16:22:17Z</time>
      </trkpt>
      <trkpt lat="46.20711" lon="5.94306">
        <ele>549.08</ele>
        <time>2014-09-07T16:22:18Z</time>
      </trkpt>
      <trkpt lat="46.20727" lon="5.94318">
        <ele>548.63</ele>
        <time>2014-09-07T16:22:20Z</time>
      </trkpt>
      <trkpt lat="46.20736" lon="5.94322">
        <ele>548.49</ele>
        <time>2014-09-07T16:22:21Z</time>
      </trkpt>
      <trkpt lat="46.20745" lon="5.94325">
        <ele>548.22</ele>
        <time>2014-09-07T16:22:22Z</time>
      </trkpt>
      <trkpt lat="46.2082" lon="5.94344">
        <ele>545.89</ele>
        <time>2014-09-07T16:22:30Z</time>
      </trkpt>
      <trkpt lat="46.20828" lon="5.94349">
        <ele>545.73</ele>
        <time>2014-09-07T16:22:31Z</time>
      </trkpt>
      <trkpt lat="46.20837" lon="5.94356">
        <ele>545.62</ele>
        <time>2014-09-07T16:22:32Z</time>
      </trkpt>
      <trkpt lat="46.20869" lon="5.94386">
        <ele>544.64</ele>
        <time>2014-09-07T16:22:36Z</time>
      </trkpt>
      <trkpt lat="46.20884" lon="5.94405">
        <ele>544.1</ele>
        <time>2014-09-07T16:22:38Z</time>
      </trkpt>
      <trkpt lat="46.2091" lon="5.94445">
        <ele>542.59</ele>
        <time>2014-09-07T16:22:42Z</time>
      </trkpt>
      <trkpt lat="46.20925" lon="5.9446">
        <ele>542.1</ele>
        <time>2014-09-07T16:22:44Z</time>
      </trkpt>
      <trkpt lat="46.21" lon="5.94528">
        <ele>539.02</ele>
        <time>2014-09-07T16:22:53Z</time>
      </trkpt>
      <trkpt lat="46.21025" lon="5.94551">
        <ele>537.78</ele>
        <time>2014-09-07T16:22:56Z</time>
      </trkpt>
      <trkpt lat="46.21098" lon="5.94638">
        <ele>534.41</ele>
        <time>2014-09-07T16:23:05Z</time>
      </trkpt>
      <trkpt lat="46.21129" lon="5.94682">
        <ele>532.39</ele>
        <time>2014-09-07T16:23:09Z</time>
      </trkpt>
      <trkpt lat="46.21135" lon="5.94696">
        <ele>531.79</ele>
        <time>2014-09-07T16:23:10Z</time>
      </trkpt>
      <trkpt lat="46.2114" lon="5.9471">
        <ele>531.05</ele>
        <time>2014-09-07T16:23:11Z</time>
      </trkpt>
      <trkpt lat="46.21162" lon="5.94783">
        <ele>527.81</ele>
        <time>2014-09-07T16:23:16Z</time>
      </trkpt>
      <trkpt lat="46.21212" lon="5.94866">
        <ele>524.66</ele>
        <time>2014-09-07T16:23:23Z</time>
      </trkpt>
      <trkpt lat="46.21217" lon="5.94879">
        <ele>524.22</ele>
        <time>2014-09-07T16:23:24Z</time>
      </trkpt>
      <trkpt lat="46.2122" lon="5.94892">
        <ele>523.88</ele>
        <time>2014-09-07T16:23:25Z</time>
      </trkpt>
      <trkpt lat="46.21222" lon="5.94905">
        <ele>523.57</ele>
        <time>2014-09-07T16:23:26Z</time>
      </trkpt>
      <trkpt lat="46.21223" lon="5.94932">
        <ele>523.11</ele>
        <time>2014-09-07T16:23:28Z</time>
      </trkpt>
      <trkpt lat="46.21224" lon="5.94978">
        <ele>523.09</ele>
        <time>2014-09-07T16:23:32Z</time>
      </trkpt>
      <trkpt lat="46.21223" lon="5.94987">
        <ele>523.04</ele>
        <time>2014-09-07T16:23:33Z</time>
      </trkpt>
      <trkpt lat="46.2122" lon="5.94997">
        <ele>523.01</ele>
        <time>2014-09-07T16:23:34Z</time>
      </trkpt>
      <trkpt lat="46.21189" lon="5.95084">
        <ele>519.6</ele>
        <time>2014-09-07T16:23:43Z</time>
      </trkpt>
      <trkpt lat="46.21185" lon="5.95099">
        <ele>518.52</ele>
        <time>2014-09-07T16:23:45Z</time>
      </trkpt>
      <trkpt lat="46.21184" lon="5.95108">
        <ele>518.04</ele>
        <time>2014-09-07T16:23:46Z</time>
      </trkpt>
      <trkpt lat="46.21185" lon="5.95117">
        <ele>517.81</ele>
        <time>2014-09-07T16:23:47Z</time>
      </trkpt>
      <trkpt lat="46.21186" lon="5.95126">
        <ele>517.7</ele>
        <time>2014-09-07T16:23:48Z</time>
      </trkpt>
      <trkpt lat="46.21189" lon="5.95136">
        <ele>517.49</ele>
        <time>2014-09-07T16:23:49Z</time>
      </trkpt>
      <trkpt lat="46.21191" lon="5.95144">
        <ele>517.38</ele>
        <time>2014-09-07T16:23:50Z</time>
      </trkpt>
      <trkpt lat="46.21195" lon="5.95151">
        <ele>517.33</ele>
        <time>2014-09-07T16:23:51Z</time>
      </trkpt>
      <trkpt lat="46.21199" lon="5.95156">
        <ele>517.27</ele>
        <time>2014-09-07T16:23:52Z</time>
      </trkpt>
      <trkpt lat="46.21204" lon="5.9516">
        <ele>517.27</ele>
        <time>2014-09-07T16:23:53Z</time>
      </trkpt>
      <trkpt lat="46.21209" lon="5.95164">
        <ele>517.08</ele>
        <time>2014-09-07T16:23:54Z</time>
      </trkpt>
      <trkpt lat="46.21214" lon="5.95167">
        <ele>516.92</ele>
        <time>2014-09-07T16:23:55Z</time>
      </trkpt>
      <trkpt lat="46.2122" lon="5.95168">
        <ele>516.85</ele>
        <time>2014-09-07T16:23:56Z</time>
      </trkpt>
      <trkpt lat="46.2123" lon="5.9517">
        <ele>517.09</ele>
        <time>2014-09-07T16:23:58Z</time>
      </trkpt>
      <trkpt lat="46.21289" lon="5.95184">
        <ele>519.29</ele>
        <time>2014-09-07T16:24:11Z</time>
      </trkpt>
      <trkpt lat="46.21296" lon="5.95188">
        <ele>519.38</ele>
        <time>2014-09-07T16:24:13Z</time>
      </trkpt>
      <trkpt lat="46.213" lon="5.95191">
        <ele>519.51</ele>
        <time>2014-09-07T16:24:14Z</time>
      </trkpt>
      <trkpt lat="46.21303" lon="5.95195">
        <ele>519.55</ele>
        <time>2014-09-07T16:24:15Z</time>
      </trkpt>
      <trkpt lat="46.21368" lon="5.95259">
        <ele>518.8</ele>
        <time>2014-09-07T16:24:29Z</time>
      </trkpt>
      <trkpt lat="46.21455" lon="5.95307">
        <ele>516.6</ele>
        <time>2014-09-07T16:24:43Z</time>
      </trkpt>
      <trkpt lat="46.21467" lon="5.95313">
        <ele>516.26</ele>
        <time>2014-09-07T16:24:45Z</time>
      </trkpt>
      <trkpt lat="46.2152" lon="5.95353">
        <ele>516.22</ele>
        <time>2014-09-07T16:24:54Z</time>
      </trkpt>
      <trkpt lat="46.2153" lon="5.95362">
        <ele>516.49</ele>
        <time>2014-09-07T16:24:56Z</time>
      </trkpt>
      <trkpt lat="46.21568" lon="5.95393">
        <ele>517.76</ele>
        <time>2014-09-07T16:25:04Z</time>
      </trkpt>
      <trkpt lat="46.21605" lon="5.95447">
        <ele>521.02</ele>
        <time>2014-09-07T16:25:16Z</time>
      </trkpt>
      <trkpt lat="46.21618" lon="5.95478">
        <ele>522.15</ele>
        <time>2014-09-07T16:25:22Z</time>
      </trkpt>
      <trkpt lat="46.21654" lon="5.95581">
        <ele>519.44</ele>
        <time>2014-09-07T16:25:34Z</time>
      </trkpt>
      <trkpt lat="46.21698" lon="5.95711">
        <ele>516.44</ele>
        <time>2014-09-07T16:25:47Z</time>
      </trkpt>
      <trkpt lat="46.21724" lon="5.95775">
        <ele>516.36</ele>
        <time>2014-09-07T16:25:54Z</time>
      </trkpt>
      <trkpt lat="46.21793" lon="5.95893">
        <ele>516.1</ele>
        <time>2014-09-07T16:26:09Z</time>
      </trkpt>
      <trkpt lat="46.21877" lon="5.96009">
        <ele>517.72</ele>
        <time>2014-09-07T16:26:26Z</time>
      </trkpt>
      <trkpt lat="46.21945" lon="5.96163">
        <ele>515.31</ele>
        <time>2014-09-07T16:26:43Z</time>
      </trkpt>
      <trkpt lat="46.21969" lon="5.96289">
        <ele>512.16</ele>
        <time>2014-09-07T16:26:53Z</time>
      </trkpt>
      <trkpt lat="46.21992" lon="5.9637">
        <ele>508.72</ele>
        <time>2014-09-07T16:26:59Z</time>
      </trkpt>
      <trkpt lat="46.21999" lon="5.96381">
        <ele>508.59</ele>
        <time>2014-09-07T16:27:00Z</time>
      </trkpt>
      <trkpt lat="46.22006" lon="5.96391">
        <ele>508.33</ele>
        <time>2014-09-07T16:27:01Z</time>
      </trkpt>
      <trkpt lat="46.22105" lon="5.96503">
        <ele>508.19</ele>
        <time>2014-09-07T16:27:16Z</time>
      </trkpt>
      <trkpt lat="46.22209" lon="5.96587">
        <ele>508.99</ele>
        <time>2014-09-07T16:27:32Z</time>
      </trkpt>
      <trkpt lat="46.22233" lon="5.96601">
        <ele>509.34</ele>
        <time>2014-09-07T16:27:36Z</time>
      </trkpt>
      <trkpt lat="46.22238" lon="5.96604">
        <ele>509.75</ele>
        <time>2014-09-07T16:27:37Z</time>
      </trkpt>
      <trkpt lat="46.22315" lon="5.96683">
        <ele>508.75</ele>
        <time>2014-09-07T16:27:51Z</time>
      </trkpt>
      <trkpt lat="46.22392" lon="5.96778">
        <ele>508.18</ele>
        <time>2014-09-07T16:28:05Z</time>
      </trkpt>
      <trkpt lat="46.22435" lon="5.96834">
        <ele>506.19</ele>
        <time>2014-09-07T16:28:12Z</time>
      </trkpt>
      <trkpt lat="46.22443" lon="5.9684">
        <ele>505.74</ele>
        <time>2014-09-07T16:28:13Z</time>
      </trkpt>
      <trkpt lat="46.22541" lon="5.96914">
        <ele>503.34</ele>
        <time>2014-09-07T16:28:26Z</time>
      </trkpt>
      <trkpt lat="46.22556" lon="5.96927">
        <ele>502.83</ele>
        <time>2014-09-07T16:28:28Z</time>
      </trkpt>
      <trkpt lat="46.22654" lon="5.97024">
        <ele>501.35</ele>
        <time>2014-09-07T16:28:42Z</time>
      </trkpt>
      <trkpt lat="46.22681" lon="5.97056">
        <ele>500.71</ele>
        <time>2014-09-07T16:28:46Z</time>
      </trkpt>
      <trkpt lat="46.22688" lon="5.97062">
        <ele>500.55</ele>
        <time>2014-09-07T16:28:47Z</time>
      </trkpt>
      <trkpt lat="46.22781" lon="5.97158">
        <ele>498.84</ele>
        <time>2014-09-07T16:29:00Z</time>
      </trkpt>
      <trkpt lat="46.22842" lon="5.97231">
        <ele>495.59</ele>
        <time>2014-09-07T16:29:08Z</time>
      </trkpt>
      <trkpt lat="46.22857" lon="5.97248">
        <ele>494.89</ele>
        <time>2014-09-07T16:29:10Z</time>
      </trkpt>
      <trkpt lat="46.22866" lon="5.97255">
        <ele>494.54</ele>
        <time>2014-09-07T16:29:11Z</time>
      </trkpt>
      <trkpt lat="46.22875" lon="5.97261">
        <ele>494.37</ele>
        <time>2014-09-07T16:29:12Z</time>
      </trkpt>
      <trkpt lat="46.22977" lon="5.97329">
        <ele>493.47</ele>
        <time>2014-09-07T16:29:24Z</time>
      </trkpt>
      <trkpt lat="46.22984" lon="5.97338">
        <ele>493.44</ele>
        <time>2014-09-07T16:29:25Z</time>
      </trkpt>
      <trkpt lat="46.23084" lon="5.97473">
        <ele>492.78</ele>
        <time>2014-09-07T16:29:41Z</time>
      </trkpt>
      <trkpt lat="46.23186" lon="5.97584">
        <ele>491.37</ele>
        <time>2014-09-07T16:29:57Z</time>
      </trkpt>
      <trkpt lat="46.23273" lon="5.97688">
        <ele>490.29</ele>
        <time>2014-09-07T16:30:12Z</time>
      </trkpt>
      <trkpt lat="46.23282" lon="5.97708">
        <ele>489.65</ele>
        <time>2014-09-07T16:30:14Z</time>
      </trkpt>
      <trkpt lat="46.23284" lon="5.97719">
        <ele>489.41</ele>
        <time>2014-09-07T16:30:15Z</time>
      </trkpt>
      <trkpt lat="46.23286" lon="5.97731">
        <ele>489.18</ele>
        <time>2014-09-07T16:30:16Z</time>
      </trkpt>
      <trkpt lat="46.23287" lon="5.97743">
        <ele>488.91</ele>
        <time>2014-09-07T16:30:17Z</time>
      </trkpt>
      <trkpt lat="46.23287" lon="5.97756">
        <ele>488.61</ele>
        <time>2014-09-07T16:30:18Z</time>
      </trkpt>
      <trkpt lat="46.2329" lon="5.97842">
        <ele>486.18</ele>
        <time>2014-09-07T16:30:27Z</time>
      </trkpt>
      <trkpt lat="46.23294" lon="5.97848">
        <ele>486.06</ele>
        <time>2014-09-07T16:30:28Z</time>
      </trkpt>
      <trkpt lat="46.23299" lon="5.97852">
        <ele>485.82</ele>
        <time>2014-09-07T16:30:29Z</time>
      </trkpt>
      <trkpt lat="46.23399" lon="5.97922">
        <ele>485.69</ele>
        <time>2014-09-07T16:30:46Z</time>
      </trkpt>
      <trkpt lat="46.23463" lon="5.97946">
        <ele>488.03</ele>
        <time>2014-09-07T16:30:59Z</time>
      </trkpt>
      <trkpt lat="46.235" lon="5.97962">
        <ele>487.7</ele>
        <time>2014-09-07T16:31:09Z</time>
      </trkpt>
      <trkpt lat="46.23504" lon="5.97964">
        <ele>487.58</ele>
        <time>2014-09-07T16:31:10Z</time>
      </trkpt>
      <trkpt lat="46.23514" lon="5.97967">
        <ele>487.21</ele>
        <time>2014-09-07T16:31:12Z</time>
      </trkpt>
      <trkpt lat="46.23519" lon="5.9797">
        <ele>487.14</ele>
        <time>2014-09-07T16:31:13Z</time>
      </trkpt>
      <trkpt lat="46.23598" lon="5.98021">
        <ele>486.93</ele>
        <time>2014-09-07T16:31:29Z</time>
      </trkpt>
      <trkpt lat="46.23685" lon="5.98077">
        <ele>490.25</ele>
        <time>2014-09-07T16:31:47Z</time>
      </trkpt>
      <trkpt lat="46.23705" lon="5.98091">
        <ele>491.22</ele>
        <time>2014-09-07T16:31:53Z</time>
      </trkpt>
      <trkpt lat="46.23709" lon="5.98094">
        <ele>491.38</ele>
        <time>2014-09-07T16:31:54Z</time>
      </trkpt>
      <trkpt lat="46.23717" lon="5.981">
        <ele>491.6</ele>
        <time>2014-09-07T16:31:56Z</time>
      </trkpt>
      <trkpt lat="46.23721" lon="5.98103">
        <ele>491.68</ele>
        <time>2014-09-07T16:31:57Z</time>
      </trkpt>
      <trkpt lat="46.23726" lon="5.98106">
        <ele>491.71</ele>
        <time>2014-09-07T16:31:58Z</time>
      </trkpt>
      <trkpt lat="46.23742" lon="5.98117">
        <ele>492.41</ele>
        <time>2014-09-07T16:32:01Z</time>
      </trkpt>
      <trkpt lat="46.23747" lon="5.98119">
        <ele>492.66</ele>
        <time>2014-09-07T16:32:02Z</time>
      </trkpt>
      <trkpt lat="46.23752" lon="5.9812">
        <ele>492.8</ele>
        <time>2014-09-07T16:32:03Z</time>
      </trkpt>
      <trkpt lat="46.2377" lon="5.98124">
        <ele>493.14</ele>
        <time>2014-09-07T16:32:07Z</time>
      </trkpt>
      <trkpt lat="46.23775" lon="5.98126">
        <ele>493.42</ele>
        <time>2014-09-07T16:32:08Z</time>
      </trkpt>
      <trkpt lat="46.23789" lon="5.98131">
        <ele>493.73</ele>
        <time>2014-09-07T16:32:11Z</time>
      </trkpt>
      <trkpt lat="46.23794" lon="5.98131">
        <ele>493.75</ele>
        <time>2014-09-07T16:32:12Z</time>
      </trkpt>
      <trkpt lat="46.23799" lon="5.9813">
        <ele>493.72</ele>
        <time>2014-09-07T16:32:13Z</time>
      </trkpt>
      <trkpt lat="46.23804" lon="5.98129">
        <ele>493.54</ele>
        <time>2014-09-07T16:32:14Z</time>
      </trkpt>
      <trkpt lat="46.2381" lon="5.98126">
        <ele>493.36</ele>
        <time>2014-09-07T16:32:15Z</time>
      </trkpt>
      <trkpt lat="46.23819" lon="5.98116">
        <ele>493.06</ele>
        <time>2014-09-07T16:32:17Z</time>
      </trkpt>
      <trkpt lat="46.23845" lon="5.98086">
        <ele>492.54</ele>
        <time>2014-09-07T16:32:22Z</time>
      </trkpt>
      <trkpt lat="46.23901" lon="5.98031">
        <ele>493.91</ele>
        <time>2014-09-07T16:32:34Z</time>
      </trkpt>
      <trkpt lat="46.23906" lon="5.9803">
        <ele>494.08</ele>
        <time>2014-09-07T16:32:35Z</time>
      </trkpt>
      <trkpt lat="46.23937" lon="5.98028">
        <ele>494.55</ele>
        <time>2014-09-07T16:32:41Z</time>
      </trkpt>
      <trkpt lat="46.23942" lon="5.9803">
        <ele>494.79</ele>
        <time>2014-09-07T16:32:42Z</time>
      </trkpt>
      <trkpt lat="46.23947" lon="5.98032">
        <ele>494.98</ele>
        <time>2014-09-07T16:32:43Z</time>
      </trkpt>
      <trkpt lat="46.23952" lon="5.98036">
        <ele>495.14</ele>
        <time>2014-09-07T16:32:44Z</time>
      </trkpt>
      <trkpt lat="46.23956" lon="5.9804">
        <ele>495.38</ele>
        <time>2014-09-07T16:32:45Z</time>
      </trkpt>
      <trkpt lat="46.2396" lon="5.98045">
        <ele>495.66</ele>
        <time>2014-09-07T16:32:46Z</time>
      </trkpt>
      <trkpt lat="46.23964" lon="5.98051">
        <ele>495.83</ele>
        <time>2014-09-07T16:32:47Z</time>
      </trkpt>
      <trkpt lat="46.24022" lon="5.98139">
        <ele>498.3</ele>
        <time>2014-09-07T16:33:04Z</time>
      </trkpt>
      <trkpt lat="46.24048" lon="5.98171">
        <ele>500.13</ele>
        <time>2014-09-07T16:33:12Z</time>
      </trkpt>
      <trkpt lat="46.24114" lon="5.98212">
        <ele>499.86</ele>
        <time>2014-09-07T16:33:28Z</time>
      </trkpt>
      <trkpt lat="46.2419" lon="5.98252">
        <ele>499.82</ele>
        <time>2014-09-07T16:33:45Z</time>
      </trkpt>
      <trkpt lat="46.2427" lon="5.98289">
        <ele>498.46</ele>
        <time>2014-09-07T16:34:00Z</time>
      </trkpt>
      <trkpt lat="46.24291" lon="5.983">
        <ele>498.24</ele>
        <time>2014-09-07T16:34:04Z</time>
      </trkpt>
      <trkpt lat="46.24337" lon="5.98316">
        <ele>498.83</ele>
        <time>2014-09-07T16:34:13Z</time>
      </trkpt>
      <trkpt lat="46.24342" lon="5.98317">
        <ele>499</ele>
        <time>2014-09-07T16:34:14Z</time>
      </trkpt>
      <trkpt lat="46.24374" lon="5.98325">
        <ele>498.97</ele>
        <time>2014-09-07T16:34:20Z</time>
      </trkpt>
      <trkpt lat="46.24379" lon="5.98326">
        <ele>498.98</ele>
        <time>2014-09-07T16:34:21Z</time>
      </trkpt>
      <trkpt lat="46.24394" lon="5.9833">
        <ele>499.13</ele>
        <time>2014-09-07T16:34:24Z</time>
      </trkpt>
      <trkpt lat="46.24405" lon="5.98334">
        <ele>499.22</ele>
        <time>2014-09-07T16:34:26Z</time>
      </trkpt>
      <trkpt lat="46.24415" lon="5.98341">
        <ele>499.21</ele>
        <time>2014-09-07T16:34:28Z</time>
      </trkpt>
      <trkpt lat="46.2442" lon="5.98345">
        <ele>499.16</ele>
        <time>2014-09-07T16:34:29Z</time>
      </trkpt>
      <trkpt lat="46.24425" lon="5.98351">
        <ele>499.17</ele>
        <time>2014-09-07T16:34:30Z</time>
      </trkpt>
      <trkpt lat="46.2443" lon="5.98357">
        <ele>499.14</ele>
        <time>2014-09-07T16:34:31Z</time>
      </trkpt>
      <trkpt lat="46.24434" lon="5.98365">
        <ele>498.99</ele>
        <time>2014-09-07T16:34:32Z</time>
      </trkpt>
      <trkpt lat="46.24438" lon="5.98372">
        <ele>498.72</ele>
        <time>2014-09-07T16:34:33Z</time>
      </trkpt>
      <trkpt lat="46.24442" lon="5.9838">
        <ele>498.46</ele>
        <time>2014-09-07T16:34:34Z</time>
      </trkpt>
      <trkpt lat="46.24444" lon="5.98389">
        <ele>498.29</ele>
        <time>2014-09-07T16:34:35Z</time>
      </trkpt>
      <trkpt lat="46.24447" lon="5.98398">
        <ele>498.21</ele>
        <time>2014-09-07T16:34:36Z</time>
      </trkpt>
      <trkpt lat="46.24448" lon="5.98406">
        <ele>498.17</ele>
        <time>2014-09-07T16:34:37Z</time>
      </trkpt>
      <trkpt lat="46.24456" lon="5.98441">
        <ele>499.16</ele>
        <time>2014-09-07T16:34:41Z</time>
      </trkpt>
      <trkpt lat="46.24463" lon="5.98455">
        <ele>499.84</ele>
        <time>2014-09-07T16:34:43Z</time>
      </trkpt>
      <trkpt lat="46.24483" lon="5.98491">
        <ele>500.9</ele>
        <time>2014-09-07T16:34:49Z</time>
      </trkpt>
      <trkpt lat="46.24485" lon="5.98499">
        <ele>500.92</ele>
        <time>2014-09-07T16:34:50Z</time>
      </trkpt>
      <trkpt lat="46.24487" lon="5.98508">
        <ele>500.92</ele>
        <time>2014-09-07T16:34:51Z</time>
      </trkpt>
      <trkpt lat="46.24489" lon="5.98518">
        <ele>500.87</ele>
        <time>2014-09-07T16:34:52Z</time>
      </trkpt>
      <trkpt lat="46.2449" lon="5.9853">
        <ele>500.74</ele>
        <time>2014-09-07T16:34:53Z</time>
      </trkpt>
      <trkpt lat="46.2449" lon="5.98541">
        <ele>500.58</ele>
        <time>2014-09-07T16:34:54Z</time>
      </trkpt>
      <trkpt lat="46.2449" lon="5.98553">
        <ele>500.37</ele>
        <time>2014-09-07T16:34:55Z</time>
      </trkpt>
      <trkpt lat="46.24494" lon="5.98619">
        <ele>497.58</ele>
        <time>2014-09-07T16:35:00Z</time>
      </trkpt>
      <trkpt lat="46.24497" lon="5.98632">
        <ele>496.95</ele>
        <time>2014-09-07T16:35:01Z</time>
      </trkpt>
      <trkpt lat="46.24502" lon="5.98646">
        <ele>496.34</ele>
        <time>2014-09-07T16:35:02Z</time>
      </trkpt>
      <trkpt lat="46.24507" lon="5.98659">
        <ele>495.81</ele>
        <time>2014-09-07T16:35:03Z</time>
      </trkpt>
      <trkpt lat="46.24513" lon="5.98671">
        <ele>495.22</ele>
        <time>2014-09-07T16:35:04Z</time>
      </trkpt>
      <trkpt lat="46.24532" lon="5.98708">
        <ele>493.32</ele>
        <time>2014-09-07T16:35:07Z</time>
      </trkpt>
      <trkpt lat="46.2454" lon="5.98718">
        <ele>492.66</ele>
        <time>2014-09-07T16:35:08Z</time>
      </trkpt>
      <trkpt lat="46.24583" lon="5.98769">
        <ele>489.64</ele>
        <time>2014-09-07T16:35:13Z</time>
      </trkpt>
      <trkpt lat="46.24682" lon="5.98895">
        <ele>487.56</ele>
        <time>2014-09-07T16:35:27Z</time>
      </trkpt>
      <trkpt lat="46.24732" lon="5.98945">
        <ele>488.75</ele>
        <time>2014-09-07T16:35:35Z</time>
      </trkpt>
      <trkpt lat="46.24737" lon="5.98951">
        <ele>489.05</ele>
        <time>2014-09-07T16:35:36Z</time>
      </trkpt>
      <trkpt lat="46.24762" lon="5.98978">
        <ele>489.87</ele>
        <time>2014-09-07T16:35:41Z</time>
      </trkpt>
      <trkpt lat="46.24767" lon="5.98977">
        <ele>489.98</ele>
        <time>2014-09-07T16:35:42Z</time>
      </trkpt>
      <trkpt lat="46.24771" lon="5.98973">
        <ele>490.03</ele>
        <time>2014-09-07T16:35:43Z</time>
      </trkpt>
      <trkpt lat="46.24775" lon="5.98969">
        <ele>490.13</ele>
        <time>2014-09-07T16:35:44Z</time>
      </trkpt>
      <trkpt lat="46.2478" lon="5.98966">
        <ele>490.17</ele>
        <time>2014-09-07T16:35:45Z</time>
      </trkpt>
      <trkpt lat="46.24784" lon="5.98964">
        <ele>490.29</ele>
        <time>2014-09-07T16:35:46Z</time>
      </trkpt>
      <trkpt lat="46.24789" lon="5.98964">
        <ele>490.55</ele>
        <time>2014-09-07T16:35:47Z</time>
      </trkpt>
      <trkpt lat="46.24793" lon="5.98964">
        <ele>490.87</ele>
        <time>2014-09-07T16:35:48Z</time>
      </trkpt>
      <trkpt lat="46.24798" lon="5.98964">
        <ele>491.2</ele>
        <time>2014-09-07T16:35:49Z</time>
      </trkpt>
      <trkpt lat="46.24807" lon="5.98966">
        <ele>491.98</ele>
        <time>2014-09-07T16:35:51Z</time>
      </trkpt>
      <trkpt lat="46.24811" lon="5.98967">
        <ele>492.28</ele>
        <time>2014-09-07T16:35:52Z</time>
      </trkpt>
      <trkpt lat="46.24869" lon="5.98996">
        <ele>491.66</ele>
        <time>2014-09-07T16:36:02Z</time>
      </trkpt>
      <trkpt lat="46.2497" lon="5.99023">
        <ele>490.69</ele>
        <time>2014-09-07T16:36:17Z</time>
      </trkpt>
      <trkpt lat="46.25031" lon="5.99041">
        <ele>490.91</ele>
        <time>2014-09-07T16:36:27Z</time>
      </trkpt>
      <trkpt lat="46.25126" lon="5.99093">
        <ele>492.74</ele>
        <time>2014-09-07T16:36:45Z</time>
      </trkpt>
      <trkpt lat="46.25199" lon="5.9915">
        <ele>494.39</ele>
        <time>2014-09-07T16:37:02Z</time>
      </trkpt>
      <trkpt lat="46.25288" lon="5.99199">
        <ele>494.17</ele>
        <time>2014-09-07T16:37:20Z</time>
      </trkpt>
      <trkpt lat="46.25371" lon="5.99236">
        <ele>495.61</ele>
        <time>2014-09-07T16:37:37Z</time>
      </trkpt>
      <trkpt lat="46.25427" lon="5.99285">
        <ele>497.4</ele>
        <time>2014-09-07T16:37:52Z</time>
      </trkpt>
      <trkpt lat="46.25466" lon="5.99331">
        <ele>496.98</ele>
        <time>2014-09-07T16:38:03Z</time>
      </trkpt>
      <trkpt lat="46.25483" lon="5.99343">
        <ele>497.58</ele>
        <time>2014-09-07T16:38:07Z</time>
      </trkpt>
      <trkpt lat="46.25515" lon="5.99359">
        <ele>498.45</ele>
        <time>2014-09-07T16:38:15Z</time>
      </trkpt>
      <trkpt lat="46.25527" lon="5.99365">
        <ele>499.41</ele>
        <time>2014-09-07T16:38:18Z</time>
      </trkpt>
      <trkpt lat="46.25585" lon="5.99393">
        <ele>501.35</ele>
        <time>2014-09-07T16:38:33Z</time>
      </trkpt>
      <trkpt lat="46.25599" lon="5.99423">
        <ele>502.1</ele>
        <time>2014-09-07T16:38:40Z</time>
      </trkpt>
      <trkpt lat="46.256" lon="5.99429">
        <ele>502.1</ele>
        <time>2014-09-07T16:38:41Z</time>
      </trkpt>
      <trkpt lat="46.25603" lon="5.99434">
        <ele>502.12</ele>
        <time>2014-09-07T16:38:42Z</time>
      </trkpt>
      <trkpt lat="46.25606" lon="5.99437">
        <ele>502.09</ele>
        <time>2014-09-07T16:38:43Z</time>
      </trkpt>
      <trkpt lat="46.2561" lon="5.9944">
        <ele>502.07</ele>
        <time>2014-09-07T16:38:44Z</time>
      </trkpt>
      <trkpt lat="46.25625" lon="5.99452">
        <ele>501.93</ele>
        <time>2014-09-07T16:38:48Z</time>
      </trkpt>
      <trkpt lat="46.25629" lon="5.99454">
        <ele>501.89</ele>
        <time>2014-09-07T16:38:49Z</time>
      </trkpt>
      <trkpt lat="46.2565" lon="5.9946">
        <ele>502.28</ele>
        <time>2014-09-07T16:38:54Z</time>
      </trkpt>
      <trkpt lat="46.25686" lon="5.99484">
        <ele>502.44</ele>
        <time>2014-09-07T16:39:03Z</time>
      </trkpt>
      <trkpt lat="46.2575" lon="5.99548">
        <ele>503.48</ele>
        <time>2014-09-07T16:39:19Z</time>
      </trkpt>
      <trkpt lat="46.25762" lon="5.99559">
        <ele>503.64</ele>
        <time>2014-09-07T16:39:22Z</time>
      </trkpt>
      <trkpt lat="46.25828" lon="5.996">
        <ele>505.71</ele>
        <time>2014-09-07T16:39:38Z</time>
      </trkpt>
      <trkpt lat="46.2584" lon="5.99605">
        <ele>506.19</ele>
        <time>2014-09-07T16:39:41Z</time>
      </trkpt>
      <trkpt lat="46.25856" lon="5.99611">
        <ele>506.73</ele>
        <time>2014-09-07T16:39:45Z</time>
      </trkpt>
      <trkpt lat="46.25873" lon="5.99621">
        <ele>507.58</ele>
        <time>2014-09-07T16:39:50Z</time>
      </trkpt>
      <trkpt lat="46.25879" lon="5.99623">
        <ele>507.68</ele>
        <time>2014-09-07T16:39:52Z</time>
      </trkpt>
      <trkpt lat="46.25881" lon="5.99622">
        <ele>507.83</ele>
        <time>2014-09-07T16:39:53Z</time>
      </trkpt>
      <trkpt lat="46.25883" lon="5.9962">
        <ele>508.03</ele>
        <time>2014-09-07T16:39:54Z</time>
      </trkpt>
      <trkpt lat="46.25887" lon="5.99614">
        <ele>508.29</ele>
        <time>2014-09-07T16:39:56Z</time>
      </trkpt>
      <trkpt lat="46.25889" lon="5.99611">
        <ele>508.53</ele>
        <time>2014-09-07T16:39:57Z</time>
      </trkpt>
      <trkpt lat="46.25892" lon="5.99609">
        <ele>508.74</ele>
        <time>2014-09-07T16:39:58Z</time>
      </trkpt>
      <trkpt lat="46.25894" lon="5.99607">
        <ele>508.91</ele>
        <time>2014-09-07T16:39:59Z</time>
      </trkpt>
      <trkpt lat="46.25897" lon="5.99605">
        <ele>509.06</ele>
        <time>2014-09-07T16:40:00Z</time>
      </trkpt>
      <trkpt lat="46.25899" lon="5.99603">
        <ele>509.2</ele>
        <time>2014-09-07T16:40:01Z</time>
      </trkpt>
      <trkpt lat="46.25942" lon="5.99557">
        <ele>511.2</ele>
        <time>2014-09-07T16:40:21Z</time>
      </trkpt>
      <trkpt lat="46.25969" lon="5.99521">
        <ele>513.34</ele>
        <time>2014-09-07T16:40:35Z</time>
      </trkpt>
      <trkpt lat="46.2598" lon="5.99502">
        <ele>514.33</ele>
        <time>2014-09-07T16:40:42Z</time>
      </trkpt>
      <trkpt lat="46.25984" lon="5.99498">
        <ele>514.51</ele>
        <time>2014-09-07T16:40:44Z</time>
      </trkpt>
      <trkpt lat="46.25986" lon="5.99497">
        <ele>514.63</ele>
        <time>2014-09-07T16:40:45Z</time>
      </trkpt>
      <trkpt lat="46.25988" lon="5.99497">
        <ele>514.72</ele>
        <time>2014-09-07T16:40:46Z</time>
      </trkpt>
      <trkpt lat="46.2599" lon="5.99499">
        <ele>514.86</ele>
        <time>2014-09-07T16:40:47Z</time>
      </trkpt>
      <trkpt lat="46.25996" lon="5.99503">
        <ele>515.16</ele>
        <time>2014-09-07T16:40:50Z</time>
      </trkpt>
      <trkpt lat="46.25999" lon="5.99507">
        <ele>515.11</ele>
        <time>2014-09-07T16:40:52Z</time>
      </trkpt>
      <trkpt lat="46.26" lon="5.99509">
        <ele>515.09</ele>
        <time>2014-09-07T16:40:53Z</time>
      </trkpt>
      <trkpt lat="46.26004" lon="5.99513">
        <ele>515.04</ele>
        <time>2014-09-07T16:40:55Z</time>
      </trkpt>
      <trkpt lat="46.26005" lon="5.99515">
        <ele>515.02</ele>
        <time>2014-09-07T16:40:56Z</time>
      </trkpt>
      <trkpt lat="46.26007" lon="5.99517">
        <ele>515.01</ele>
        <time>2014-09-07T16:40:57Z</time>
      </trkpt>
      <trkpt lat="46.26009" lon="5.99519">
        <ele>515.04</ele>
        <time>2014-09-07T16:40:58Z</time>
      </trkpt>
      <trkpt lat="46.2601" lon="5.99519">
        <ele>515.06</ele>
        <time>2014-09-07T16:40:59Z</time>
      </trkpt>
      <trkpt lat="46.26011" lon="5.99518">
        <ele>515.07</ele>
        <time>2014-09-07T16:41:00Z</time>
      </trkpt>
      <trkpt lat="46.26011" lon="5.99516">
        <ele>515.03</ele>
        <time>2014-09-07T16:41:01Z</time>
      </trkpt>
      <trkpt lat="46.26005" lon="5.9951">
        <ele>515.14</ele>
        <time>2014-09-07T16:41:04Z</time>
      </trkpt>
      <trkpt lat="46.26003" lon="5.99507">
        <ele>515.17</ele>
        <time>2014-09-07T16:41:05Z</time>
      </trkpt>
      <trkpt lat="46.26" lon="5.99504">
        <ele>515.25</ele>
        <time>2014-09-07T16:41:06Z</time>
      </trkpt>
      <trkpt lat="46.25995" lon="5.99497">
        <ele>515.41</ele>
        <time>2014-09-07T16:41:08Z</time>
      </trkpt>
      <trkpt lat="46.25993" lon="5.99494">
        <ele>515.37</ele>
        <time>2014-09-07T16:41:09Z</time>
      </trkpt>
      <trkpt lat="46.25992" lon="5.9949">
        <ele>515.45</ele>
        <time>2014-09-07T16:41:10Z</time>
      </trkpt>
      <trkpt lat="46.25993" lon="5.99487">
        <ele>515.59</ele>
        <time>2014-09-07T16:41:11Z</time>
      </trkpt>
      <trkpt lat="46.25994" lon="5.99483">
        <ele>515.66</ele>
        <time>2014-09-07T16:41:12Z</time>
      </trkpt>
      <trkpt lat="46.25995" lon="5.99479">
        <ele>515.69</ele>
        <time>2014-09-07T16:41:13Z</time>
      </trkpt>
      <trkpt lat="46.26028" lon="5.99448">
        <ele>518.1</ele>
        <time>2014-09-07T16:41:27Z</time>
      </trkpt>
      <trkpt lat="46.26033" lon="5.99444">
        <ele>518.56</ele>
        <time>2014-09-07T16:41:29Z</time>
      </trkpt>
      <trkpt lat="46.26035" lon="5.99443">
        <ele>518.75</ele>
        <time>2014-09-07T16:41:30Z</time>
      </trkpt>
      <trkpt lat="46.26039" lon="5.99441">
        <ele>518.98</ele>
        <time>2014-09-07T16:41:31Z</time>
      </trkpt>
      <trkpt lat="46.26041" lon="5.9944">
        <ele>519.26</ele>
        <time>2014-09-07T16:41:32Z</time>
      </trkpt>
      <trkpt lat="46.26044" lon="5.99438">
        <ele>519.57</ele>
        <time>2014-09-07T16:41:33Z</time>
      </trkpt>
      <trkpt lat="46.26053" lon="5.9943">
        <ele>520.5</ele>
        <time>2014-09-07T16:41:37Z</time>
      </trkpt>
      <trkpt lat="46.26061" lon="5.99421">
        <ele>521.63</ele>
        <time>2014-09-07T16:41:41Z</time>
      </trkpt>
      <trkpt lat="46.26065" lon="5.99416">
        <ele>522</ele>
        <time>2014-09-07T16:41:43Z</time>
      </trkpt>
      <trkpt lat="46.26072" lon="5.99407">
        <ele>522.98</ele>
        <time>2014-09-07T16:41:47Z</time>
      </trkpt>
      <trkpt lat="46.26074" lon="5.99404">
        <ele>523.11</ele>
        <time>2014-09-07T16:41:48Z</time>
      </trkpt>
      <trkpt lat="46.26076" lon="5.99401">
        <ele>523.27</ele>
        <time>2014-09-07T16:41:49Z</time>
      </trkpt>
      <trkpt lat="46.26078" lon="5.99399">
        <ele>523.38</ele>
        <time>2014-09-07T16:41:50Z</time>
      </trkpt>
      <trkpt lat="46.2608" lon="5.99396">
        <ele>523.47</ele>
        <time>2014-09-07T16:41:51Z</time>
      </trkpt>
      <trkpt lat="46.2609" lon="5.99374">
        <ele>524.89</ele>
        <time>2014-09-07T16:41:58Z</time>
      </trkpt>
      <trkpt lat="46.2609" lon="5.9937">
        <ele>524.99</ele>
        <time>2014-09-07T16:41:59Z</time>
      </trkpt>
      <trkpt lat="46.2609" lon="5.99366">
        <ele>525</ele>
        <time>2014-09-07T16:42:00Z</time>
      </trkpt>
      <trkpt lat="46.26089" lon="5.99362">
        <ele>525.01</ele>
        <time>2014-09-07T16:42:01Z</time>
      </trkpt>
      <trkpt lat="46.26088" lon="5.99358">
        <ele>525.04</ele>
        <time>2014-09-07T16:42:02Z</time>
      </trkpt>
      <trkpt lat="46.26049" lon="5.99284">
        <ele>526.18</ele>
        <time>2014-09-07T16:42:20Z</time>
      </trkpt>
      <trkpt lat="46.26022" lon="5.99259">
        <ele>526.58</ele>
        <time>2014-09-07T16:42:28Z</time>
      </trkpt>
      <trkpt lat="46.26014" lon="5.99253">
        <ele>526.52</ele>
        <time>2014-09-07T16:42:30Z</time>
      </trkpt>
      <trkpt lat="46.2601" lon="5.99251">
        <ele>526.55</ele>
        <time>2014-09-07T16:42:31Z</time>
      </trkpt>
      <trkpt lat="46.26004" lon="5.99249">
        <ele>526.54</ele>
        <time>2014-09-07T16:42:32Z</time>
      </trkpt>
      <trkpt lat="46.25999" lon="5.99248">
        <ele>526.4</ele>
        <time>2014-09-07T16:42:33Z</time>
      </trkpt>
      <trkpt lat="46.25993" lon="5.99246">
        <ele>526.22</ele>
        <time>2014-09-07T16:42:34Z</time>
      </trkpt>
      <trkpt lat="46.25982" lon="5.99244">
        <ele>525.78</ele>
        <time>2014-09-07T16:42:36Z</time>
      </trkpt>
      <trkpt lat="46.25976" lon="5.99241">
        <ele>525.56</ele>
        <time>2014-09-07T16:42:37Z</time>
      </trkpt>
      <trkpt lat="46.25955" lon="5.99233">
        <ele>524.66</ele>
        <time>2014-09-07T16:42:41Z</time>
      </trkpt>
      <trkpt lat="46.25945" lon="5.99232">
        <ele>524.16</ele>
        <time>2014-09-07T16:42:43Z</time>
      </trkpt>
      <trkpt lat="46.25941" lon="5.99228">
        <ele>523.92</ele>
        <time>2014-09-07T16:42:44Z</time>
      </trkpt>
      <trkpt lat="46.25937" lon="5.99224">
        <ele>523.8</ele>
        <time>2014-09-07T16:42:45Z</time>
      </trkpt>
      <trkpt lat="46.25929" lon="5.99213">
        <ele>523.44</ele>
        <time>2014-09-07T16:42:47Z</time>
      </trkpt>
      <trkpt lat="46.25925" lon="5.99208">
        <ele>523.44</ele>
        <time>2014-09-07T16:42:48Z</time>
      </trkpt>
      <trkpt lat="46.25866" lon="5.99135">
        <ele>523.74</ele>
        <time>2014-09-07T16:43:02Z</time>
      </trkpt>
      <trkpt lat="46.25841" lon="5.99102">
        <ele>523.95</ele>
        <time>2014-09-07T16:43:10Z</time>
      </trkpt>
      <trkpt lat="46.25841" lon="5.99098">
        <ele>523.95</ele>
        <time>2014-09-07T16:43:11Z</time>
      </trkpt>
      <trkpt lat="46.25842" lon="5.99094">
        <ele>524.02</ele>
        <time>2014-09-07T16:43:12Z</time>
      </trkpt>
      <trkpt lat="46.25872" lon="5.99047">
        <ele>526.31</ele>
        <time>2014-09-07T16:43:25Z</time>
      </trkpt>
      <trkpt lat="46.259" lon="5.99003">
        <ele>529.14</ele>
        <time>2014-09-07T16:43:38Z</time>
      </trkpt>
      <trkpt lat="46.25902" lon="5.99">
        <ele>529.38</ele>
        <time>2014-09-07T16:43:39Z</time>
      </trkpt>
      <trkpt lat="46.25904" lon="5.98974">
        <ele>531.5</ele>
        <time>2014-09-07T16:43:49Z</time>
      </trkpt>
    </trkseg>
  </trk>
</gpx>